<?xml version='1.0' encoding='UTF-8'?><gpx version="1.1" creator="JPX - https://github.com/jenetics/jpx" xmlns="http://www.topografix.com/GPX/1/1"><trk><trkseg><trkpt lat="44.118089" lon="9.8031419"><ele>37.0</ele><time>2026-04-23T07:28:20.983Z</time></trkpt><trkpt lat="44.117863" lon="9.803107"><ele>37.0</ele><time>2026-04-23T07:28:22.982Z</time></trkpt><trkpt lat="44.117802" lon="9.8031392"><ele>37.0</ele><time>2026-04-23T07:28:28.983Z</time></trkpt><trkpt lat="44.1177345" lon="9.8031143"><ele>37.0</ele><time>2026-04-23T07:28:32.982Z</time></trkpt><trkpt lat="44.1176716" lon="9.8030614"><ele>37.0</ele><time>2026-04-23T07:28:38.982Z</time></trkpt><trkpt lat="44.117601" lon="9.8030361"><ele>37.0</ele><time>2026-04-23T07:28:43.982Z</time></trkpt><trkpt lat="44.1175117" lon="9.803025"><ele>37.0</ele><time>2026-04-23T07:28:49.982Z</time></trkpt><trkpt lat="44.1174531" lon="9.8029848"><ele>37.0</ele><time>2026-04-23T07:28:58.982Z</time></trkpt><trkpt lat="44.1173951" lon="9.8029349"><ele>37.0</ele><time>2026-04-23T07:29:02.982Z</time></trkpt><trkpt lat="44.117458" lon="9.802856"><ele>37.0</ele><time>2026-04-23T07:29:07.983Z</time></trkpt><trkpt lat="44.1175317" lon="9.802777"><ele>37.0</ele><time>2026-04-23T07:29:11.983Z</time></trkpt><trkpt lat="44.1175983" lon="9.8027819"><ele>37.0</ele><time>2026-04-23T07:29:15.982Z</time></trkpt><trkpt lat="44.1175717" lon="9.8028767"><ele>37.0</ele><time>2026-04-23T07:29:21.983Z</time></trkpt><trkpt lat="44.117515" lon="9.8029417"><ele>37.0</ele><time>2026-04-23T07:29:24.983Z</time></trkpt><trkpt lat="44.1174583" lon="9.8030217"><ele>37.0</ele><time>2026-04-23T07:29:27.982Z</time></trkpt><trkpt lat="44.1173833" lon="9.80311"><ele>37.0</ele><time>2026-04-23T07:29:30.982Z</time></trkpt><trkpt lat="44.1173217" lon="9.8032033"><ele>37.0</ele><time>2026-04-23T07:29:33.982Z</time></trkpt><trkpt lat="44.1172917" lon="9.8032983"><ele>36.5</ele><time>2026-04-23T07:29:36.982Z</time></trkpt><trkpt lat="44.1172367" lon="9.8033517"><ele>36.0</ele><time>2026-04-23T07:29:39.982Z</time></trkpt><trkpt lat="44.1171317" lon="9.8033317"><ele>35.5</ele><time>2026-04-23T07:29:41.982Z</time></trkpt><trkpt lat="44.1170783" lon="9.803405"><ele>35.0</ele><time>2026-04-23T07:29:43.982Z</time></trkpt><trkpt lat="44.1170383" lon="9.8035017"><ele>34.5</ele><time>2026-04-23T07:29:45.982Z</time></trkpt><trkpt lat="44.1170033" lon="9.803605"><ele>34.0</ele><time>2026-04-23T07:29:47.982Z</time></trkpt><trkpt lat="44.11698" lon="9.8037"><ele>34.0</ele><time>2026-04-23T07:29:49.982Z</time></trkpt><trkpt lat="44.11697" lon="9.8038033"><ele>34.0</ele><time>2026-04-23T07:29:53.983Z</time></trkpt><trkpt lat="44.1168967" lon="9.8038167"><ele>34.0</ele><time>2026-04-23T07:30:00.982Z</time></trkpt><trkpt lat="44.1168233" lon="9.8037783"><ele>34.0</ele><time>2026-04-23T07:30:02.982Z</time></trkpt><trkpt lat="44.11674" lon="9.8037417"><ele>34.0</ele><time>2026-04-23T07:30:04.983Z</time></trkpt><trkpt lat="44.11666" lon="9.8037017"><ele>34.0</ele><time>2026-04-23T07:30:06.982Z</time></trkpt><trkpt lat="44.1165683" lon="9.8036617"><ele>33.0</ele><time>2026-04-23T07:30:08.982Z</time></trkpt><trkpt lat="44.1164767" lon="9.8036067"><ele>32.0</ele><time>2026-04-23T07:30:10.982Z</time></trkpt><trkpt lat="44.1163717" lon="9.8036183"><ele>31.0</ele><time>2026-04-23T07:30:12.983Z</time></trkpt><trkpt lat="44.11631" lon="9.8036433"><ele>30.0</ele><time>2026-04-23T07:30:13.982Z</time></trkpt><trkpt lat="44.1162" lon="9.8036717"><ele>29.0</ele><time>2026-04-23T07:30:15.982Z</time></trkpt><trkpt lat="44.1161033" lon="9.80369"><ele>28.999999999999996</ele><time>2026-04-23T07:30:17.983Z</time></trkpt><trkpt lat="44.11603" lon="9.8037167"><ele>29.0</ele><time>2026-04-23T07:30:19.982Z</time></trkpt><trkpt lat="44.1159533" lon="9.8037867"><ele>29.0</ele><time>2026-04-23T07:30:21.982Z</time></trkpt><trkpt lat="44.1159017" lon="9.8038717"><ele>29.0</ele><time>2026-04-23T07:30:23.982Z</time></trkpt><trkpt lat="44.1158367" lon="9.803985"><ele>28.999999999999996</ele><time>2026-04-23T07:30:25.983Z</time></trkpt><trkpt lat="44.1157833" lon="9.8040417"><ele>29.0</ele><time>2026-04-23T07:30:26.982Z</time></trkpt><trkpt lat="44.1156867" lon="9.8041367"><ele>28.799999999999997</ele><time>2026-04-23T07:30:28.983Z</time></trkpt><trkpt lat="44.1155933" lon="9.8042167"><ele>28.599999999999998</ele><time>2026-04-23T07:30:30.983Z</time></trkpt><trkpt lat="44.1155" lon="9.8042983"><ele>28.4</ele><time>2026-04-23T07:30:32.983Z</time></trkpt><trkpt lat="44.1154533" lon="9.80436"><ele>28.2</ele><time>2026-04-23T07:30:33.983Z</time></trkpt><trkpt lat="44.1153867" lon="9.8044583"><ele>28.0</ele><time>2026-04-23T07:30:35.982Z</time></trkpt><trkpt lat="44.1153033" lon="9.80454"><ele>28.0</ele><time>2026-04-23T07:30:37.982Z</time></trkpt><trkpt lat="44.1152233" lon="9.8046217"><ele>27.999999999999996</ele><time>2026-04-23T07:30:39.982Z</time></trkpt><trkpt lat="44.11514" lon="9.8047017"><ele>27.999999999999996</ele><time>2026-04-23T07:30:41.982Z</time></trkpt><trkpt lat="44.11506" lon="9.8047933"><ele>28.0</ele><time>2026-04-23T07:30:43.982Z</time></trkpt><trkpt lat="44.114995" lon="9.8048833"><ele>28.0</ele><time>2026-04-23T07:30:45.982Z</time></trkpt><trkpt lat="44.1149367" lon="9.80495"><ele>28.166666666666668</ele><time>2026-04-23T07:30:47.982Z</time></trkpt><trkpt lat="44.1149033" lon="9.8050383"><ele>28.333333333333336</ele><time>2026-04-23T07:30:50.982Z</time></trkpt><trkpt lat="44.114945" lon="9.805165"><ele>28.5</ele><time>2026-04-23T07:30:53.982Z</time></trkpt><trkpt lat="44.1149783" lon="9.8052667"><ele>28.666666666666664</ele><time>2026-04-23T07:30:55.982Z</time></trkpt><trkpt lat="44.1150167" lon="9.8053833"><ele>28.833333333333332</ele><time>2026-04-23T07:30:57.982Z</time></trkpt><trkpt lat="44.115065" lon="9.8054867"><ele>29.0</ele><time>2026-04-23T07:30:59.982Z</time></trkpt><trkpt lat="44.1151017" lon="9.805585"><ele>29.000000000000004</ele><time>2026-04-23T07:31:01.982Z</time></trkpt><trkpt lat="44.1151417" lon="9.8056783"><ele>29.0</ele><time>2026-04-23T07:31:03.982Z</time></trkpt><trkpt lat="44.1151883" lon="9.8057683"><ele>29.000000000000004</ele><time>2026-04-23T07:31:05.982Z</time></trkpt><trkpt lat="44.11523" lon="9.805845"><ele>29.000000000000004</ele><time>2026-04-23T07:31:07.982Z</time></trkpt><trkpt lat="44.1152783" lon="9.8059283"><ele>29.0</ele><time>2026-04-23T07:31:09.982Z</time></trkpt><trkpt lat="44.1153217" lon="9.8060083"><ele>29.000000000000004</ele><time>2026-04-23T07:31:11.982Z</time></trkpt><trkpt lat="44.1153617" lon="9.8060817"><ele>29.000000000000004</ele><time>2026-04-23T07:31:13.982Z</time></trkpt><trkpt lat="44.1154067" lon="9.8061533"><ele>30.833333333333332</ele><time>2026-04-23T07:31:15.982Z</time></trkpt><trkpt lat="44.1154433" lon="9.806225"><ele>32.666666666666664</ele><time>2026-04-23T07:31:17.982Z</time></trkpt><trkpt lat="44.1154883" lon="9.8063033"><ele>34.5</ele><time>2026-04-23T07:31:19.982Z</time></trkpt><trkpt lat="44.11554" lon="9.8064117"><ele>36.333333333333336</ele><time>2026-04-23T07:31:22.983Z</time></trkpt><trkpt lat="44.1155983" lon="9.8064867"><ele>38.16666666666667</ele><time>2026-04-23T07:31:24.982Z</time></trkpt><trkpt lat="44.11565" lon="9.806565"><ele>40.0</ele><time>2026-04-23T07:31:26.982Z</time></trkpt><trkpt lat="44.11568" lon="9.8066567"><ele>40.0</ele><time>2026-04-23T07:31:28.982Z</time></trkpt><trkpt lat="44.1157033" lon="9.8067633"><ele>40.0</ele><time>2026-04-23T07:31:30.982Z</time></trkpt><trkpt lat="44.115695" lon="9.806885"><ele>40.0</ele><time>2026-04-23T07:31:32.983Z</time></trkpt><trkpt lat="44.115705" lon="9.8070167"><ele>40.0</ele><time>2026-04-23T07:31:34.982Z</time></trkpt><trkpt lat="44.1157083" lon="9.8071333"><ele>40.0</ele><time>2026-04-23T07:31:36.982Z</time></trkpt><trkpt lat="44.1157067" lon="9.80725"><ele>40.0</ele><time>2026-04-23T07:31:38.982Z</time></trkpt><trkpt lat="44.1156883" lon="9.80738"><ele>40.5</ele><time>2026-04-23T07:31:40.982Z</time></trkpt><trkpt lat="44.11566" lon="9.8074967"><ele>41.0</ele><time>2026-04-23T07:31:42.982Z</time></trkpt><trkpt lat="44.11563" lon="9.8076017"><ele>41.5</ele><time>2026-04-23T07:31:44.983Z</time></trkpt><trkpt lat="44.1155733" lon="9.8077033"><ele>42.0</ele><time>2026-04-23T07:31:46.982Z</time></trkpt><trkpt lat="44.1155033" lon="9.807775"><ele>42.5</ele><time>2026-04-23T07:31:48.983Z</time></trkpt><trkpt lat="44.1154233" lon="9.80781"><ele>43.0</ele><time>2026-04-23T07:31:50.982Z</time></trkpt><trkpt lat="44.1153367" lon="9.80778"><ele>41.0</ele><time>2026-04-23T07:31:52.982Z</time></trkpt><trkpt lat="44.1152583" lon="9.8077783"><ele>39.0</ele><time>2026-04-23T07:31:54.982Z</time></trkpt><trkpt lat="44.1151767" lon="9.807765"><ele>37.0</ele><time>2026-04-23T07:31:56.982Z</time></trkpt><trkpt lat="44.115085" lon="9.8077567"><ele>35.0</ele><time>2026-04-23T07:31:58.982Z</time></trkpt><trkpt lat="44.1149967" lon="9.80778"><ele>33.0</ele><time>2026-04-23T07:32:00.982Z</time></trkpt><trkpt lat="44.11491" lon="9.8078167"><ele>31.0</ele><time>2026-04-23T07:32:02.982Z</time></trkpt><trkpt lat="44.1148433" lon="9.8078483"><ele>30.166666666666668</ele><time>2026-04-23T07:32:04.983Z</time></trkpt><trkpt lat="44.1147767" lon="9.807845"><ele>29.333333333333336</ele><time>2026-04-23T07:32:06.982Z</time></trkpt><trkpt lat="44.1147217" lon="9.8077683"><ele>28.5</ele><time>2026-04-23T07:32:08.982Z</time></trkpt><trkpt lat="44.1146767" lon="9.8076998"><ele>27.666666666666664</ele><time>2026-04-23T07:32:10.983Z</time></trkpt><trkpt lat="44.1146401" lon="9.8076089"><ele>26.833333333333332</ele><time>2026-04-23T07:32:12.983Z</time></trkpt><trkpt lat="44.1146085" lon="9.8075298"><ele>26.0</ele><time>2026-04-23T07:32:14.982Z</time></trkpt><trkpt lat="44.1145793" lon="9.8073938"><ele>28.0</ele><time>2026-04-23T07:32:16.983Z</time></trkpt><trkpt lat="44.1145688" lon="9.8072924"><ele>30.0</ele><time>2026-04-23T07:32:18.982Z</time></trkpt><trkpt lat="44.1145408" lon="9.8072098"><ele>32.0</ele><time>2026-04-23T07:32:20.982Z</time></trkpt><trkpt lat="44.1144967" lon="9.807092"><ele>34.0</ele><time>2026-04-23T07:32:23.982Z</time></trkpt><trkpt lat="44.1143906" lon="9.8070168"><ele>36.0</ele><time>2026-04-23T07:32:25.982Z</time></trkpt><trkpt lat="44.1142833" lon="9.8069665"><ele>36.0</ele><time>2026-04-23T07:32:27.982Z</time></trkpt><trkpt lat="44.1141724" lon="9.80693"><ele>36.0</ele><time>2026-04-23T07:32:29.982Z</time></trkpt><trkpt lat="44.1140794" lon="9.8068771"><ele>36.0</ele><time>2026-04-23T07:32:31.982Z</time></trkpt><trkpt lat="44.1139784" lon="9.8068106"><ele>36.0</ele><time>2026-04-23T07:32:33.982Z</time></trkpt><trkpt lat="44.113879" lon="9.8067553"><ele>36.0</ele><time>2026-04-23T07:32:35.982Z</time></trkpt><trkpt lat="44.1137919" lon="9.8066882"><ele>35.0</ele><time>2026-04-23T07:32:37.982Z</time></trkpt><trkpt lat="44.1137041" lon="9.8066128"><ele>34.0</ele><time>2026-04-23T07:32:39.982Z</time></trkpt><trkpt lat="44.1136105" lon="9.8065413"><ele>33.0</ele><time>2026-04-23T07:32:41.982Z</time></trkpt><trkpt lat="44.1135012" lon="9.8064822"><ele>32.0</ele><time>2026-04-23T07:32:43.983Z</time></trkpt><trkpt lat="44.1133911" lon="9.8064136"><ele>31.0</ele><time>2026-04-23T07:32:45.982Z</time></trkpt><trkpt lat="44.1133184" lon="9.8063785"><ele>31.000000000000004</ele><time>2026-04-23T07:32:46.982Z</time></trkpt><trkpt lat="44.1132369" lon="9.8063551"><ele>31.0</ele><time>2026-04-23T07:32:47.982Z</time></trkpt><trkpt lat="44.1131549" lon="9.8063438"><ele>31.0</ele><time>2026-04-23T07:32:48.982Z</time></trkpt><trkpt lat="44.1130721" lon="9.806338"><ele>31.0</ele><time>2026-04-23T07:32:49.983Z</time></trkpt><trkpt lat="44.11299" lon="9.8063267"><ele>31.000000000000004</ele><time>2026-04-23T07:32:50.983Z</time></trkpt><trkpt lat="44.1129067" lon="9.8063667"><ele>31.0</ele><time>2026-04-23T07:32:51.983Z</time></trkpt><trkpt lat="44.1128233" lon="9.8064333"><ele>31.0</ele><time>2026-04-23T07:32:52.982Z</time></trkpt><trkpt lat="44.1127433" lon="9.806515"><ele>31.0</ele><time>2026-04-23T07:32:53.982Z</time></trkpt><trkpt lat="44.1126717" lon="9.8066"><ele>31.0</ele><time>2026-04-23T07:32:54.982Z</time></trkpt><trkpt lat="44.1125967" lon="9.8066683"><ele>31.0</ele><time>2026-04-23T07:32:55.982Z</time></trkpt><trkpt lat="44.11252" lon="9.80673"><ele>31.0</ele><time>2026-04-23T07:32:56.982Z</time></trkpt><trkpt lat="44.1124433" lon="9.8067817"><ele>29.833333333333336</ele><time>2026-04-23T07:32:57.982Z</time></trkpt><trkpt lat="44.1123633" lon="9.8068217"><ele>28.666666666666668</ele><time>2026-04-23T07:32:58.982Z</time></trkpt><trkpt lat="44.1122867" lon="9.8068533"><ele>27.5</ele><time>2026-04-23T07:32:59.982Z</time></trkpt><trkpt lat="44.1122033" lon="9.8068783"><ele>26.333333333333336</ele><time>2026-04-23T07:33:00.982Z</time></trkpt><trkpt lat="44.1121117" lon="9.8068783"><ele>25.166666666666668</ele><time>2026-04-23T07:33:01.983Z</time></trkpt><trkpt lat="44.112025" lon="9.8068667"><ele>24.0</ele><time>2026-04-23T07:33:02.982Z</time></trkpt><trkpt lat="44.11194" lon="9.80686"><ele>24.0</ele><time>2026-04-23T07:33:03.982Z</time></trkpt><trkpt lat="44.1118533" lon="9.80684"><ele>24.0</ele><time>2026-04-23T07:33:04.983Z</time></trkpt><trkpt lat="44.1117783" lon="9.8068067"><ele>24.0</ele><time>2026-04-23T07:33:05.983Z</time></trkpt><trkpt lat="44.11169" lon="9.806775"><ele>24.0</ele><time>2026-04-23T07:33:06.982Z</time></trkpt><trkpt lat="44.1116117" lon="9.8067117"><ele>24.0</ele><time>2026-04-23T07:33:07.982Z</time></trkpt><trkpt lat="44.111545" lon="9.8066367"><ele>24.0</ele><time>2026-04-23T07:33:08.982Z</time></trkpt><trkpt lat="44.1114817" lon="9.8065467"><ele>23.5</ele><time>2026-04-23T07:33:09.982Z</time></trkpt><trkpt lat="44.1114167" lon="9.8064617"><ele>23.0</ele><time>2026-04-23T07:33:10.982Z</time></trkpt><trkpt lat="44.111345" lon="9.8063817"><ele>22.5</ele><time>2026-04-23T07:33:11.982Z</time></trkpt><trkpt lat="44.1112733" lon="9.806315"><ele>22.0</ele><time>2026-04-23T07:33:12.982Z</time></trkpt><trkpt lat="44.1111967" lon="9.806265"><ele>21.5</ele><time>2026-04-23T07:33:13.982Z</time></trkpt><trkpt lat="44.1111217" lon="9.806225"><ele>21.0</ele><time>2026-04-23T07:33:14.983Z</time></trkpt><trkpt lat="44.1110533" lon="9.8061867"><ele>21.0</ele><time>2026-04-23T07:33:15.982Z</time></trkpt><trkpt lat="44.1109783" lon="9.8061533"><ele>21.0</ele><time>2026-04-23T07:33:16.983Z</time></trkpt><trkpt lat="44.1109" lon="9.8062133"><ele>21.0</ele><time>2026-04-23T07:33:17.982Z</time></trkpt><trkpt lat="44.1108317" lon="9.806255"><ele>21.0</ele><time>2026-04-23T07:33:18.982Z</time></trkpt><trkpt lat="44.11076" lon="9.8063267"><ele>21.0</ele><time>2026-04-23T07:33:19.983Z</time></trkpt><trkpt lat="44.1107" lon="9.8064183"><ele>21.0</ele><time>2026-04-23T07:33:20.982Z</time></trkpt><trkpt lat="44.1106383" lon="9.8065067"><ele>20.6</ele><time>2026-04-23T07:33:21.983Z</time></trkpt><trkpt lat="44.110575" lon="9.8066117"><ele>20.200000000000003</ele><time>2026-04-23T07:33:22.983Z</time></trkpt><trkpt lat="44.1105017" lon="9.806685"><ele>19.799999999999997</ele><time>2026-04-23T07:33:23.982Z</time></trkpt><trkpt lat="44.1103917" lon="9.80677"><ele>19.4</ele><time>2026-04-23T07:33:24.982Z</time></trkpt><trkpt lat="44.11031" lon="9.8067983"><ele>19.0</ele><time>2026-04-23T07:33:25.983Z</time></trkpt><trkpt lat="44.1102333" lon="9.8067833"><ele>19.0</ele><time>2026-04-23T07:33:26.982Z</time></trkpt><trkpt lat="44.1101533" lon="9.8067533"><ele>19.0</ele><time>2026-04-23T07:33:27.983Z</time></trkpt><trkpt lat="44.1100583" lon="9.8067033"><ele>19.0</ele><time>2026-04-23T07:33:28.982Z</time></trkpt><trkpt lat="44.109965" lon="9.8066433"><ele>19.0</ele><time>2026-04-23T07:33:29.982Z</time></trkpt><trkpt lat="44.109875" lon="9.80657"><ele>19.0</ele><time>2026-04-23T07:33:30.982Z</time></trkpt><trkpt lat="44.109785" lon="9.8064667"><ele>17.599999999999998</ele><time>2026-04-23T07:33:31.982Z</time></trkpt><trkpt lat="44.1096933" lon="9.806385"><ele>16.2</ele><time>2026-04-23T07:33:32.983Z</time></trkpt><trkpt lat="44.1096133" lon="9.8062933"><ele>14.799999999999999</ele><time>2026-04-23T07:33:33.982Z</time></trkpt><trkpt lat="44.10954" lon="9.8061933"><ele>13.399999999999999</ele><time>2026-04-23T07:33:34.982Z</time></trkpt><trkpt lat="44.1094617" lon="9.8060967"><ele>12.0</ele><time>2026-04-23T07:33:35.982Z</time></trkpt><trkpt lat="44.1093883" lon="9.8060167"><ele>12.5</ele><time>2026-04-23T07:33:36.983Z</time></trkpt><trkpt lat="44.10932" lon="9.805935"><ele>13.0</ele><time>2026-04-23T07:33:37.983Z</time></trkpt><trkpt lat="44.10926" lon="9.8058583"><ele>13.5</ele><time>2026-04-23T07:33:38.982Z</time></trkpt><trkpt lat="44.1092" lon="9.8058"><ele>14.0</ele><time>2026-04-23T07:33:39.982Z</time></trkpt><trkpt lat="44.1091433" lon="9.805745"><ele>14.5</ele><time>2026-04-23T07:33:40.982Z</time></trkpt><trkpt lat="44.1090767" lon="9.8056517"><ele>15.0</ele><time>2026-04-23T07:33:42.983Z</time></trkpt><trkpt lat="44.1090217" lon="9.8056017"><ele>15.166666666666666</ele><time>2026-04-23T07:33:45.982Z</time></trkpt><trkpt lat="44.1089317" lon="9.8056217"><ele>15.333333333333332</ele><time>2026-04-23T07:33:49.982Z</time></trkpt><trkpt lat="44.1088633" lon="9.805585"><ele>15.5</ele><time>2026-04-23T07:33:53.983Z</time></trkpt><trkpt lat="44.1087983" lon="9.805525"><ele>15.666666666666666</ele><time>2026-04-23T07:34:03.982Z</time></trkpt><trkpt lat="44.108745" lon="9.805465"><ele>15.833333333333332</ele><time>2026-04-23T07:34:05.982Z</time></trkpt><trkpt lat="44.1086733" lon="9.8053883"><ele>16.0</ele><time>2026-04-23T07:34:07.982Z</time></trkpt><trkpt lat="44.1085917" lon="9.80531"><ele>15.999999999999998</ele><time>2026-04-23T07:34:09.982Z</time></trkpt><trkpt lat="44.1085083" lon="9.8052417"><ele>16.0</ele><time>2026-04-23T07:34:11.982Z</time></trkpt><trkpt lat="44.1084333" lon="9.8051717"><ele>16.0</ele><time>2026-04-23T07:34:13.983Z</time></trkpt><trkpt lat="44.1083683" lon="9.8051067"><ele>16.0</ele><time>2026-04-23T07:34:15.982Z</time></trkpt><trkpt lat="44.1083" lon="9.8050417"><ele>15.999999999999998</ele><time>2026-04-23T07:34:17.982Z</time></trkpt><trkpt lat="44.10823" lon="9.8049633"><ele>16.0</ele><time>2026-04-23T07:34:19.982Z</time></trkpt><trkpt lat="44.1081517" lon="9.8049033"><ele>16.333333333333332</ele><time>2026-04-23T07:34:21.982Z</time></trkpt><trkpt lat="44.1080817" lon="9.8048233"><ele>16.666666666666664</ele><time>2026-04-23T07:34:23.982Z</time></trkpt><trkpt lat="44.1080167" lon="9.8047367"><ele>17.0</ele><time>2026-04-23T07:34:25.982Z</time></trkpt><trkpt lat="44.10795" lon="9.8046567"><ele>17.333333333333332</ele><time>2026-04-23T07:34:27.982Z</time></trkpt><trkpt lat="44.107885" lon="9.8045933"><ele>17.666666666666668</ele><time>2026-04-23T07:34:29.982Z</time></trkpt><trkpt lat="44.1078283" lon="9.804535"><ele>18.0</ele><time>2026-04-23T07:34:31.982Z</time></trkpt><trkpt lat="44.107755" lon="9.804465"><ele>18.0</ele><time>2026-04-23T07:34:33.982Z</time></trkpt><trkpt lat="44.1076767" lon="9.8043967"><ele>18.0</ele><time>2026-04-23T07:34:35.982Z</time></trkpt><trkpt lat="44.1075983" lon="9.804325"><ele>18.0</ele><time>2026-04-23T07:34:37.982Z</time></trkpt><trkpt lat="44.10752" lon="9.804255"><ele>18.0</ele><time>2026-04-23T07:34:39.982Z</time></trkpt><trkpt lat="44.107445" lon="9.8041733"><ele>18.0</ele><time>2026-04-23T07:34:41.982Z</time></trkpt><trkpt lat="44.107395" lon="9.8040983"><ele>18.0</ele><time>2026-04-23T07:34:43.982Z</time></trkpt><trkpt lat="44.10732" lon="9.8040317"><ele>18.4</ele><time>2026-04-23T07:34:45.983Z</time></trkpt><trkpt lat="44.10724" lon="9.803965"><ele>18.8</ele><time>2026-04-23T07:34:47.982Z</time></trkpt><trkpt lat="44.107165" lon="9.8038867"><ele>19.2</ele><time>2026-04-23T07:34:49.982Z</time></trkpt><trkpt lat="44.1070833" lon="9.803825"><ele>19.6</ele><time>2026-04-23T07:34:51.983Z</time></trkpt><trkpt lat="44.1070033" lon="9.803775"><ele>20.0</ele><time>2026-04-23T07:34:53.982Z</time></trkpt><trkpt lat="44.10693" lon="9.80372"><ele>20.0</ele><time>2026-04-23T07:34:55.983Z</time></trkpt><trkpt lat="44.10685" lon="9.8036717"><ele>20.0</ele><time>2026-04-23T07:34:57.982Z</time></trkpt><trkpt lat="44.106775" lon="9.8036367"><ele>20.0</ele><time>2026-04-23T07:34:59.982Z</time></trkpt><trkpt lat="44.1066983" lon="9.803615"><ele>20.0</ele><time>2026-04-23T07:35:01.982Z</time></trkpt><trkpt lat="44.10662" lon="9.803585"><ele>20.0</ele><time>2026-04-23T07:35:03.982Z</time></trkpt><trkpt lat="44.106525" lon="9.8035367"><ele>20.0</ele><time>2026-04-23T07:35:05.982Z</time></trkpt><trkpt lat="44.1064317" lon="9.8035167"><ele>19.666666666666668</ele><time>2026-04-23T07:35:07.983Z</time></trkpt><trkpt lat="44.1063367" lon="9.803505"><ele>19.333333333333336</ele><time>2026-04-23T07:35:09.982Z</time></trkpt><trkpt lat="44.106245" lon="9.8035167"><ele>19.0</ele><time>2026-04-23T07:35:11.982Z</time></trkpt><trkpt lat="44.1061667" lon="9.8035333"><ele>18.666666666666668</ele><time>2026-04-23T07:35:13.981Z</time></trkpt><trkpt lat="44.1060833" lon="9.8035667"><ele>18.333333333333332</ele><time>2026-04-23T07:35:15.981Z</time></trkpt><trkpt lat="44.1059983" lon="9.803575"><ele>18.0</ele><time>2026-04-23T07:35:17.981Z</time></trkpt><trkpt lat="44.1059067" lon="9.8035667"><ele>18.0</ele><time>2026-04-23T07:35:19.981Z</time></trkpt><trkpt lat="44.10582" lon="9.803595"><ele>18.0</ele><time>2026-04-23T07:35:21.981Z</time></trkpt><trkpt lat="44.1057383" lon="9.8036317"><ele>18.0</ele><time>2026-04-23T07:35:23.982Z</time></trkpt><trkpt lat="44.10566" lon="9.8036567"><ele>18.0</ele><time>2026-04-23T07:35:26.981Z</time></trkpt><trkpt lat="44.1055867" lon="9.8036883"><ele>18.0</ele><time>2026-04-23T07:35:29.981Z</time></trkpt><trkpt lat="44.1055283" lon="9.8037383"><ele>18.0</ele><time>2026-04-23T07:35:31.981Z</time></trkpt><trkpt lat="44.10546" lon="9.80376"><ele>18.0</ele><time>2026-04-23T07:35:33.981Z</time></trkpt><trkpt lat="44.105395" lon="9.803805"><ele>18.0</ele><time>2026-04-23T07:35:35.981Z</time></trkpt><trkpt lat="44.105305" lon="9.8038567"><ele>18.0</ele><time>2026-04-23T07:35:37.981Z</time></trkpt><trkpt lat="44.1052117" lon="9.80391"><ele>18.0</ele><time>2026-04-23T07:35:39.981Z</time></trkpt><trkpt lat="44.1051283" lon="9.8039683"><ele>18.0</ele><time>2026-04-23T07:35:41.981Z</time></trkpt><trkpt lat="44.1050383" lon="9.80403"><ele>18.0</ele><time>2026-04-23T07:35:43.981Z</time></trkpt><trkpt lat="44.1049517" lon="9.8040983"><ele>18.0</ele><time>2026-04-23T07:35:45.981Z</time></trkpt><trkpt lat="44.1048717" lon="9.8041717"><ele>18.0</ele><time>2026-04-23T07:35:47.981Z</time></trkpt><trkpt lat="44.1047933" lon="9.804265"><ele>18.0</ele><time>2026-04-23T07:35:49.982Z</time></trkpt><trkpt lat="44.1047283" lon="9.8043367"><ele>18.0</ele><time>2026-04-23T07:35:51.981Z</time></trkpt><trkpt lat="44.104685" lon="9.8044083"><ele>18.0</ele><time>2026-04-23T07:35:55.981Z</time></trkpt><trkpt lat="44.1046117" lon="9.8044483"><ele>18.333333333333332</ele><time>2026-04-23T07:35:58.981Z</time></trkpt><trkpt lat="44.1045283" lon="9.8044817"><ele>18.666666666666668</ele><time>2026-04-23T07:36:01.981Z</time></trkpt><trkpt lat="44.1044733" lon="9.804535"><ele>19.0</ele><time>2026-04-23T07:36:03.981Z</time></trkpt><trkpt lat="44.1044183" lon="9.8046083"><ele>19.333333333333336</ele><time>2026-04-23T07:36:05.982Z</time></trkpt><trkpt lat="44.104365" lon="9.804695"><ele>19.666666666666668</ele><time>2026-04-23T07:36:07.981Z</time></trkpt><trkpt lat="44.1043067" lon="9.8048017"><ele>20.0</ele><time>2026-04-23T07:36:09.982Z</time></trkpt><trkpt lat="44.1042383" lon="9.80491"><ele>20.0</ele><time>2026-04-23T07:36:11.982Z</time></trkpt><trkpt lat="44.1041633" lon="9.8050083"><ele>20.0</ele><time>2026-04-23T07:36:13.981Z</time></trkpt><trkpt lat="44.1041" lon="9.8051117"><ele>20.0</ele><time>2026-04-23T07:36:15.982Z</time></trkpt><trkpt lat="44.1040467" lon="9.8052083"><ele>20.0</ele><time>2026-04-23T07:36:17.981Z</time></trkpt><trkpt lat="44.1039817" lon="9.80528"><ele>20.0</ele><time>2026-04-23T07:36:19.981Z</time></trkpt><trkpt lat="44.1039233" lon="9.8053683"><ele>19.833333333333336</ele><time>2026-04-23T07:36:21.981Z</time></trkpt><trkpt lat="44.1038917" lon="9.8054867"><ele>19.666666666666668</ele><time>2026-04-23T07:36:23.981Z</time></trkpt><trkpt lat="44.1038633" lon="9.805605"><ele>19.5</ele><time>2026-04-23T07:36:25.981Z</time></trkpt><trkpt lat="44.1038283" lon="9.80571"><ele>19.333333333333332</ele><time>2026-04-23T07:36:27.982Z</time></trkpt><trkpt lat="44.10378" lon="9.8057733"><ele>19.166666666666664</ele><time>2026-04-23T07:36:29.981Z</time></trkpt><trkpt lat="44.1037233" lon="9.8058283"><ele>19.0</ele><time>2026-04-23T07:36:33.981Z</time></trkpt><trkpt lat="44.1037983" lon="9.80586"><ele>19.0</ele><time>2026-04-23T07:36:40.981Z</time></trkpt><trkpt lat="44.1038667" lon="9.8058383"><ele>19.0</ele><time>2026-04-23T07:36:42.982Z</time></trkpt><trkpt lat="44.103925" lon="9.805795"><ele>19.0</ele><time>2026-04-23T07:36:44.981Z</time></trkpt><trkpt lat="44.1039933" lon="9.8057917"><ele>19.0</ele><time>2026-04-23T07:36:48.982Z</time></trkpt><trkpt lat="44.103955" lon="9.8058933"><ele>19.0</ele><time>2026-04-23T07:36:51.982Z</time></trkpt><trkpt lat="44.1038717" lon="9.8059767"><ele>19.0</ele><time>2026-04-23T07:36:53.982Z</time></trkpt><trkpt lat="44.1037883" lon="9.8060783"><ele>17.25</ele><time>2026-04-23T07:36:55.981Z</time></trkpt><trkpt lat="44.10369" lon="9.80617"><ele>15.5</ele><time>2026-04-23T07:36:57.981Z</time></trkpt><trkpt lat="44.1036017" lon="9.8062567"><ele>13.75</ele><time>2026-04-23T07:36:59.981Z</time></trkpt><trkpt lat="44.103505" lon="9.8063633"><ele>12.0</ele><time>2026-04-23T07:37:01.982Z</time></trkpt><trkpt lat="44.103415" lon="9.80647"><ele>12.0</ele><time>2026-04-23T07:37:03.981Z</time></trkpt><trkpt lat="44.1033383" lon="9.806565"><ele>12.0</ele><time>2026-04-23T07:37:05.981Z</time></trkpt><trkpt lat="44.10326" lon="9.8066533"><ele>12.0</ele><time>2026-04-23T07:37:07.981Z</time></trkpt><trkpt lat="44.103175" lon="9.8067533"><ele>12.0</ele><time>2026-04-23T07:37:09.981Z</time></trkpt><trkpt lat="44.1030883" lon="9.8068483"><ele>12.0</ele><time>2026-04-23T07:37:11.981Z</time></trkpt><trkpt lat="44.1029983" lon="9.8069383"><ele>10.75</ele><time>2026-04-23T07:37:13.981Z</time></trkpt><trkpt lat="44.1028983" lon="9.8070233"><ele>9.5</ele><time>2026-04-23T07:37:15.982Z</time></trkpt><trkpt lat="44.1028017" lon="9.8071033"><ele>8.25</ele><time>2026-04-23T07:37:17.981Z</time></trkpt><trkpt lat="44.1027083" lon="9.8071883"><ele>7.0</ele><time>2026-04-23T07:37:19.981Z</time></trkpt><trkpt lat="44.1026033" lon="9.80727"><ele>7.000000000000001</ele><time>2026-04-23T07:37:21.981Z</time></trkpt><trkpt lat="44.1024833" lon="9.807325"><ele>7.0</ele><time>2026-04-23T07:37:23.982Z</time></trkpt><trkpt lat="44.10242" lon="9.8073483"><ele>7.0</ele><time>2026-04-23T07:37:24.981Z</time></trkpt><trkpt lat="44.1022983" lon="9.8073867"><ele>7.0</ele><time>2026-04-23T07:37:26.982Z</time></trkpt><trkpt lat="44.102235" lon="9.8073983"><ele>7.000000000000001</ele><time>2026-04-23T07:37:27.982Z</time></trkpt><trkpt lat="44.10217" lon="9.80741"><ele>7.0</ele><time>2026-04-23T07:37:28.981Z</time></trkpt><trkpt lat="44.1021033" lon="9.807425"><ele>7.0</ele><time>2026-04-23T07:37:29.981Z</time></trkpt><trkpt lat="44.1019867" lon="9.8074483"><ele>7.0</ele><time>2026-04-23T07:37:31.981Z</time></trkpt><trkpt lat="44.1018717" lon="9.8074567"><ele>7.0</ele><time>2026-04-23T07:37:33.981Z</time></trkpt><trkpt lat="44.10176" lon="9.8074533"><ele>7.0</ele><time>2026-04-23T07:37:35.982Z</time></trkpt><trkpt lat="44.101645" lon="9.807445"><ele>6.8</ele><time>2026-04-23T07:37:37.981Z</time></trkpt><trkpt lat="44.1015383" lon="9.8074367"><ele>6.6</ele><time>2026-04-23T07:37:39.981Z</time></trkpt><trkpt lat="44.1014383" lon="9.8074367"><ele>6.3999999999999995</ele><time>2026-04-23T07:37:41.982Z</time></trkpt><trkpt lat="44.1013333" lon="9.8074383"><ele>6.199999999999999</ele><time>2026-04-23T07:37:43.981Z</time></trkpt><trkpt lat="44.1012317" lon="9.8074667"><ele>6.0</ele><time>2026-04-23T07:37:45.981Z</time></trkpt><trkpt lat="44.1011233" lon="9.8075333"><ele>6.0</ele><time>2026-04-23T07:37:47.981Z</time></trkpt><trkpt lat="44.1010667" lon="9.807595"><ele>6.0</ele><time>2026-04-23T07:37:48.981Z</time></trkpt><trkpt lat="44.1010167" lon="9.8076717"><ele>6.0</ele><time>2026-04-23T07:37:49.981Z</time></trkpt><trkpt lat="44.1009717" lon="9.807755"><ele>6.0</ele><time>2026-04-23T07:37:50.981Z</time></trkpt><trkpt lat="44.10093" lon="9.80783"><ele>6.0</ele><time>2026-04-23T07:37:51.981Z</time></trkpt><trkpt lat="44.1008567" lon="9.8079567"><ele>6.0</ele><time>2026-04-23T07:37:53.981Z</time></trkpt><trkpt lat="44.1007967" lon="9.8080633"><ele>6.833333333333333</ele><time>2026-04-23T07:37:55.981Z</time></trkpt><trkpt lat="44.1007317" lon="9.8081"><ele>7.666666666666666</ele><time>2026-04-23T07:37:57.982Z</time></trkpt><trkpt lat="44.100665" lon="9.808035"><ele>8.5</ele><time>2026-04-23T07:37:59.981Z</time></trkpt><trkpt lat="44.1005867" lon="9.80796"><ele>9.333333333333332</ele><time>2026-04-23T07:38:01.981Z</time></trkpt><trkpt lat="44.1004983" lon="9.8079183"><ele>10.166666666666666</ele><time>2026-04-23T07:38:03.981Z</time></trkpt><trkpt lat="44.100405" lon="9.8079"><ele>11.0</ele><time>2026-04-23T07:38:05.981Z</time></trkpt><trkpt lat="44.10032" lon="9.8079217"><ele>11.0</ele><time>2026-04-23T07:38:07.981Z</time></trkpt><trkpt lat="44.1002267" lon="9.80795"><ele>11.0</ele><time>2026-04-23T07:38:09.981Z</time></trkpt><trkpt lat="44.1001467" lon="9.808005"><ele>11.0</ele><time>2026-04-23T07:38:11.981Z</time></trkpt><trkpt lat="44.10008" lon="9.8080983"><ele>11.0</ele><time>2026-04-23T07:38:13.981Z</time></trkpt><trkpt lat="44.1000133" lon="9.80822"><ele>11.0</ele><time>2026-04-23T07:38:15.982Z</time></trkpt><trkpt lat="44.0999383" lon="9.8083383"><ele>12.600000000000001</ele><time>2026-04-23T07:38:17.981Z</time></trkpt><trkpt lat="44.0998767" lon="9.808445"><ele>14.2</ele><time>2026-04-23T07:38:19.982Z</time></trkpt><trkpt lat="44.0998" lon="9.8085517"><ele>15.799999999999999</ele><time>2026-04-23T07:38:21.982Z</time></trkpt><trkpt lat="44.09973" lon="9.80868"><ele>17.4</ele><time>2026-04-23T07:38:23.981Z</time></trkpt><trkpt lat="44.099665" lon="9.8087967"><ele>19.0</ele><time>2026-04-23T07:38:25.981Z</time></trkpt><trkpt lat="44.0996033" lon="9.808925"><ele>19.0</ele><time>2026-04-23T07:38:27.982Z</time></trkpt><trkpt lat="44.0995383" lon="9.8090483"><ele>19.0</ele><time>2026-04-23T07:38:29.981Z</time></trkpt><trkpt lat="44.0994717" lon="9.8091667"><ele>19.0</ele><time>2026-04-23T07:38:31.981Z</time></trkpt><trkpt lat="44.0994067" lon="9.8092767"><ele>19.0</ele><time>2026-04-23T07:38:33.981Z</time></trkpt><trkpt lat="44.0993383" lon="9.8093983"><ele>19.0</ele><time>2026-04-23T07:38:35.981Z</time></trkpt><trkpt lat="44.09928" lon="9.8095233"><ele>16.8</ele><time>2026-04-23T07:38:37.981Z</time></trkpt><trkpt lat="44.0992167" lon="9.8096383"><ele>14.599999999999998</ele><time>2026-04-23T07:38:39.981Z</time></trkpt><trkpt lat="44.0991467" lon="9.809755"><ele>12.4</ele><time>2026-04-23T07:38:41.981Z</time></trkpt><trkpt lat="44.0990833" lon="9.809865"><ele>10.2</ele><time>2026-04-23T07:38:43.981Z</time></trkpt><trkpt lat="44.0990233" lon="9.80998"><ele>8.0</ele><time>2026-04-23T07:38:45.981Z</time></trkpt><trkpt lat="44.0989567" lon="9.8101083"><ele>7.6000000000000005</ele><time>2026-04-23T07:38:47.981Z</time></trkpt><trkpt lat="44.09889" lon="9.8102317"><ele>7.200000000000001</ele><time>2026-04-23T07:38:49.981Z</time></trkpt><trkpt lat="44.0988333" lon="9.8103683"><ele>6.8</ele><time>2026-04-23T07:38:51.982Z</time></trkpt><trkpt lat="44.09877" lon="9.8104817"><ele>6.4</ele><time>2026-04-23T07:38:53.981Z</time></trkpt><trkpt lat="44.0987017" lon="9.8105883"><ele>6.0</ele><time>2026-04-23T07:38:55.981Z</time></trkpt><trkpt lat="44.0986367" lon="9.8106967"><ele>6.0</ele><time>2026-04-23T07:38:57.981Z</time></trkpt><trkpt lat="44.0985733" lon="9.810805"><ele>6.0</ele><time>2026-04-23T07:38:59.981Z</time></trkpt><trkpt lat="44.09851" lon="9.8108983"><ele>6.0</ele><time>2026-04-23T07:39:01.981Z</time></trkpt><trkpt lat="44.0984517" lon="9.8109883"><ele>6.0</ele><time>2026-04-23T07:39:03.982Z</time></trkpt><trkpt lat="44.098405" lon="9.811095"><ele>6.0</ele><time>2026-04-23T07:39:05.981Z</time></trkpt><trkpt lat="44.09836" lon="9.8111983"><ele>5.666666666666667</ele><time>2026-04-23T07:39:07.981Z</time></trkpt><trkpt lat="44.0983067" lon="9.8112883"><ele>5.333333333333333</ele><time>2026-04-23T07:39:09.981Z</time></trkpt><trkpt lat="44.098255" lon="9.8113833"><ele>5.0</ele><time>2026-04-23T07:39:11.982Z</time></trkpt><trkpt lat="44.0982033" lon="9.8114633"><ele>4.666666666666666</ele><time>2026-04-23T07:39:13.982Z</time></trkpt><trkpt lat="44.098155" lon="9.81156"><ele>4.333333333333333</ele><time>2026-04-23T07:39:15.981Z</time></trkpt><trkpt lat="44.0980983" lon="9.8116433"><ele>4.0</ele><time>2026-04-23T07:39:17.981Z</time></trkpt><trkpt lat="44.098045" lon="9.8117267"><ele>5.333333333333333</ele><time>2026-04-23T07:39:19.981Z</time></trkpt><trkpt lat="44.0980017" lon="9.8118117"><ele>6.666666666666666</ele><time>2026-04-23T07:39:21.981Z</time></trkpt><trkpt lat="44.097955" lon="9.8118917"><ele>8.0</ele><time>2026-04-23T07:39:23.981Z</time></trkpt><trkpt lat="44.0979017" lon="9.81198"><ele>9.333333333333334</ele><time>2026-04-23T07:39:25.981Z</time></trkpt><trkpt lat="44.0978533" lon="9.8120633"><ele>10.666666666666666</ele><time>2026-04-23T07:39:27.981Z</time></trkpt><trkpt lat="44.0978017" lon="9.81214"><ele>12.0</ele><time>2026-04-23T07:39:29.981Z</time></trkpt><trkpt lat="44.0977567" lon="9.8122167"><ele>12.0</ele><time>2026-04-23T07:39:31.981Z</time></trkpt><trkpt lat="44.0977067" lon="9.8122867"><ele>12.0</ele><time>2026-04-23T07:39:33.981Z</time></trkpt><trkpt lat="44.0976383" lon="9.8123517"><ele>12.0</ele><time>2026-04-23T07:39:35.982Z</time></trkpt><trkpt lat="44.0975667" lon="9.812415"><ele>12.0</ele><time>2026-04-23T07:39:37.981Z</time></trkpt><trkpt lat="44.0975" lon="9.8124667"><ele>12.0</ele><time>2026-04-23T07:39:39.982Z</time></trkpt><trkpt lat="44.0974417" lon="9.8125267"><ele>12.0</ele><time>2026-04-23T07:39:41.981Z</time></trkpt><trkpt lat="44.0973783" lon="9.812575"><ele>13.166666666666666</ele><time>2026-04-23T07:39:43.981Z</time></trkpt><trkpt lat="44.0973017" lon="9.8126217"><ele>14.333333333333332</ele><time>2026-04-23T07:39:45.981Z</time></trkpt><trkpt lat="44.0972333" lon="9.8126817"><ele>15.5</ele><time>2026-04-23T07:39:47.982Z</time></trkpt><trkpt lat="44.09717" lon="9.8127633"><ele>16.666666666666664</ele><time>2026-04-23T07:39:49.982Z</time></trkpt><trkpt lat="44.09711" lon="9.8128317"><ele>17.833333333333332</ele><time>2026-04-23T07:39:51.982Z</time></trkpt><trkpt lat="44.0970567" lon="9.8128917"><ele>19.0</ele><time>2026-04-23T07:39:53.981Z</time></trkpt><trkpt lat="44.0970067" lon="9.81298"><ele>19.0</ele><time>2026-04-23T07:39:55.981Z</time></trkpt><trkpt lat="44.0969467" lon="9.8130667"><ele>19.0</ele><time>2026-04-23T07:39:57.981Z</time></trkpt><trkpt lat="44.0968883" lon="9.81316"><ele>19.0</ele><time>2026-04-23T07:39:59.981Z</time></trkpt><trkpt lat="44.0968367" lon="9.81325"><ele>19.0</ele><time>2026-04-23T07:40:01.981Z</time></trkpt><trkpt lat="44.0967883" lon="9.8133467"><ele>19.0</ele><time>2026-04-23T07:40:03.981Z</time></trkpt><trkpt lat="44.0967317" lon="9.8134267"><ele>19.0</ele><time>2026-04-23T07:40:05.981Z</time></trkpt><trkpt lat="44.0966767" lon="9.8135067"><ele>19.5</ele><time>2026-04-23T07:40:07.982Z</time></trkpt><trkpt lat="44.096615" lon="9.8135717"><ele>20.0</ele><time>2026-04-23T07:40:09.981Z</time></trkpt><trkpt lat="44.09655" lon="9.8136233"><ele>20.5</ele><time>2026-04-23T07:40:11.981Z</time></trkpt><trkpt lat="44.0964767" lon="9.8136567"><ele>21.0</ele><time>2026-04-23T07:40:13.981Z</time></trkpt><trkpt lat="44.0963967" lon="9.8136917"><ele>21.5</ele><time>2026-04-23T07:40:15.981Z</time></trkpt><trkpt lat="44.0963217" lon="9.8137283"><ele>22.0</ele><time>2026-04-23T07:40:17.981Z</time></trkpt><trkpt lat="44.0962583" lon="9.8137567"><ele>22.0</ele><time>2026-04-23T07:40:19.981Z</time></trkpt><trkpt lat="44.0961917" lon="9.8138017"><ele>22.0</ele><time>2026-04-23T07:40:21.982Z</time></trkpt><trkpt lat="44.0961283" lon="9.8138317"><ele>22.0</ele><time>2026-04-23T07:40:23.981Z</time></trkpt><trkpt lat="44.096065" lon="9.813865"><ele>22.0</ele><time>2026-04-23T07:40:25.981Z</time></trkpt><trkpt lat="44.0959917" lon="9.8139033"><ele>22.0</ele><time>2026-04-23T07:40:27.981Z</time></trkpt><trkpt lat="44.09592" lon="9.8139267"><ele>22.0</ele><time>2026-04-23T07:40:29.981Z</time></trkpt><trkpt lat="44.0958567" lon="9.813945"><ele>22.0</ele><time>2026-04-23T07:40:31.981Z</time></trkpt><trkpt lat="44.0957883" lon="9.8139683"><ele>23.285714285714285</ele><time>2026-04-23T07:40:33.982Z</time></trkpt><trkpt lat="44.0957133" lon="9.8139917"><ele>24.57142857142857</ele><time>2026-04-23T07:40:35.981Z</time></trkpt><trkpt lat="44.0956333" lon="9.8140167"><ele>25.857142857142858</ele><time>2026-04-23T07:40:37.981Z</time></trkpt><trkpt lat="44.0955583" lon="9.8140283"><ele>27.142857142857146</ele><time>2026-04-23T07:40:39.981Z</time></trkpt><trkpt lat="44.0954882" lon="9.8140187"><ele>28.42857142857143</ele><time>2026-04-23T07:40:41.981Z</time></trkpt><trkpt lat="44.0954214" lon="9.8140082"><ele>29.714285714285715</ele><time>2026-04-23T07:40:43.981Z</time></trkpt><trkpt lat="44.0953564" lon="9.8139979"><ele>31.0</ele><time>2026-04-23T07:40:45.981Z</time></trkpt><trkpt lat="44.0952884" lon="9.8139858"><ele>31.000000000000004</ele><time>2026-04-23T07:40:47.981Z</time></trkpt><trkpt lat="44.0952222" lon="9.8139716"><ele>31.0</ele><time>2026-04-23T07:40:49.981Z</time></trkpt><trkpt lat="44.0951535" lon="9.8139618"><ele>31.0</ele><time>2026-04-23T07:40:51.981Z</time></trkpt><trkpt lat="44.0950748" lon="9.813971"><ele>31.0</ele><time>2026-04-23T07:40:53.981Z</time></trkpt><trkpt lat="44.0949977" lon="9.8139926"><ele>31.000000000000004</ele><time>2026-04-23T07:40:55.981Z</time></trkpt><trkpt lat="44.0949294" lon="9.8140551"><ele>31.0</ele><time>2026-04-23T07:40:57.981Z</time></trkpt><trkpt lat="44.0948733" lon="9.814147"><ele>33.142857142857146</ele><time>2026-04-23T07:40:59.981Z</time></trkpt><trkpt lat="44.0948361" lon="9.814237"><ele>35.28571428571429</ele><time>2026-04-23T07:41:01.982Z</time></trkpt><trkpt lat="44.0947982" lon="9.8143307"><ele>37.42857142857143</ele><time>2026-04-23T07:41:03.981Z</time></trkpt><trkpt lat="44.0947619" lon="9.8144164"><ele>39.57142857142857</ele><time>2026-04-23T07:41:05.981Z</time></trkpt><trkpt lat="44.0947305" lon="9.8145108"><ele>41.71428571428571</ele><time>2026-04-23T07:41:07.982Z</time></trkpt><trkpt lat="44.0947108" lon="9.8146023"><ele>43.85714285714286</ele><time>2026-04-23T07:41:09.981Z</time></trkpt><trkpt lat="44.0946851" lon="9.8146932"><ele>46.0</ele><time>2026-04-23T07:41:11.981Z</time></trkpt><trkpt lat="44.0946601" lon="9.8147858"><ele>46.0</ele><time>2026-04-23T07:41:13.981Z</time></trkpt><trkpt lat="44.0946242" lon="9.8148759"><ele>46.0</ele><time>2026-04-23T07:41:15.981Z</time></trkpt><trkpt lat="44.0945794" lon="9.8149655"><ele>46.0</ele><time>2026-04-23T07:41:17.981Z</time></trkpt><trkpt lat="44.0945423" lon="9.8150471"><ele>46.0</ele><time>2026-04-23T07:41:19.981Z</time></trkpt><trkpt lat="44.0945056" lon="9.8151207"><ele>46.0</ele><time>2026-04-23T07:41:21.981Z</time></trkpt><trkpt lat="44.0944586" lon="9.8151893"><ele>46.0</ele><time>2026-04-23T07:41:23.982Z</time></trkpt><trkpt lat="44.0944084" lon="9.815261"><ele>46.0</ele><time>2026-04-23T07:41:25.982Z</time></trkpt><trkpt lat="44.0943589" lon="9.8153273"><ele>44.42857142857143</ele><time>2026-04-23T07:41:27.981Z</time></trkpt><trkpt lat="44.09431" lon="9.8153933"><ele>42.857142857142854</ele><time>2026-04-23T07:41:29.981Z</time></trkpt><trkpt lat="44.0942633" lon="9.8154667"><ele>41.285714285714285</ele><time>2026-04-23T07:41:31.982Z</time></trkpt><trkpt lat="44.0942267" lon="9.8155467"><ele>39.714285714285715</ele><time>2026-04-23T07:41:33.981Z</time></trkpt><trkpt lat="44.0941817" lon="9.8156267"><ele>38.14285714285714</ele><time>2026-04-23T07:41:35.981Z</time></trkpt><trkpt lat="44.0941367" lon="9.81571"><ele>36.57142857142857</ele><time>2026-04-23T07:41:37.981Z</time></trkpt><trkpt lat="44.0941017" lon="9.8157983"><ele>35.0</ele><time>2026-04-23T07:41:39.981Z</time></trkpt><trkpt lat="44.0940583" lon="9.81587"><ele>34.57142857142857</ele><time>2026-04-23T07:41:41.982Z</time></trkpt><trkpt lat="44.0939983" lon="9.8159283"><ele>34.14285714285714</ele><time>2026-04-23T07:41:43.981Z</time></trkpt><trkpt lat="44.0939383" lon="9.8159983"><ele>33.714285714285715</ele><time>2026-04-23T07:41:45.981Z</time></trkpt><trkpt lat="44.09389" lon="9.8160683"><ele>33.285714285714285</ele><time>2026-04-23T07:41:47.981Z</time></trkpt><trkpt lat="44.093845" lon="9.81613"><ele>32.857142857142854</ele><time>2026-04-23T07:41:49.982Z</time></trkpt><trkpt lat="44.0938117" lon="9.8162133"><ele>32.42857142857143</ele><time>2026-04-23T07:41:51.981Z</time></trkpt><trkpt lat="44.09377" lon="9.81628"><ele>32.0</ele><time>2026-04-23T07:41:53.982Z</time></trkpt><trkpt lat="44.09371" lon="9.816345"><ele>32.0</ele><time>2026-04-23T07:41:55.981Z</time></trkpt><trkpt lat="44.0936483" lon="9.8163983"><ele>31.999999999999996</ele><time>2026-04-23T07:41:57.981Z</time></trkpt><trkpt lat="44.0935717" lon="9.8164383"><ele>32.0</ele><time>2026-04-23T07:41:59.981Z</time></trkpt><trkpt lat="44.09351" lon="9.8164733"><ele>32.0</ele><time>2026-04-23T07:42:01.981Z</time></trkpt><trkpt lat="44.0934317" lon="9.8164917"><ele>31.999999999999996</ele><time>2026-04-23T07:42:03.982Z</time></trkpt><trkpt lat="44.093365" lon="9.8164817"><ele>32.0</ele><time>2026-04-23T07:42:05.982Z</time></trkpt><trkpt lat="44.0932933" lon="9.8164883"><ele>32.0</ele><time>2026-04-23T07:42:07.981Z</time></trkpt><trkpt lat="44.0932233" lon="9.8164967"><ele>28.499999999999996</ele><time>2026-04-23T07:42:09.981Z</time></trkpt><trkpt lat="44.0931317" lon="9.8164917"><ele>25.0</ele><time>2026-04-23T07:42:12.981Z</time></trkpt><trkpt lat="44.093065" lon="9.8164683"><ele>21.5</ele><time>2026-04-23T07:42:14.981Z</time></trkpt><trkpt lat="44.09298" lon="9.8164133"><ele>18.0</ele><time>2026-04-23T07:42:17.98Z</time></trkpt><trkpt lat="44.0929183" lon="9.816365"><ele>14.5</ele><time>2026-04-23T07:42:19.98Z</time></trkpt><trkpt lat="44.0928433" lon="9.816295"><ele>11.0</ele><time>2026-04-23T07:42:22.98Z</time></trkpt><trkpt lat="44.092775" lon="9.8162067"><ele>11.0</ele><time>2026-04-23T07:42:25.98Z</time></trkpt><trkpt lat="44.092725" lon="9.8161467"><ele>11.0</ele><time>2026-04-23T07:42:27.98Z</time></trkpt><trkpt lat="44.0926833" lon="9.81607"><ele>11.0</ele><time>2026-04-23T07:42:29.98Z</time></trkpt><trkpt lat="44.092645" lon="9.8159967"><ele>11.0</ele><time>2026-04-23T07:42:31.981Z</time></trkpt><trkpt lat="44.0926083" lon="9.815925"><ele>11.0</ele><time>2026-04-23T07:42:33.98Z</time></trkpt><trkpt lat="44.092545" lon="9.815835"><ele>11.0</ele><time>2026-04-23T07:42:36.98Z</time></trkpt><trkpt lat="44.0924967" lon="9.81577"><ele>11.0</ele><time>2026-04-23T07:42:38.98Z</time></trkpt><trkpt lat="44.0924283" lon="9.8156817"><ele>12.166666666666666</ele><time>2026-04-23T07:42:41.98Z</time></trkpt><trkpt lat="44.0923867" lon="9.8156083"><ele>13.333333333333332</ele><time>2026-04-23T07:42:43.98Z</time></trkpt><trkpt lat="44.0923383" lon="9.8155017"><ele>14.5</ele><time>2026-04-23T07:42:46.98Z</time></trkpt><trkpt lat="44.0923" lon="9.8154267"><ele>15.666666666666666</ele><time>2026-04-23T07:42:48.98Z</time></trkpt><trkpt lat="44.092255" lon="9.815335"><ele>16.833333333333332</ele><time>2026-04-23T07:42:51.981Z</time></trkpt><trkpt lat="44.09221" lon="9.8152317"><ele>18.0</ele><time>2026-04-23T07:42:54.981Z</time></trkpt><trkpt lat="44.0921667" lon="9.815165"><ele>21.571428571428573</ele><time>2026-04-23T07:42:56.98Z</time></trkpt><trkpt lat="44.0921167" lon="9.8151017"><ele>25.142857142857146</ele><time>2026-04-23T07:42:58.98Z</time></trkpt><trkpt lat="44.0920517" lon="9.8150367"><ele>28.714285714285715</ele><time>2026-04-23T07:43:01.98Z</time></trkpt><trkpt lat="44.092005" lon="9.8149717"><ele>32.28571428571429</ele><time>2026-04-23T07:43:03.98Z</time></trkpt><trkpt lat="44.091955" lon="9.8149083"><ele>35.85714285714286</ele><time>2026-04-23T07:43:05.98Z</time></trkpt><trkpt lat="44.09191" lon="9.8148133"><ele>39.42857142857143</ele><time>2026-04-23T07:43:08.98Z</time></trkpt><trkpt lat="44.09187" lon="9.8147283"><ele>43.0</ele><time>2026-04-23T07:43:10.98Z</time></trkpt><trkpt lat="44.0918267" lon="9.81463"><ele>43.0</ele><time>2026-04-23T07:43:12.98Z</time></trkpt><trkpt lat="44.0917767" lon="9.8145567"><ele>43.0</ele><time>2026-04-23T07:43:14.981Z</time></trkpt><trkpt lat="44.0917183" lon="9.81445"><ele>43.0</ele><time>2026-04-23T07:43:17.98Z</time></trkpt><trkpt lat="44.0916783" lon="9.8143667"><ele>43.0</ele><time>2026-04-23T07:43:19.981Z</time></trkpt><trkpt lat="44.0916217" lon="9.8143033"><ele>43.0</ele><time>2026-04-23T07:43:21.98Z</time></trkpt><trkpt lat="44.0915683" lon="9.8142467"><ele>43.0</ele><time>2026-04-23T07:43:23.981Z</time></trkpt><trkpt lat="44.09152" lon="9.8141767"><ele>42.42857142857143</ele><time>2026-04-23T07:43:25.98Z</time></trkpt><trkpt lat="44.0914767" lon="9.814105"><ele>41.85714285714286</ele><time>2026-04-23T07:43:27.98Z</time></trkpt><trkpt lat="44.091435" lon="9.8140367"><ele>41.28571428571429</ele><time>2026-04-23T07:43:29.98Z</time></trkpt><trkpt lat="44.0913883" lon="9.813975"><ele>40.714285714285715</ele><time>2026-04-23T07:43:31.98Z</time></trkpt><trkpt lat="44.0913417" lon="9.813905"><ele>40.14285714285714</ele><time>2026-04-23T07:43:33.98Z</time></trkpt><trkpt lat="44.0912833" lon="9.8138067"><ele>39.57142857142858</ele><time>2026-04-23T07:43:36.981Z</time></trkpt><trkpt lat="44.0912233" lon="9.8137083"><ele>39.0</ele><time>2026-04-23T07:43:39.98Z</time></trkpt><trkpt lat="44.0911733" lon="9.813605"><ele>39.0</ele><time>2026-04-23T07:43:42.981Z</time></trkpt><trkpt lat="44.0911367" lon="9.81353"><ele>39.0</ele><time>2026-04-23T07:43:44.98Z</time></trkpt><trkpt lat="44.0911033" lon="9.8134483"><ele>39.0</ele><time>2026-04-23T07:43:46.98Z</time></trkpt><trkpt lat="44.0910817" lon="9.813365"><ele>39.0</ele><time>2026-04-23T07:43:48.98Z</time></trkpt><trkpt lat="44.0910417" lon="9.8132467"><ele>39.0</ele><time>2026-04-23T07:43:51.98Z</time></trkpt><trkpt lat="44.091" lon="9.8131767"><ele>39.0</ele><time>2026-04-23T07:43:53.98Z</time></trkpt><trkpt lat="44.0909633" lon="9.8131017"><ele>39.0</ele><time>2026-04-23T07:43:55.98Z</time></trkpt><trkpt lat="44.0909167" lon="9.8130267"><ele>41.142857142857146</ele><time>2026-04-23T07:43:57.981Z</time></trkpt><trkpt lat="44.0908867" lon="9.8129417"><ele>43.285714285714285</ele><time>2026-04-23T07:43:59.981Z</time></trkpt><trkpt lat="44.09083" lon="9.812845"><ele>45.42857142857143</ele><time>2026-04-23T07:44:02.98Z</time></trkpt><trkpt lat="44.0907833" lon="9.812765"><ele>47.57142857142857</ele><time>2026-04-23T07:44:04.981Z</time></trkpt><trkpt lat="44.0907283" lon="9.812705"><ele>49.71428571428571</ele><time>2026-04-23T07:44:06.98Z</time></trkpt><trkpt lat="44.090675" lon="9.8126483"><ele>51.857142857142854</ele><time>2026-04-23T07:44:08.981Z</time></trkpt><trkpt lat="44.0906217" lon="9.8125933"><ele>54.0</ele><time>2026-04-23T07:44:10.981Z</time></trkpt><trkpt lat="44.0905667" lon="9.8125417"><ele>58.57142857142857</ele><time>2026-04-23T07:44:12.98Z</time></trkpt><trkpt lat="44.0905083" lon="9.8125"><ele>63.14285714285714</ele><time>2026-04-23T07:44:14.98Z</time></trkpt><trkpt lat="44.09044" lon="9.8124733"><ele>67.71428571428572</ele><time>2026-04-23T07:44:16.98Z</time></trkpt><trkpt lat="44.0903667" lon="9.8124667"><ele>72.28571428571429</ele><time>2026-04-23T07:44:18.98Z</time></trkpt><trkpt lat="44.0903033" lon="9.8124733"><ele>76.85714285714286</ele><time>2026-04-23T07:44:20.98Z</time></trkpt><trkpt lat="44.0902333" lon="9.8124767"><ele>81.42857142857143</ele><time>2026-04-23T07:44:22.98Z</time></trkpt><trkpt lat="44.090165" lon="9.812495"><ele>86.0</ele><time>2026-04-23T07:44:24.98Z</time></trkpt><trkpt lat="44.0901033" lon="9.812535"><ele>86.0</ele><time>2026-04-23T07:44:26.98Z</time></trkpt><trkpt lat="44.090015" lon="9.8125583"><ele>86.0</ele><time>2026-04-23T07:44:29.98Z</time></trkpt><trkpt lat="44.089955" lon="9.8125967"><ele>86.0</ele><time>2026-04-23T07:44:31.98Z</time></trkpt><trkpt lat="44.08988" lon="9.8126633"><ele>86.0</ele><time>2026-04-23T07:44:34.981Z</time></trkpt><trkpt lat="44.0898217" lon="9.8127117"><ele>86.0</ele><time>2026-04-23T07:44:36.98Z</time></trkpt><trkpt lat="44.0897533" lon="9.8127333"><ele>86.0</ele><time>2026-04-23T07:44:38.98Z</time></trkpt><trkpt lat="44.0896933" lon="9.8127767"><ele>81.83333333333334</ele><time>2026-04-23T07:44:40.98Z</time></trkpt><trkpt lat="44.0896083" lon="9.8128317"><ele>77.66666666666667</ele><time>2026-04-23T07:44:43.98Z</time></trkpt><trkpt lat="44.0895483" lon="9.8128617"><ele>73.5</ele><time>2026-04-23T07:44:45.98Z</time></trkpt><trkpt lat="44.0894817" lon="9.81289"><ele>69.33333333333333</ele><time>2026-04-23T07:44:47.98Z</time></trkpt><trkpt lat="44.0894167" lon="9.8129117"><ele>65.16666666666666</ele><time>2026-04-23T07:44:49.981Z</time></trkpt><trkpt lat="44.0893267" lon="9.8129117"><ele>61.0</ele><time>2026-04-23T07:44:52.98Z</time></trkpt><trkpt lat="44.089245" lon="9.8129217"><ele>60.99999999999999</ele><time>2026-04-23T07:44:55.981Z</time></trkpt><trkpt lat="44.089155" lon="9.8129017"><ele>61.0</ele><time>2026-04-23T07:44:58.98Z</time></trkpt><trkpt lat="44.0890717" lon="9.8128817"><ele>61.0</ele><time>2026-04-23T07:45:01.981Z</time></trkpt><trkpt lat="44.0890083" lon="9.81286"><ele>61.0</ele><time>2026-04-23T07:45:03.98Z</time></trkpt><trkpt lat="44.0889183" lon="9.8128167"><ele>60.99999999999999</ele><time>2026-04-23T07:45:06.98Z</time></trkpt><trkpt lat="44.0888583" lon="9.8127883"><ele>61.0</ele><time>2026-04-23T07:45:08.981Z</time></trkpt><trkpt lat="44.088795" lon="9.8127517"><ele>59.57142857142856</ele><time>2026-04-23T07:45:10.981Z</time></trkpt><trkpt lat="44.0887317" lon="9.8127183"><ele>58.14285714285714</ele><time>2026-04-23T07:45:12.98Z</time></trkpt><trkpt lat="44.0886667" lon="9.8126967"><ele>56.71428571428571</ele><time>2026-04-23T07:45:14.98Z</time></trkpt><trkpt lat="44.0885917" lon="9.8126783"><ele>55.28571428571428</ele><time>2026-04-23T07:45:16.98Z</time></trkpt><trkpt lat="44.0885283" lon="9.812655"><ele>53.85714285714286</ele><time>2026-04-23T07:45:18.98Z</time></trkpt><trkpt lat="44.088465" lon="9.8126467"><ele>52.42857142857143</ele><time>2026-04-23T07:45:20.981Z</time></trkpt><trkpt lat="44.0883983" lon="9.8126333"><ele>51.0</ele><time>2026-04-23T07:45:22.98Z</time></trkpt><trkpt lat="44.088335" lon="9.8126267"><ele>60.5</ele><time>2026-04-23T07:45:24.98Z</time></trkpt><trkpt lat="44.08825" lon="9.8126233"><ele>70.0</ele><time>2026-04-23T07:45:27.98Z</time></trkpt><trkpt lat="44.0881567" lon="9.812615"><ele>79.5</ele><time>2026-04-23T07:45:30.98Z</time></trkpt><trkpt lat="44.0880867" lon="9.8126067"><ele>89.0</ele><time>2026-04-23T07:45:32.98Z</time></trkpt><trkpt lat="44.0880217" lon="9.8126083"><ele>98.5</ele><time>2026-04-23T07:45:34.981Z</time></trkpt><trkpt lat="44.0879533" lon="9.8126083"><ele>108.0</ele><time>2026-04-23T07:45:36.98Z</time></trkpt><trkpt lat="44.087865" lon="9.81263"><ele>108.0</ele><time>2026-04-23T07:45:39.98Z</time></trkpt><trkpt lat="44.0878017" lon="9.8126417"><ele>108.0</ele><time>2026-04-23T07:45:41.98Z</time></trkpt><trkpt lat="44.08773" lon="9.8126583"><ele>108.0</ele><time>2026-04-23T07:45:43.98Z</time></trkpt><trkpt lat="44.08766" lon="9.812665"><ele>108.0</ele><time>2026-04-23T07:45:45.98Z</time></trkpt><trkpt lat="44.087595" lon="9.812675"><ele>108.0</ele><time>2026-04-23T07:45:47.98Z</time></trkpt><trkpt lat="44.0874983" lon="9.8126833"><ele>108.0</ele><time>2026-04-23T07:45:50.981Z</time></trkpt><trkpt lat="44.08743" lon="9.8126917"><ele>108.0</ele><time>2026-04-23T07:45:52.98Z</time></trkpt><trkpt lat="44.0873667" lon="9.8127"><ele>101.14285714285714</ele><time>2026-04-23T07:45:54.98Z</time></trkpt><trkpt lat="44.0872967" lon="9.81271"><ele>94.28571428571428</ele><time>2026-04-23T07:45:56.98Z</time></trkpt><trkpt lat="44.08723" lon="9.8127183"><ele>87.42857142857143</ele><time>2026-04-23T07:45:58.981Z</time></trkpt><trkpt lat="44.0871433" lon="9.8127567"><ele>80.57142857142857</ele><time>2026-04-23T07:46:01.98Z</time></trkpt><trkpt lat="44.0870767" lon="9.81277"><ele>73.71428571428571</ele><time>2026-04-23T07:46:03.98Z</time></trkpt><trkpt lat="44.0870017" lon="9.81277"><ele>66.85714285714286</ele><time>2026-04-23T07:46:05.981Z</time></trkpt><trkpt lat="44.0869267" lon="9.8127517"><ele>60.0</ele><time>2026-04-23T07:46:07.981Z</time></trkpt><trkpt lat="44.086835" lon="9.8127133"><ele>60.0</ele><time>2026-04-23T07:46:10.98Z</time></trkpt><trkpt lat="44.0867667" lon="9.812665"><ele>60.0</ele><time>2026-04-23T07:46:12.98Z</time></trkpt><trkpt lat="44.0867033" lon="9.81261"><ele>60.0</ele><time>2026-04-23T07:46:14.981Z</time></trkpt><trkpt lat="44.0866533" lon="9.81255"><ele>60.0</ele><time>2026-04-23T07:46:16.98Z</time></trkpt><trkpt lat="44.086605" lon="9.81248"><ele>60.0</ele><time>2026-04-23T07:46:18.98Z</time></trkpt><trkpt lat="44.0865483" lon="9.8124267"><ele>60.0</ele><time>2026-04-23T07:46:20.98Z</time></trkpt><trkpt lat="44.0864933" lon="9.8123767"><ele>60.0</ele><time>2026-04-23T07:46:22.98Z</time></trkpt><trkpt lat="44.08643" lon="9.812325"><ele>62.0</ele><time>2026-04-23T07:46:24.981Z</time></trkpt><trkpt lat="44.086355" lon="9.8122933"><ele>64.0</ele><time>2026-04-23T07:46:26.981Z</time></trkpt><trkpt lat="44.0862933" lon="9.812265"><ele>66.0</ele><time>2026-04-23T07:46:28.981Z</time></trkpt><trkpt lat="44.0862283" lon="9.812235"><ele>68.0</ele><time>2026-04-23T07:46:30.981Z</time></trkpt><trkpt lat="44.0861367" lon="9.8122233"><ele>70.0</ele><time>2026-04-23T07:46:33.98Z</time></trkpt><trkpt lat="44.086065" lon="9.8122183"><ele>72.0</ele><time>2026-04-23T07:46:35.981Z</time></trkpt><trkpt lat="44.0860017" lon="9.8122233"><ele>74.0</ele><time>2026-04-23T07:46:37.981Z</time></trkpt><trkpt lat="44.0859383" lon="9.8122133"><ele>74.0</ele><time>2026-04-23T07:46:39.98Z</time></trkpt><trkpt lat="44.0858717" lon="9.8121917"><ele>74.0</ele><time>2026-04-23T07:46:41.981Z</time></trkpt><trkpt lat="44.0858017" lon="9.8121583"><ele>74.0</ele><time>2026-04-23T07:46:43.981Z</time></trkpt><trkpt lat="44.0857583" lon="9.81208"><ele>74.0</ele><time>2026-04-23T07:46:45.98Z</time></trkpt><trkpt lat="44.0857233" lon="9.81196"><ele>74.0</ele><time>2026-04-23T07:46:48.98Z</time></trkpt><trkpt lat="44.085725" lon="9.8118433"><ele>74.0</ele><time>2026-04-23T07:46:51.98Z</time></trkpt><trkpt lat="44.085715" lon="9.811755"><ele>76.5</ele><time>2026-04-23T07:46:53.98Z</time></trkpt><trkpt lat="44.0857317" lon="9.8116567"><ele>79.0</ele><time>2026-04-23T07:46:55.98Z</time></trkpt><trkpt lat="44.0857667" lon="9.81157"><ele>81.5</ele><time>2026-04-23T07:46:57.98Z</time></trkpt><trkpt lat="44.0858233" lon="9.8114683"><ele>84.0</ele><time>2026-04-23T07:47:00.98Z</time></trkpt><trkpt lat="44.0859033" lon="9.811375"><ele>86.5</ele><time>2026-04-23T07:47:03.981Z</time></trkpt><trkpt lat="44.0859783" lon="9.8113217"><ele>89.0</ele><time>2026-04-23T07:47:05.98Z</time></trkpt><trkpt lat="44.086055" lon="9.8113167"><ele>91.66666666666667</ele><time>2026-04-23T07:47:07.98Z</time></trkpt><trkpt lat="44.0861317" lon="9.811325"><ele>94.33333333333334</ele><time>2026-04-23T07:47:09.98Z</time></trkpt><trkpt lat="44.0861867" lon="9.8113717"><ele>97.0</ele><time>2026-04-23T07:47:11.98Z</time></trkpt><trkpt lat="44.08624" lon="9.811435"><ele>99.66666666666667</ele><time>2026-04-23T07:47:13.98Z</time></trkpt><trkpt lat="44.086305" lon="9.8115133"><ele>102.33333333333333</ele><time>2026-04-23T07:47:15.98Z</time></trkpt><trkpt lat="44.0863717" lon="9.8116133"><ele>105.0</ele><time>2026-04-23T07:47:17.98Z</time></trkpt><trkpt lat="44.0864283" lon="9.8117217"><ele>105.0</ele><time>2026-04-23T07:47:19.98Z</time></trkpt><trkpt lat="44.0864833" lon="9.8118133"><ele>105.0</ele><time>2026-04-23T07:47:21.98Z</time></trkpt><trkpt lat="44.08653" lon="9.8119133"><ele>105.0</ele><time>2026-04-23T07:47:23.98Z</time></trkpt><trkpt lat="44.0865783" lon="9.812"><ele>105.0</ele><time>2026-04-23T07:47:25.981Z</time></trkpt><trkpt lat="44.0866383" lon="9.8120767"><ele>105.0</ele><time>2026-04-23T07:47:27.98Z</time></trkpt><trkpt lat="44.086715" lon="9.8121433"><ele>105.0</ele><time>2026-04-23T07:47:29.981Z</time></trkpt><trkpt lat="44.0867867" lon="9.8121733"><ele>103.0</ele><time>2026-04-23T07:47:31.981Z</time></trkpt><trkpt lat="44.086845" lon="9.8122217"><ele>101.0</ele><time>2026-04-23T07:47:33.98Z</time></trkpt><trkpt lat="44.0869167" lon="9.8122567"><ele>99.0</ele><time>2026-04-23T07:47:35.98Z</time></trkpt><trkpt lat="44.0869783" lon="9.8122883"><ele>97.0</ele><time>2026-04-23T07:47:37.981Z</time></trkpt><trkpt lat="44.0870633" lon="9.812335"><ele>95.0</ele><time>2026-04-23T07:47:40.981Z</time></trkpt><trkpt lat="44.087155" lon="9.8123433"><ele>93.0</ele><time>2026-04-23T07:47:43.981Z</time></trkpt><trkpt lat="44.08723" lon="9.81234"><ele>93.0</ele><time>2026-04-23T07:47:45.981Z</time></trkpt><trkpt lat="44.08733" lon="9.8123383"><ele>93.0</ele><time>2026-04-23T07:47:48.98Z</time></trkpt><trkpt lat="44.087405" lon="9.8123317"><ele>93.0</ele><time>2026-04-23T07:47:50.98Z</time></trkpt><trkpt lat="44.08748" lon="9.8123317"><ele>93.0</ele><time>2026-04-23T07:47:52.98Z</time></trkpt><trkpt lat="44.0875533" lon="9.8123283"><ele>93.0</ele><time>2026-04-23T07:47:54.98Z</time></trkpt><trkpt lat="44.0876167" lon="9.8123433"><ele>93.0</ele><time>2026-04-23T07:47:56.98Z</time></trkpt><trkpt lat="44.0876933" lon="9.8123567"><ele>95.5</ele><time>2026-04-23T07:47:58.98Z</time></trkpt><trkpt lat="44.0877767" lon="9.8123433"><ele>98.0</ele><time>2026-04-23T07:48:00.979Z</time></trkpt><trkpt lat="44.0878533" lon="9.812315"><ele>100.5</ele><time>2026-04-23T07:48:02.98Z</time></trkpt><trkpt lat="44.0879267" lon="9.8123283"><ele>103.0</ele><time>2026-04-23T07:48:04.98Z</time></trkpt><trkpt lat="44.0880033" lon="9.812345"><ele>105.5</ele><time>2026-04-23T07:48:06.979Z</time></trkpt><trkpt lat="44.088095" lon="9.8123417"><ele>108.0</ele><time>2026-04-23T07:48:08.979Z</time></trkpt><trkpt lat="44.0881833" lon="9.8123467"><ele>106.5</ele><time>2026-04-23T07:48:10.979Z</time></trkpt><trkpt lat="44.0882667" lon="9.8123567"><ele>105.0</ele><time>2026-04-23T07:48:12.979Z</time></trkpt><trkpt lat="44.0883583" lon="9.812345"><ele>103.5</ele><time>2026-04-23T07:48:14.98Z</time></trkpt><trkpt lat="44.0884417" lon="9.81233"><ele>102.0</ele><time>2026-04-23T07:48:16.979Z</time></trkpt><trkpt lat="44.0885233" lon="9.8123217"><ele>100.5</ele><time>2026-04-23T07:48:18.979Z</time></trkpt><trkpt lat="44.0885917" lon="9.8123117"><ele>99.0</ele><time>2026-04-23T07:48:20.98Z</time></trkpt><trkpt lat="44.0886883" lon="9.8122933"><ele>99.0</ele><time>2026-04-23T07:48:23.979Z</time></trkpt><trkpt lat="44.088765" lon="9.81226"><ele>99.0</ele><time>2026-04-23T07:48:25.979Z</time></trkpt><trkpt lat="44.0888317" lon="9.8122233"><ele>99.0</ele><time>2026-04-23T07:48:27.979Z</time></trkpt><trkpt lat="44.0889" lon="9.8121883"><ele>99.0</ele><time>2026-04-23T07:48:29.98Z</time></trkpt><trkpt lat="44.088965" lon="9.8121533"><ele>99.0</ele><time>2026-04-23T07:48:31.979Z</time></trkpt><trkpt lat="44.089055" lon="9.8121117"><ele>99.0</ele><time>2026-04-23T07:48:34.979Z</time></trkpt><trkpt lat="44.0891217" lon="9.81206"><ele>98.5</ele><time>2026-04-23T07:48:36.979Z</time></trkpt><trkpt lat="44.08919" lon="9.812"><ele>98.0</ele><time>2026-04-23T07:48:38.979Z</time></trkpt><trkpt lat="44.0892483" lon="9.81193"><ele>97.5</ele><time>2026-04-23T07:48:40.979Z</time></trkpt><trkpt lat="44.0893117" lon="9.8118533"><ele>97.0</ele><time>2026-04-23T07:48:42.979Z</time></trkpt><trkpt lat="44.08937" lon="9.8117917"><ele>96.5</ele><time>2026-04-23T07:48:44.979Z</time></trkpt><trkpt lat="44.0894317" lon="9.8117433"><ele>96.0</ele><time>2026-04-23T07:48:46.979Z</time></trkpt><trkpt lat="44.0894933" lon="9.8116883"><ele>101.66666666666667</ele><time>2026-04-23T07:48:48.979Z</time></trkpt><trkpt lat="44.0895583" lon="9.811635"><ele>107.33333333333334</ele><time>2026-04-23T07:48:50.98Z</time></trkpt><trkpt lat="44.0896167" lon="9.8115717"><ele>113.0</ele><time>2026-04-23T07:48:52.979Z</time></trkpt><trkpt lat="44.08968" lon="9.8115183"><ele>118.66666666666667</ele><time>2026-04-23T07:48:54.979Z</time></trkpt><trkpt lat="44.0897517" lon="9.8114533"><ele>124.33333333333334</ele><time>2026-04-23T07:48:56.979Z</time></trkpt><trkpt lat="44.089815" lon="9.8114"><ele>130.0</ele><time>2026-04-23T07:48:58.979Z</time></trkpt><trkpt lat="44.08989" lon="9.81136"><ele>128.66666666666669</ele><time>2026-04-23T07:49:00.98Z</time></trkpt><trkpt lat="44.0899683" lon="9.8113217"><ele>127.33333333333334</ele><time>2026-04-23T07:49:02.98Z</time></trkpt><trkpt lat="44.0900483" lon="9.8113067"><ele>126.0</ele><time>2026-04-23T07:49:04.979Z</time></trkpt><trkpt lat="44.0901233" lon="9.81129"><ele>124.66666666666666</ele><time>2026-04-23T07:49:06.979Z</time></trkpt><trkpt lat="44.0902017" lon="9.8112833"><ele>123.33333333333333</ele><time>2026-04-23T07:49:08.979Z</time></trkpt><trkpt lat="44.09028" lon="9.8112583"><ele>122.0</ele><time>2026-04-23T07:49:10.979Z</time></trkpt><trkpt lat="44.0903567" lon="9.811245"><ele>121.99999999999999</ele><time>2026-04-23T07:49:12.98Z</time></trkpt><trkpt lat="44.09043" lon="9.811245"><ele>122.0</ele><time>2026-04-23T07:49:14.979Z</time></trkpt><trkpt lat="44.0905017" lon="9.8112517"><ele>122.0</ele><time>2026-04-23T07:49:16.98Z</time></trkpt><trkpt lat="44.090565" lon="9.8112517"><ele>122.0</ele><time>2026-04-23T07:49:18.979Z</time></trkpt><trkpt lat="44.0906367" lon="9.8112533"><ele>121.99999999999999</ele><time>2026-04-23T07:49:20.98Z</time></trkpt><trkpt lat="44.09072" lon="9.81122"><ele>122.0</ele><time>2026-04-23T07:49:22.979Z</time></trkpt><trkpt lat="44.0907967" lon="9.811175"><ele>120.99999999999999</ele><time>2026-04-23T07:49:24.98Z</time></trkpt><trkpt lat="44.0908667" lon="9.811135"><ele>120.0</ele><time>2026-04-23T07:49:26.98Z</time></trkpt><trkpt lat="44.09094" lon="9.8111067"><ele>118.99999999999999</ele><time>2026-04-23T07:49:28.979Z</time></trkpt><trkpt lat="44.091005" lon="9.8110633"><ele>117.99999999999999</ele><time>2026-04-23T07:49:30.979Z</time></trkpt><trkpt lat="44.091065" lon="9.811015"><ele>117.0</ele><time>2026-04-23T07:49:32.979Z</time></trkpt><trkpt lat="44.0911233" lon="9.8109617"><ele>115.99999999999999</ele><time>2026-04-23T07:49:34.979Z</time></trkpt><trkpt lat="44.0911917" lon="9.8109"><ele>114.99999999999999</ele><time>2026-04-23T07:49:36.979Z</time></trkpt><trkpt lat="44.09125" lon="9.8108433"><ele>118.7142857142857</ele><time>2026-04-23T07:49:38.98Z</time></trkpt><trkpt lat="44.09131" lon="9.8107783"><ele>122.42857142857142</ele><time>2026-04-23T07:49:40.979Z</time></trkpt><trkpt lat="44.0913617" lon="9.8106883"><ele>126.14285714285714</ele><time>2026-04-23T07:49:42.98Z</time></trkpt><trkpt lat="44.0914" lon="9.8106067"><ele>129.85714285714283</ele><time>2026-04-23T07:49:44.979Z</time></trkpt><trkpt lat="44.0914283" lon="9.810525"><ele>133.57142857142856</ele><time>2026-04-23T07:49:46.98Z</time></trkpt><trkpt lat="44.0914633" lon="9.810435"><ele>137.28571428571428</ele><time>2026-04-23T07:49:48.979Z</time></trkpt><trkpt lat="44.0914817" lon="9.810345"><ele>141.0</ele><time>2026-04-23T07:49:50.979Z</time></trkpt><trkpt lat="44.09148" lon="9.8102267"><ele>142.71428571428572</ele><time>2026-04-23T07:49:52.979Z</time></trkpt><trkpt lat="44.0914833" lon="9.8101217"><ele>144.42857142857142</ele><time>2026-04-23T07:49:54.979Z</time></trkpt><trkpt lat="44.09148" lon="9.8100333"><ele>146.14285714285714</ele><time>2026-04-23T07:49:56.98Z</time></trkpt><trkpt lat="44.0914733" lon="9.8099317"><ele>147.85714285714286</ele><time>2026-04-23T07:49:58.979Z</time></trkpt><trkpt lat="44.0914533" lon="9.8098317"><ele>149.57142857142858</ele><time>2026-04-23T07:50:00.979Z</time></trkpt><trkpt lat="44.091445" lon="9.809735"><ele>151.28571428571428</ele><time>2026-04-23T07:50:02.979Z</time></trkpt><trkpt lat="44.09144" lon="9.80962"><ele>153.0</ele><time>2026-04-23T07:50:05.979Z</time></trkpt><trkpt lat="44.0914267" lon="9.80952"><ele>153.0</ele><time>2026-04-23T07:50:07.979Z</time></trkpt><trkpt lat="44.09141" lon="9.8094233"><ele>153.0</ele><time>2026-04-23T07:50:09.979Z</time></trkpt><trkpt lat="44.0913783" lon="9.8093283"><ele>153.0</ele><time>2026-04-23T07:50:11.979Z</time></trkpt><trkpt lat="44.09132" lon="9.8092417"><ele>153.0</ele><time>2026-04-23T07:50:13.98Z</time></trkpt><trkpt lat="44.0912583" lon="9.8091683"><ele>153.0</ele><time>2026-04-23T07:50:15.979Z</time></trkpt><trkpt lat="44.0912083" lon="9.8091067"><ele>153.0</ele><time>2026-04-23T07:50:17.979Z</time></trkpt><trkpt lat="44.0911467" lon="9.8090467"><ele>152.83333333333334</ele><time>2026-04-23T07:50:19.979Z</time></trkpt><trkpt lat="44.09108" lon="9.8089867"><ele>152.66666666666666</ele><time>2026-04-23T07:50:21.979Z</time></trkpt><trkpt lat="44.0910183" lon="9.808915"><ele>152.5</ele><time>2026-04-23T07:50:23.98Z</time></trkpt><trkpt lat="44.090965" lon="9.8088033"><ele>152.33333333333331</ele><time>2026-04-23T07:50:26.979Z</time></trkpt><trkpt lat="44.09091" lon="9.8087"><ele>152.16666666666666</ele><time>2026-04-23T07:50:29.979Z</time></trkpt><trkpt lat="44.0908683" lon="9.8086217"><ele>152.0</ele><time>2026-04-23T07:50:31.979Z</time></trkpt><trkpt lat="44.09083" lon="9.80855"><ele>149.83333333333331</ele><time>2026-04-23T07:50:33.98Z</time></trkpt><trkpt lat="44.0907783" lon="9.80848"><ele>147.66666666666666</ele><time>2026-04-23T07:50:35.979Z</time></trkpt><trkpt lat="44.0907283" lon="9.8084083"><ele>145.5</ele><time>2026-04-23T07:50:37.979Z</time></trkpt><trkpt lat="44.0906767" lon="9.8083083"><ele>143.33333333333334</ele><time>2026-04-23T07:50:40.979Z</time></trkpt><trkpt lat="44.0906217" lon="9.8082183"><ele>141.16666666666669</ele><time>2026-04-23T07:50:42.979Z</time></trkpt><trkpt lat="44.0905717" lon="9.808135"><ele>139.0</ele><time>2026-04-23T07:50:44.98Z</time></trkpt><trkpt lat="44.0905383" lon="9.8080583"><ele>142.57142857142856</ele><time>2026-04-23T07:50:46.98Z</time></trkpt><trkpt lat="44.0904917" lon="9.8079967"><ele>146.14285714285714</ele><time>2026-04-23T07:50:48.98Z</time></trkpt><trkpt lat="44.0904233" lon="9.8079067"><ele>149.71428571428572</ele><time>2026-04-23T07:50:51.979Z</time></trkpt><trkpt lat="44.0903733" lon="9.80785"><ele>153.28571428571428</ele><time>2026-04-23T07:50:53.979Z</time></trkpt><trkpt lat="44.0903233" lon="9.807775"><ele>156.85714285714286</ele><time>2026-04-23T07:50:55.979Z</time></trkpt><trkpt lat="44.0902733" lon="9.8077"><ele>160.42857142857142</ele><time>2026-04-23T07:50:57.979Z</time></trkpt><trkpt lat="44.09022" lon="9.8076267"><ele>164.0</ele><time>2026-04-23T07:50:59.979Z</time></trkpt><trkpt lat="44.0901833" lon="9.807555"><ele>163.99999999999997</ele><time>2026-04-23T07:51:01.979Z</time></trkpt><trkpt lat="44.0901217" lon="9.8075"><ele>164.0</ele><time>2026-04-23T07:51:03.98Z</time></trkpt><trkpt lat="44.090075" lon="9.8074317"><ele>164.0</ele><time>2026-04-23T07:51:05.979Z</time></trkpt><trkpt lat="44.09003" lon="9.8073533"><ele>164.0</ele><time>2026-04-23T07:51:07.979Z</time></trkpt><trkpt lat="44.08998" lon="9.80728"><ele>164.0</ele><time>2026-04-23T07:51:09.979Z</time></trkpt><trkpt lat="44.089945" lon="9.807195"><ele>163.99999999999997</ele><time>2026-04-23T07:51:11.979Z</time></trkpt><trkpt lat="44.08991" lon="9.8070867"><ele>164.0</ele><time>2026-04-23T07:51:14.979Z</time></trkpt><trkpt lat="44.0898867" lon="9.8069667"><ele>167.57142857142856</ele><time>2026-04-23T07:51:17.979Z</time></trkpt><trkpt lat="44.0898517" lon="9.8068733"><ele>171.14285714285714</ele><time>2026-04-23T07:51:20.98Z</time></trkpt><trkpt lat="44.0898317" lon="9.80679"><ele>174.71428571428572</ele><time>2026-04-23T07:51:22.979Z</time></trkpt><trkpt lat="44.0898233" lon="9.806685"><ele>178.28571428571428</ele><time>2026-04-23T07:51:24.979Z</time></trkpt><trkpt lat="44.0898183" lon="9.806585"><ele>181.85714285714286</ele><time>2026-04-23T07:51:26.979Z</time></trkpt><trkpt lat="44.0898267" lon="9.806485"><ele>185.42857142857142</ele><time>2026-04-23T07:51:28.979Z</time></trkpt><trkpt lat="44.08985" lon="9.80639"><ele>189.0</ele><time>2026-04-23T07:51:30.979Z</time></trkpt><trkpt lat="44.0898717" lon="9.806295"><ele>189.0</ele><time>2026-04-23T07:51:32.979Z</time></trkpt><trkpt lat="44.0898767" lon="9.8062"><ele>189.0</ele><time>2026-04-23T07:51:34.979Z</time></trkpt><trkpt lat="44.0898783" lon="9.80611"><ele>189.0</ele><time>2026-04-23T07:51:36.979Z</time></trkpt><trkpt lat="44.0898867" lon="9.80602"><ele>189.0</ele><time>2026-04-23T07:51:38.979Z</time></trkpt><trkpt lat="44.0898917" lon="9.8059"><ele>189.0</ele><time>2026-04-23T07:51:41.979Z</time></trkpt><trkpt lat="44.0898967" lon="9.8058033"><ele>189.0</ele><time>2026-04-23T07:51:43.979Z</time></trkpt><trkpt lat="44.089895" lon="9.8057083"><ele>189.0</ele><time>2026-04-23T07:51:45.979Z</time></trkpt><trkpt lat="44.0898933" lon="9.8056167"><ele>189.83333333333334</ele><time>2026-04-23T07:51:47.979Z</time></trkpt><trkpt lat="44.0899067" lon="9.805485"><ele>190.66666666666669</ele><time>2026-04-23T07:51:50.98Z</time></trkpt><trkpt lat="44.0899183" lon="9.805395"><ele>191.5</ele><time>2026-04-23T07:51:52.979Z</time></trkpt><trkpt lat="44.089915" lon="9.8052783"><ele>192.33333333333334</ele><time>2026-04-23T07:51:55.979Z</time></trkpt><trkpt lat="44.0899333" lon="9.8051533"><ele>193.16666666666669</ele><time>2026-04-23T07:51:58.979Z</time></trkpt><trkpt lat="44.0899533" lon="9.8050183"><ele>194.0</ele><time>2026-04-23T07:52:01.979Z</time></trkpt><trkpt lat="44.0899567" lon="9.8049233"><ele>194.28571428571428</ele><time>2026-04-23T07:52:03.979Z</time></trkpt><trkpt lat="44.089955" lon="9.8048267"><ele>194.57142857142858</ele><time>2026-04-23T07:52:05.979Z</time></trkpt><trkpt lat="44.08995" lon="9.8047367"><ele>194.85714285714286</ele><time>2026-04-23T07:52:07.979Z</time></trkpt><trkpt lat="44.08994" lon="9.8046217"><ele>195.14285714285714</ele><time>2026-04-23T07:52:10.98Z</time></trkpt><trkpt lat="44.0899117" lon="9.80453"><ele>195.42857142857144</ele><time>2026-04-23T07:52:12.979Z</time></trkpt><trkpt lat="44.0898683" lon="9.8044367"><ele>195.71428571428572</ele><time>2026-04-23T07:52:14.979Z</time></trkpt><trkpt lat="44.08982" lon="9.8043517"><ele>196.0</ele><time>2026-04-23T07:52:16.979Z</time></trkpt><trkpt lat="44.08977" lon="9.8042717"><ele>195.14285714285714</ele><time>2026-04-23T07:52:18.979Z</time></trkpt><trkpt lat="44.0897117" lon="9.804175"><ele>194.28571428571428</ele><time>2026-04-23T07:52:21.98Z</time></trkpt><trkpt lat="44.08966" lon="9.8041233"><ele>193.42857142857144</ele><time>2026-04-23T07:52:23.98Z</time></trkpt><trkpt lat="44.089615" lon="9.8040617"><ele>192.57142857142856</ele><time>2026-04-23T07:52:25.979Z</time></trkpt><trkpt lat="44.0895633" lon="9.8039967"><ele>191.71428571428572</ele><time>2026-04-23T07:52:27.979Z</time></trkpt><trkpt lat="44.0895133" lon="9.8039317"><ele>190.85714285714286</ele><time>2026-04-23T07:52:29.979Z</time></trkpt><trkpt lat="44.0894667" lon="9.80387"><ele>190.0</ele><time>2026-04-23T07:52:31.979Z</time></trkpt><trkpt lat="44.0893967" lon="9.8037767"><ele>190.0</ele><time>2026-04-23T07:52:34.979Z</time></trkpt><trkpt lat="44.089345" lon="9.8037133"><ele>190.0</ele><time>2026-04-23T07:52:36.979Z</time></trkpt><trkpt lat="44.0892967" lon="9.80365"><ele>190.0</ele><time>2026-04-23T07:52:38.979Z</time></trkpt><trkpt lat="44.0892517" lon="9.803585"><ele>190.0</ele><time>2026-04-23T07:52:40.98Z</time></trkpt><trkpt lat="44.0892067" lon="9.8035167"><ele>190.0</ele><time>2026-04-23T07:52:42.98Z</time></trkpt><trkpt lat="44.08917" lon="9.8034433"><ele>190.0</ele><time>2026-04-23T07:52:44.979Z</time></trkpt><trkpt lat="44.0891267" lon="9.8033233"><ele>190.0</ele><time>2026-04-23T07:52:47.979Z</time></trkpt><trkpt lat="44.0890917" lon="9.8032017"><ele>188.66666666666669</ele><time>2026-04-23T07:52:50.979Z</time></trkpt><trkpt lat="44.0890983" lon="9.803075"><ele>187.33333333333334</ele><time>2026-04-23T07:52:53.98Z</time></trkpt><trkpt lat="44.0890983" lon="9.8029417"><ele>186.0</ele><time>2026-04-23T07:52:56.979Z</time></trkpt><trkpt lat="44.0891083" lon="9.80284"><ele>184.66666666666666</ele><time>2026-04-23T07:52:58.979Z</time></trkpt><trkpt lat="44.0891283" lon="9.8027417"><ele>183.33333333333331</ele><time>2026-04-23T07:53:00.979Z</time></trkpt><trkpt lat="44.0891567" lon="9.802655"><ele>182.0</ele><time>2026-04-23T07:53:02.979Z</time></trkpt><trkpt lat="44.089175" lon="9.802555"><ele>181.16666666666666</ele><time>2026-04-23T07:53:04.978Z</time></trkpt><trkpt lat="44.0892083" lon="9.802465"><ele>180.33333333333331</ele><time>2026-04-23T07:53:06.978Z</time></trkpt><trkpt lat="44.0892417" lon="9.8023733"><ele>179.5</ele><time>2026-04-23T07:53:08.978Z</time></trkpt><trkpt lat="44.0892767" lon="9.8022817"><ele>178.66666666666666</ele><time>2026-04-23T07:53:10.978Z</time></trkpt><trkpt lat="44.089315" lon="9.802205"><ele>177.83333333333334</ele><time>2026-04-23T07:53:12.978Z</time></trkpt><trkpt lat="44.0893883" lon="9.8021217"><ele>177.0</ele><time>2026-04-23T07:53:15.978Z</time></trkpt><trkpt lat="44.0894433" lon="9.802065"><ele>177.0</ele><time>2026-04-23T07:53:17.978Z</time></trkpt><trkpt lat="44.089505" lon="9.8020067"><ele>177.0</ele><time>2026-04-23T07:53:19.979Z</time></trkpt><trkpt lat="44.0895617" lon="9.8019667"><ele>177.0</ele><time>2026-04-23T07:53:21.979Z</time></trkpt><trkpt lat="44.0896417" lon="9.80191"><ele>177.0</ele><time>2026-04-23T07:53:24.979Z</time></trkpt><trkpt lat="44.0897083" lon="9.8019017"><ele>177.0</ele><time>2026-04-23T07:53:26.978Z</time></trkpt><trkpt lat="44.08978" lon="9.8018867"><ele>177.0</ele><time>2026-04-23T07:53:28.979Z</time></trkpt><trkpt lat="44.0898467" lon="9.8018883"><ele>177.0</ele><time>2026-04-23T07:53:30.979Z</time></trkpt><trkpt lat="44.08992" lon="9.8019067"><ele>176.2857142857143</ele><time>2026-04-23T07:53:32.978Z</time></trkpt><trkpt lat="44.08999" lon="9.801935"><ele>175.57142857142856</ele><time>2026-04-23T07:53:34.978Z</time></trkpt><trkpt lat="44.0900617" lon="9.8019733"><ele>174.85714285714286</ele><time>2026-04-23T07:53:36.978Z</time></trkpt><trkpt lat="44.0901217" lon="9.8020083"><ele>174.14285714285717</ele><time>2026-04-23T07:53:38.978Z</time></trkpt><trkpt lat="44.0901883" lon="9.8020633"><ele>173.42857142857144</ele><time>2026-04-23T07:53:40.979Z</time></trkpt><trkpt lat="44.0902533" lon="9.8021033"><ele>172.71428571428572</ele><time>2026-04-23T07:53:42.979Z</time></trkpt><trkpt lat="44.0903133" lon="9.8021517"><ele>172.0</ele><time>2026-04-23T07:53:44.978Z</time></trkpt><trkpt lat="44.0903883" lon="9.8022367"><ele>172.00000000000003</ele><time>2026-04-23T07:53:47.978Z</time></trkpt><trkpt lat="44.0904367" lon="9.802295"><ele>172.0</ele><time>2026-04-23T07:53:49.978Z</time></trkpt><trkpt lat="44.090505" lon="9.80238"><ele>172.0</ele><time>2026-04-23T07:53:52.979Z</time></trkpt><trkpt lat="44.090565" lon="9.802435"><ele>172.0</ele><time>2026-04-23T07:53:54.979Z</time></trkpt><trkpt lat="44.0906233" lon="9.8024917"><ele>172.0</ele><time>2026-04-23T07:53:56.978Z</time></trkpt><trkpt lat="44.0906783" lon="9.8025533"><ele>172.00000000000003</ele><time>2026-04-23T07:53:58.978Z</time></trkpt><trkpt lat="44.0907283" lon="9.80262"><ele>172.0</ele><time>2026-04-23T07:54:00.978Z</time></trkpt><trkpt lat="44.0907883" lon="9.8026683"><ele>171.5</ele><time>2026-04-23T07:54:02.978Z</time></trkpt><trkpt lat="44.0908417" lon="9.80272"><ele>171.0</ele><time>2026-04-23T07:54:04.979Z</time></trkpt><trkpt lat="44.0908917" lon="9.8027867"><ele>170.5</ele><time>2026-04-23T07:54:06.978Z</time></trkpt><trkpt lat="44.09094" lon="9.80286"><ele>170.0</ele><time>2026-04-23T07:54:08.978Z</time></trkpt><trkpt lat="44.0910167" lon="9.802935"><ele>169.5</ele><time>2026-04-23T07:54:11.978Z</time></trkpt><trkpt lat="44.091085" lon="9.80302"><ele>169.0</ele><time>2026-04-23T07:54:14.979Z</time></trkpt><trkpt lat="44.09114" lon="9.8030733"><ele>169.0</ele><time>2026-04-23T07:54:16.978Z</time></trkpt><trkpt lat="44.0911817" lon="9.8031417"><ele>169.0</ele><time>2026-04-23T07:54:18.978Z</time></trkpt><trkpt lat="44.09123" lon="9.8031983"><ele>169.0</ele><time>2026-04-23T07:54:20.978Z</time></trkpt><trkpt lat="44.0912783" lon="9.8032583"><ele>169.0</ele><time>2026-04-23T07:54:22.978Z</time></trkpt><trkpt lat="44.0913433" lon="9.8033167"><ele>169.0</ele><time>2026-04-23T07:54:24.979Z</time></trkpt><trkpt lat="44.0914" lon="9.8033683"><ele>169.0</ele><time>2026-04-23T07:54:26.978Z</time></trkpt><trkpt lat="44.0914583" lon="9.8034083"><ele>169.0</ele><time>2026-04-23T07:54:28.978Z</time></trkpt><trkpt lat="44.0915483" lon="9.8034333"><ele>168.42857142857144</ele><time>2026-04-23T07:54:31.978Z</time></trkpt><trkpt lat="44.0916133" lon="9.80345"><ele>167.85714285714286</ele><time>2026-04-23T07:54:33.978Z</time></trkpt><trkpt lat="44.0916783" lon="9.8034617"><ele>167.28571428571428</ele><time>2026-04-23T07:54:35.979Z</time></trkpt><trkpt lat="44.0917483" lon="9.8034733"><ele>166.71428571428572</ele><time>2026-04-23T07:54:37.978Z</time></trkpt><trkpt lat="44.0918283" lon="9.8034883"><ele>166.14285714285714</ele><time>2026-04-23T07:54:39.978Z</time></trkpt><trkpt lat="44.0919067" lon="9.8034883"><ele>165.57142857142858</ele><time>2026-04-23T07:54:41.978Z</time></trkpt><trkpt lat="44.0919867" lon="9.8034967"><ele>165.0</ele><time>2026-04-23T07:54:43.978Z</time></trkpt><trkpt lat="44.0920667" lon="9.803505"><ele>165.0</ele><time>2026-04-23T07:54:45.978Z</time></trkpt><trkpt lat="44.0921367" lon="9.8035067"><ele>165.0</ele><time>2026-04-23T07:54:47.978Z</time></trkpt><trkpt lat="44.0922167" lon="9.8035083"><ele>165.0</ele><time>2026-04-23T07:54:49.979Z</time></trkpt><trkpt lat="44.0922967" lon="9.803515"><ele>165.0</ele><time>2026-04-23T07:54:51.978Z</time></trkpt><trkpt lat="44.092375" lon="9.8035317"><ele>165.0</ele><time>2026-04-23T07:54:53.978Z</time></trkpt><trkpt lat="44.0924467" lon="9.8035283"><ele>165.0</ele><time>2026-04-23T07:54:55.979Z</time></trkpt><trkpt lat="44.0925283" lon="9.8035283"><ele>166.2857142857143</ele><time>2026-04-23T07:54:57.979Z</time></trkpt><trkpt lat="44.0926" lon="9.8035317"><ele>167.57142857142858</ele><time>2026-04-23T07:54:59.978Z</time></trkpt><trkpt lat="44.0926767" lon="9.8035517"><ele>168.85714285714286</ele><time>2026-04-23T07:55:01.978Z</time></trkpt><trkpt lat="44.0927483" lon="9.803575"><ele>170.14285714285717</ele><time>2026-04-23T07:55:03.978Z</time></trkpt><trkpt lat="44.0928167" lon="9.8035817"><ele>171.42857142857144</ele><time>2026-04-23T07:55:05.978Z</time></trkpt><trkpt lat="44.0928867" lon="9.8035783"><ele>172.71428571428572</ele><time>2026-04-23T07:55:07.978Z</time></trkpt><trkpt lat="44.092965" lon="9.80356"><ele>174.0</ele><time>2026-04-23T07:55:09.979Z</time></trkpt><trkpt lat="44.0930367" lon="9.803565"><ele>174.0</ele><time>2026-04-23T07:55:11.978Z</time></trkpt><trkpt lat="44.0931117" lon="9.8035733"><ele>174.0</ele><time>2026-04-23T07:55:13.978Z</time></trkpt><trkpt lat="44.0931867" lon="9.8035717"><ele>174.0</ele><time>2026-04-23T07:55:15.978Z</time></trkpt><trkpt lat="44.093265" lon="9.8035883"><ele>174.0</ele><time>2026-04-23T07:55:17.978Z</time></trkpt><trkpt lat="44.09334" lon="9.803615"><ele>174.0</ele><time>2026-04-23T07:55:19.979Z</time></trkpt><trkpt lat="44.0934183" lon="9.8036217"><ele>174.0</ele><time>2026-04-23T07:55:21.978Z</time></trkpt><trkpt lat="44.0934917" lon="9.80363"><ele>175.66666666666666</ele><time>2026-04-23T07:55:23.978Z</time></trkpt><trkpt lat="44.0935767" lon="9.8036467"><ele>177.33333333333334</ele><time>2026-04-23T07:55:25.978Z</time></trkpt><trkpt lat="44.0936517" lon="9.8036717"><ele>179.0</ele><time>2026-04-23T07:55:27.978Z</time></trkpt><trkpt lat="44.093725" lon="9.803675"><ele>180.66666666666669</ele><time>2026-04-23T07:55:29.978Z</time></trkpt><trkpt lat="44.0937967" lon="9.8036733"><ele>182.33333333333334</ele><time>2026-04-23T07:55:31.979Z</time></trkpt><trkpt lat="44.093865" lon="9.8036867"><ele>184.0</ele><time>2026-04-23T07:55:33.978Z</time></trkpt><trkpt lat="44.0939433" lon="9.8037033"><ele>184.0</ele><time>2026-04-23T07:55:35.978Z</time></trkpt><trkpt lat="44.0940117" lon="9.8037267"><ele>184.0</ele><time>2026-04-23T07:55:37.978Z</time></trkpt><trkpt lat="44.0940833" lon="9.80373"><ele>184.0</ele><time>2026-04-23T07:55:39.979Z</time></trkpt><trkpt lat="44.0941633" lon="9.80373"><ele>184.0</ele><time>2026-04-23T07:55:41.974Z</time></trkpt><trkpt lat="44.0942483" lon="9.8037233"><ele>184.0</ele><time>2026-04-23T07:55:43.978Z</time></trkpt><trkpt lat="44.0943317" lon="9.8037217"><ele>184.0</ele><time>2026-04-23T07:55:45.979Z</time></trkpt><trkpt lat="44.0944117" lon="9.80373"><ele>185.16666666666669</ele><time>2026-04-23T07:55:47.978Z</time></trkpt><trkpt lat="44.0944967" lon="9.8037367"><ele>186.33333333333334</ele><time>2026-04-23T07:55:49.978Z</time></trkpt><trkpt lat="44.0945733" lon="9.8037317"><ele>187.5</ele><time>2026-04-23T07:55:51.979Z</time></trkpt><trkpt lat="44.0946617" lon="9.80373"><ele>188.66666666666666</ele><time>2026-04-23T07:55:53.978Z</time></trkpt><trkpt lat="44.0947367" lon="9.803745"><ele>189.83333333333331</ele><time>2026-04-23T07:55:55.978Z</time></trkpt><trkpt lat="44.09482" lon="9.8037283"><ele>191.0</ele><time>2026-04-23T07:55:57.978Z</time></trkpt><trkpt lat="44.0948917" lon="9.80373"><ele>191.0</ele><time>2026-04-23T07:55:59.978Z</time></trkpt><trkpt lat="44.0949733" lon="9.80371"><ele>191.0</ele><time>2026-04-23T07:56:01.978Z</time></trkpt><trkpt lat="44.09506" lon="9.80369"><ele>191.0</ele><time>2026-04-23T07:56:03.978Z</time></trkpt><trkpt lat="44.0951433" lon="9.8036683"><ele>191.0</ele><time>2026-04-23T07:56:05.978Z</time></trkpt><trkpt lat="44.0952167" lon="9.8036517"><ele>191.0</ele><time>2026-04-23T07:56:07.978Z</time></trkpt><trkpt lat="44.095295" lon="9.8036167"><ele>191.0</ele><time>2026-04-23T07:56:09.978Z</time></trkpt><trkpt lat="44.09537" lon="9.80356"><ele>191.0</ele><time>2026-04-23T07:56:11.978Z</time></trkpt><trkpt lat="44.09544" lon="9.8035233"><ele>191.0</ele><time>2026-04-23T07:56:13.978Z</time></trkpt><trkpt lat="44.0954983" lon="9.8034767"><ele>191.0</ele><time>2026-04-23T07:56:15.978Z</time></trkpt><trkpt lat="44.09555" lon="9.803405"><ele>191.0</ele><time>2026-04-23T07:56:17.979Z</time></trkpt><trkpt lat="44.09561" lon="9.8033267"><ele>191.0</ele><time>2026-04-23T07:56:19.979Z</time></trkpt><trkpt lat="44.0956683" lon="9.8032483"><ele>191.0</ele><time>2026-04-23T07:56:21.978Z</time></trkpt><trkpt lat="44.09572" lon="9.8031667"><ele>192.33333333333331</ele><time>2026-04-23T07:56:23.978Z</time></trkpt><trkpt lat="44.0957633" lon="9.80307"><ele>193.66666666666666</ele><time>2026-04-23T07:56:25.979Z</time></trkpt><trkpt lat="44.095825" lon="9.80296"><ele>195.0</ele><time>2026-04-23T07:56:28.979Z</time></trkpt><trkpt lat="44.0958617" lon="9.80286"><ele>196.33333333333331</ele><time>2026-04-23T07:56:30.979Z</time></trkpt><trkpt lat="44.095895" lon="9.802765"><ele>197.66666666666666</ele><time>2026-04-23T07:56:32.978Z</time></trkpt><trkpt lat="44.0959133" lon="9.8026583"><ele>199.0</ele><time>2026-04-23T07:56:34.978Z</time></trkpt><trkpt lat="44.095925" lon="9.8025383"><ele>201.49999999999997</ele><time>2026-04-23T07:56:36.978Z</time></trkpt><trkpt lat="44.0959283" lon="9.8024133"><ele>204.0</ele><time>2026-04-23T07:56:38.978Z</time></trkpt><trkpt lat="44.0959433" lon="9.8023067"><ele>206.5</ele><time>2026-04-23T07:56:40.978Z</time></trkpt><trkpt lat="44.0959417" lon="9.8022117"><ele>209.0</ele><time>2026-04-23T07:56:42.978Z</time></trkpt><trkpt lat="44.0959383" lon="9.80211"><ele>211.49999999999997</ele><time>2026-04-23T07:56:44.978Z</time></trkpt><trkpt lat="44.0959233" lon="9.802005"><ele>214.0</ele><time>2026-04-23T07:56:46.978Z</time></trkpt><trkpt lat="44.0959083" lon="9.8018783"><ele>213.79999999999998</ele><time>2026-04-23T07:56:48.979Z</time></trkpt><trkpt lat="44.0958867" lon="9.8017483"><ele>213.59999999999997</ele><time>2026-04-23T07:56:50.978Z</time></trkpt><trkpt lat="44.0958617" lon="9.8016167"><ele>213.4</ele><time>2026-04-23T07:56:52.978Z</time></trkpt><trkpt lat="44.0958333" lon="9.8014733"><ele>213.2</ele><time>2026-04-23T07:56:54.978Z</time></trkpt><trkpt lat="44.0958033" lon="9.801345"><ele>213.0</ele><time>2026-04-23T07:56:56.978Z</time></trkpt><trkpt lat="44.0957867" lon="9.80122"><ele>213.0</ele><time>2026-04-23T07:56:58.978Z</time></trkpt><trkpt lat="44.0957767" lon="9.8010833"><ele>213.0</ele><time>2026-04-23T07:57:00.978Z</time></trkpt><trkpt lat="44.0957683" lon="9.8009767"><ele>213.0</ele><time>2026-04-23T07:57:02.978Z</time></trkpt><trkpt lat="44.0957633" lon="9.8008717"><ele>213.0</ele><time>2026-04-23T07:57:04.978Z</time></trkpt><trkpt lat="44.0957483" lon="9.8007533"><ele>213.0</ele><time>2026-04-23T07:57:06.978Z</time></trkpt><trkpt lat="44.0957283" lon="9.8006367"><ele>213.0</ele><time>2026-04-23T07:57:08.978Z</time></trkpt><trkpt lat="44.09572" lon="9.80054"><ele>213.16666666666666</ele><time>2026-04-23T07:57:10.978Z</time></trkpt><trkpt lat="44.0957117" lon="9.800445"><ele>213.33333333333331</ele><time>2026-04-23T07:57:12.979Z</time></trkpt><trkpt lat="44.0957117" lon="9.8003267"><ele>213.5</ele><time>2026-04-23T07:57:14.978Z</time></trkpt><trkpt lat="44.09572" lon="9.800215"><ele>213.66666666666666</ele><time>2026-04-23T07:57:16.978Z</time></trkpt><trkpt lat="44.09574" lon="9.8001"><ele>213.83333333333331</ele><time>2026-04-23T07:57:18.978Z</time></trkpt><trkpt lat="44.095765" lon="9.7999817"><ele>214.0</ele><time>2026-04-23T07:57:20.978Z</time></trkpt><trkpt lat="44.0957917" lon="9.7998517"><ele>213.99999999999997</ele><time>2026-04-23T07:57:22.978Z</time></trkpt><trkpt lat="44.0958167" lon="9.7997317"><ele>214.0</ele><time>2026-04-23T07:57:24.979Z</time></trkpt><trkpt lat="44.0958383" lon="9.7996383"><ele>214.0</ele><time>2026-04-23T07:57:26.978Z</time></trkpt><trkpt lat="44.0958683" lon="9.7995567"><ele>214.0</ele><time>2026-04-23T07:57:28.978Z</time></trkpt><trkpt lat="44.0959067" lon="9.7994833"><ele>213.99999999999997</ele><time>2026-04-23T07:57:30.978Z</time></trkpt><trkpt lat="44.095975" lon="9.7994017"><ele>214.0</ele><time>2026-04-23T07:57:32.978Z</time></trkpt><trkpt lat="44.0960383" lon="9.799305"><ele>215.99999999999997</ele><time>2026-04-23T07:57:34.978Z</time></trkpt><trkpt lat="44.0960967" lon="9.7992233"><ele>218.0</ele><time>2026-04-23T07:57:36.978Z</time></trkpt><trkpt lat="44.096165" lon="9.79916"><ele>220.0</ele><time>2026-04-23T07:57:38.978Z</time></trkpt><trkpt lat="44.0962317" lon="9.7991167"><ele>222.0</ele><time>2026-04-23T07:57:40.978Z</time></trkpt><trkpt lat="44.0962967" lon="9.79907"><ele>223.99999999999997</ele><time>2026-04-23T07:57:42.978Z</time></trkpt><trkpt lat="44.0963733" lon="9.7990283"><ele>226.0</ele><time>2026-04-23T07:57:44.978Z</time></trkpt><trkpt lat="44.09645" lon="9.799"><ele>226.0</ele><time>2026-04-23T07:57:46.978Z</time></trkpt><trkpt lat="44.0965183" lon="9.798985"><ele>226.0</ele><time>2026-04-23T07:57:48.978Z</time></trkpt><trkpt lat="44.0965867" lon="9.7989717"><ele>226.0</ele><time>2026-04-23T07:57:50.979Z</time></trkpt><trkpt lat="44.0966517" lon="9.7989683"><ele>226.0</ele><time>2026-04-23T07:57:52.978Z</time></trkpt><trkpt lat="44.0967233" lon="9.79897"><ele>226.0</ele><time>2026-04-23T07:57:54.978Z</time></trkpt><trkpt lat="44.0967967" lon="9.798955"><ele>226.0</ele><time>2026-04-23T07:57:56.979Z</time></trkpt><trkpt lat="44.09687" lon="9.7989433"><ele>226.0</ele><time>2026-04-23T07:57:58.978Z</time></trkpt><trkpt lat="44.096945" lon="9.7989433"><ele>224.49999999999997</ele><time>2026-04-23T07:58:00.978Z</time></trkpt><trkpt lat="44.097025" lon="9.79893"><ele>223.0</ele><time>2026-04-23T07:58:02.979Z</time></trkpt><trkpt lat="44.0971033" lon="9.7989183"><ele>221.5</ele><time>2026-04-23T07:58:04.978Z</time></trkpt><trkpt lat="44.09717" lon="9.798895"><ele>220.0</ele><time>2026-04-23T07:58:06.978Z</time></trkpt><trkpt lat="44.0972383" lon="9.7988633"><ele>218.49999999999997</ele><time>2026-04-23T07:58:08.979Z</time></trkpt><trkpt lat="44.0973133" lon="9.7988417"><ele>217.0</ele><time>2026-04-23T07:58:10.978Z</time></trkpt><trkpt lat="44.0973867" lon="9.79883"><ele>215.85714285714286</ele><time>2026-04-23T07:58:12.978Z</time></trkpt><trkpt lat="44.0974533" lon="9.7988133"><ele>214.71428571428572</ele><time>2026-04-23T07:58:14.978Z</time></trkpt><trkpt lat="44.09752" lon="9.7987933"><ele>213.57142857142856</ele><time>2026-04-23T07:58:16.978Z</time></trkpt><trkpt lat="44.0975867" lon="9.7987667"><ele>212.42857142857144</ele><time>2026-04-23T07:58:18.979Z</time></trkpt><trkpt lat="44.0976483" lon="9.79873"><ele>211.28571428571428</ele><time>2026-04-23T07:58:20.977Z</time></trkpt><trkpt lat="44.09771" lon="9.7986867"><ele>210.14285714285714</ele><time>2026-04-23T07:58:22.977Z</time></trkpt><trkpt lat="44.0977683" lon="9.7986317"><ele>209.0</ele><time>2026-04-23T07:58:24.978Z</time></trkpt><trkpt lat="44.0978317" lon="9.79858"><ele>209.00000000000003</ele><time>2026-04-23T07:58:26.977Z</time></trkpt><trkpt lat="44.0978917" lon="9.7985033"><ele>209.0</ele><time>2026-04-23T07:58:28.977Z</time></trkpt><trkpt lat="44.0979467" lon="9.7984367"><ele>209.0</ele><time>2026-04-23T07:58:30.977Z</time></trkpt><trkpt lat="44.0979983" lon="9.7983783"><ele>209.0</ele><time>2026-04-23T07:58:32.977Z</time></trkpt><trkpt lat="44.0980467" lon="9.7982733"><ele>209.00000000000003</ele><time>2026-04-23T07:58:35.978Z</time></trkpt><trkpt lat="44.098085" lon="9.7982"><ele>209.0</ele><time>2026-04-23T07:58:37.977Z</time></trkpt><trkpt lat="44.0981283" lon="9.798095"><ele>214.33333333333334</ele><time>2026-04-23T07:58:40.978Z</time></trkpt><trkpt lat="44.0981483" lon="9.7979867"><ele>219.66666666666669</ele><time>2026-04-23T07:58:43.977Z</time></trkpt><trkpt lat="44.098145" lon="9.79786"><ele>225.0</ele><time>2026-04-23T07:58:46.977Z</time></trkpt><trkpt lat="44.09814" lon="9.7977617"><ele>230.33333333333331</ele><time>2026-04-23T07:58:48.977Z</time></trkpt><trkpt lat="44.0981533" lon="9.7976367"><ele>235.66666666666666</ele><time>2026-04-23T07:58:51.977Z</time></trkpt><trkpt lat="44.09814" lon="9.797525"><ele>241.0</ele><time>2026-04-23T07:58:54.978Z</time></trkpt><trkpt lat="44.0981267" lon="9.7974167"><ele>244.16666666666666</ele><time>2026-04-23T07:58:57.977Z</time></trkpt><trkpt lat="44.0981067" lon="9.79731"><ele>247.33333333333331</ele><time>2026-04-23T07:59:00.977Z</time></trkpt><trkpt lat="44.0980967" lon="9.7971883"><ele>250.5</ele><time>2026-04-23T07:59:03.977Z</time></trkpt><trkpt lat="44.0980867" lon="9.7970933"><ele>253.66666666666669</ele><time>2026-04-23T07:59:05.977Z</time></trkpt><trkpt lat="44.0980667" lon="9.7970083"><ele>256.83333333333337</ele><time>2026-04-23T07:59:07.977Z</time></trkpt><trkpt lat="44.0980483" lon="9.796915"><ele>260.0</ele><time>2026-04-23T07:59:09.978Z</time></trkpt><trkpt lat="44.0980167" lon="9.7968117"><ele>260.28571428571433</ele><time>2026-04-23T07:59:11.977Z</time></trkpt><trkpt lat="44.097975" lon="9.7967017"><ele>260.57142857142856</ele><time>2026-04-23T07:59:13.977Z</time></trkpt><trkpt lat="44.097945" lon="9.7965983"><ele>260.8571428571429</ele><time>2026-04-23T07:59:15.977Z</time></trkpt><trkpt lat="44.0979067" lon="9.7965083"><ele>261.14285714285717</ele><time>2026-04-23T07:59:17.978Z</time></trkpt><trkpt lat="44.097875" lon="9.796425"><ele>261.42857142857144</ele><time>2026-04-23T07:59:19.977Z</time></trkpt><trkpt lat="44.097855" lon="9.7963317"><ele>261.7142857142857</ele><time>2026-04-23T07:59:21.977Z</time></trkpt><trkpt lat="44.09784" lon="9.7962433"><ele>262.0</ele><time>2026-04-23T07:59:23.977Z</time></trkpt><trkpt lat="44.0978167" lon="9.7961617"><ele>262.0</ele><time>2026-04-23T07:59:25.977Z</time></trkpt><trkpt lat="44.09779" lon="9.7960817"><ele>262.0</ele><time>2026-04-23T07:59:27.977Z</time></trkpt><trkpt lat="44.0977683" lon="9.7959567"><ele>262.0</ele><time>2026-04-23T07:59:30.977Z</time></trkpt><trkpt lat="44.097725" lon="9.7958617"><ele>262.0</ele><time>2026-04-23T07:59:33.977Z</time></trkpt><trkpt lat="44.0976767" lon="9.7957533"><ele>262.0</ele><time>2026-04-23T07:59:36.977Z</time></trkpt><trkpt lat="44.0976517" lon="9.7956717"><ele>262.0</ele><time>2026-04-23T07:59:38.978Z</time></trkpt><trkpt lat="44.0976383" lon="9.79558"><ele>260.8571428571429</ele><time>2026-04-23T07:59:40.977Z</time></trkpt><trkpt lat="44.0976117" lon="9.7955"><ele>259.7142857142857</ele><time>2026-04-23T07:59:42.978Z</time></trkpt><trkpt lat="44.097595" lon="9.7954033"><ele>258.57142857142856</ele><time>2026-04-23T07:59:44.978Z</time></trkpt><trkpt lat="44.0975867" lon="9.7953033"><ele>257.42857142857144</ele><time>2026-04-23T07:59:46.977Z</time></trkpt><trkpt lat="44.097565" lon="9.795215"><ele>256.2857142857143</ele><time>2026-04-23T07:59:48.977Z</time></trkpt><trkpt lat="44.097545" lon="9.795115"><ele>255.14285714285717</ele><time>2026-04-23T07:59:50.977Z</time></trkpt><trkpt lat="44.0975133" lon="9.7949967"><ele>254.0</ele><time>2026-04-23T07:59:53.977Z</time></trkpt><trkpt lat="44.097495" lon="9.7949117"><ele>252.66666666666669</ele><time>2026-04-23T07:59:55.978Z</time></trkpt><trkpt lat="44.097475" lon="9.7948033"><ele>251.33333333333334</ele><time>2026-04-23T07:59:58.977Z</time></trkpt><trkpt lat="44.0974617" lon="9.79471"><ele>250.0</ele><time>2026-04-23T08:00:00.977Z</time></trkpt><trkpt lat="44.097445" lon="9.7945967"><ele>248.66666666666669</ele><time>2026-04-23T08:00:03.977Z</time></trkpt><trkpt lat="44.0974267" lon="9.79448"><ele>247.33333333333334</ele><time>2026-04-23T08:00:06.977Z</time></trkpt><trkpt lat="44.0973917" lon="9.794375"><ele>246.0</ele><time>2026-04-23T08:00:09.977Z</time></trkpt><trkpt lat="44.0973667" lon="9.7942533"><ele>254.66666666666666</ele><time>2026-04-23T08:00:12.978Z</time></trkpt><trkpt lat="44.0973517" lon="9.79412"><ele>263.3333333333333</ele><time>2026-04-23T08:00:15.978Z</time></trkpt><trkpt lat="44.0973283" lon="9.7939983"><ele>272.0</ele><time>2026-04-23T08:00:18.977Z</time></trkpt><trkpt lat="44.097295" lon="9.7938733"><ele>280.66666666666663</ele><time>2026-04-23T08:00:21.977Z</time></trkpt><trkpt lat="44.0972783" lon="9.793785"><ele>289.3333333333333</ele><time>2026-04-23T08:00:23.977Z</time></trkpt><trkpt lat="44.0972767" lon="9.7936867"><ele>298.0</ele><time>2026-04-23T08:00:25.978Z</time></trkpt><trkpt lat="44.0972783" lon="9.793585"><ele>297.66666666666663</ele><time>2026-04-23T08:00:27.977Z</time></trkpt><trkpt lat="44.0972733" lon="9.7934883"><ele>297.3333333333333</ele><time>2026-04-23T08:00:29.977Z</time></trkpt><trkpt lat="44.0972567" lon="9.7933717"><ele>297.0</ele><time>2026-04-23T08:00:32.978Z</time></trkpt><trkpt lat="44.0972383" lon="9.7932483"><ele>296.6666666666667</ele><time>2026-04-23T08:00:35.977Z</time></trkpt><trkpt lat="44.097245" lon="9.7931417"><ele>296.33333333333337</ele><time>2026-04-23T08:00:37.978Z</time></trkpt><trkpt lat="44.0972583" lon="9.79303"><ele>296.0</ele><time>2026-04-23T08:00:39.977Z</time></trkpt><trkpt lat="44.0972617" lon="9.79291"><ele>296.0</ele><time>2026-04-23T08:00:41.978Z</time></trkpt><trkpt lat="44.0972633" lon="9.7928133"><ele>296.0</ele><time>2026-04-23T08:00:43.977Z</time></trkpt><trkpt lat="44.0972767" lon="9.7927233"><ele>296.0</ele><time>2026-04-23T08:00:45.978Z</time></trkpt><trkpt lat="44.09731" lon="9.7926017"><ele>296.0</ele><time>2026-04-23T08:00:48.977Z</time></trkpt><trkpt lat="44.0973267" lon="9.7925017"><ele>296.0</ele><time>2026-04-23T08:00:50.977Z</time></trkpt><trkpt lat="44.0973233" lon="9.7924017"><ele>296.0</ele><time>2026-04-23T08:00:52.977Z</time></trkpt><trkpt lat="44.09732" lon="9.7923033"><ele>296.0</ele><time>2026-04-23T08:00:54.977Z</time></trkpt><trkpt lat="44.09731" lon="9.792175"><ele>295.6666666666667</ele><time>2026-04-23T08:00:57.977Z</time></trkpt><trkpt lat="44.0973" lon="9.7920717"><ele>295.33333333333337</ele><time>2026-04-23T08:00:59.977Z</time></trkpt><trkpt lat="44.0973" lon="9.791975"><ele>295.0</ele><time>2026-04-23T08:01:01.977Z</time></trkpt><trkpt lat="44.0973" lon="9.791875"><ele>294.6666666666667</ele><time>2026-04-23T08:01:03.977Z</time></trkpt><trkpt lat="44.0973067" lon="9.7917667"><ele>294.3333333333333</ele><time>2026-04-23T08:01:05.977Z</time></trkpt><trkpt lat="44.0973133" lon="9.7916433"><ele>294.0</ele><time>2026-04-23T08:01:07.977Z</time></trkpt><trkpt lat="44.09733" lon="9.791525"><ele>294.8333333333333</ele><time>2026-04-23T08:01:09.977Z</time></trkpt><trkpt lat="44.0973483" lon="9.7914083"><ele>295.6666666666667</ele><time>2026-04-23T08:01:11.977Z</time></trkpt><trkpt lat="44.0973667" lon="9.7912883"><ele>296.5</ele><time>2026-04-23T08:01:13.977Z</time></trkpt><trkpt lat="44.0973733" lon="9.7911633"><ele>297.33333333333337</ele><time>2026-04-23T08:01:15.977Z</time></trkpt><trkpt lat="44.0974033" lon="9.791065"><ele>298.1666666666667</ele><time>2026-04-23T08:01:17.978Z</time></trkpt><trkpt lat="44.0973883" lon="9.7909533"><ele>299.0</ele><time>2026-04-23T08:01:19.978Z</time></trkpt><trkpt lat="44.097375" lon="9.7908333"><ele>300.6666666666667</ele><time>2026-04-23T08:01:21.977Z</time></trkpt><trkpt lat="44.09736" lon="9.7907233"><ele>302.33333333333337</ele><time>2026-04-23T08:01:23.977Z</time></trkpt><trkpt lat="44.09735" lon="9.7906067"><ele>304.0</ele><time>2026-04-23T08:01:25.978Z</time></trkpt><trkpt lat="44.09735" lon="9.7904867"><ele>305.6666666666667</ele><time>2026-04-23T08:01:27.978Z</time></trkpt><trkpt lat="44.0973433" lon="9.790385"><ele>307.3333333333333</ele><time>2026-04-23T08:01:29.977Z</time></trkpt><trkpt lat="44.0973567" lon="9.79029"><ele>309.0</ele><time>2026-04-23T08:01:31.977Z</time></trkpt><trkpt lat="44.097365" lon="9.7901833"><ele>309.5714285714286</ele><time>2026-04-23T08:01:34.977Z</time></trkpt><trkpt lat="44.09737" lon="9.790085"><ele>310.14285714285717</ele><time>2026-04-23T08:01:37.977Z</time></trkpt><trkpt lat="44.097355" lon="9.789995"><ele>310.7142857142857</ele><time>2026-04-23T08:01:39.977Z</time></trkpt><trkpt lat="44.0973517" lon="9.7899033"><ele>311.28571428571433</ele><time>2026-04-23T08:01:41.978Z</time></trkpt><trkpt lat="44.097355" lon="9.7898067"><ele>311.8571428571429</ele><time>2026-04-23T08:01:43.978Z</time></trkpt><trkpt lat="44.097345" lon="9.789705"><ele>312.42857142857144</ele><time>2026-04-23T08:01:45.978Z</time></trkpt><trkpt lat="44.097345" lon="9.7896117"><ele>313.0</ele><time>2026-04-23T08:01:47.977Z</time></trkpt><trkpt lat="44.097335" lon="9.7895183"><ele>313.0</ele><time>2026-04-23T08:01:49.978Z</time></trkpt><trkpt lat="44.097325" lon="9.7894033"><ele>313.0</ele><time>2026-04-23T08:01:52.977Z</time></trkpt><trkpt lat="44.09731" lon="9.789285"><ele>313.0</ele><time>2026-04-23T08:01:55.977Z</time></trkpt><trkpt lat="44.0972917" lon="9.7891867"><ele>313.0</ele><time>2026-04-23T08:01:57.977Z</time></trkpt><trkpt lat="44.0972717" lon="9.789095"><ele>313.0</ele><time>2026-04-23T08:01:59.977Z</time></trkpt><trkpt lat="44.09724" lon="9.7889733"><ele>313.0</ele><time>2026-04-23T08:02:02.978Z</time></trkpt><trkpt lat="44.0972117" lon="9.788885"><ele>311.5</ele><time>2026-04-23T08:02:04.977Z</time></trkpt><trkpt lat="44.0971783" lon="9.7887683"><ele>310.0</ele><time>2026-04-23T08:02:07.977Z</time></trkpt><trkpt lat="44.0971433" lon="9.7886817"><ele>308.5</ele><time>2026-04-23T08:02:09.978Z</time></trkpt><trkpt lat="44.097115" lon="9.78859"><ele>307.0</ele><time>2026-04-23T08:02:11.978Z</time></trkpt><trkpt lat="44.0970683" lon="9.7885183"><ele>305.5</ele><time>2026-04-23T08:02:13.977Z</time></trkpt><trkpt lat="44.0970133" lon="9.7884183"><ele>304.0</ele><time>2026-04-23T08:02:16.977Z</time></trkpt><trkpt lat="44.0969517" lon="9.7883183"><ele>307.5</ele><time>2026-04-23T08:02:19.977Z</time></trkpt><trkpt lat="44.0968983" lon="9.788225"><ele>311.0</ele><time>2026-04-23T08:02:22.977Z</time></trkpt><trkpt lat="44.0968233" lon="9.7881417"><ele>314.5</ele><time>2026-04-23T08:02:25.977Z</time></trkpt><trkpt lat="44.0967733" lon="9.7880867"><ele>318.0</ele><time>2026-04-23T08:02:27.977Z</time></trkpt><trkpt lat="44.0967183" lon="9.7880317"><ele>321.5</ele><time>2026-04-23T08:02:29.977Z</time></trkpt><trkpt lat="44.0966433" lon="9.7879633"><ele>325.0</ele><time>2026-04-23T08:02:32.978Z</time></trkpt><trkpt lat="44.09656" lon="9.7878933"><ele>325.0</ele><time>2026-04-23T08:02:35.978Z</time></trkpt><trkpt lat="44.0964933" lon="9.7878167"><ele>325.0</ele><time>2026-04-23T08:02:38.978Z</time></trkpt><trkpt lat="44.096435" lon="9.7877717"><ele>325.0</ele><time>2026-04-23T08:02:40.978Z</time></trkpt><trkpt lat="44.096355" lon="9.7877067"><ele>325.0</ele><time>2026-04-23T08:02:43.978Z</time></trkpt><trkpt lat="44.0963" lon="9.7876633"><ele>325.0</ele><time>2026-04-23T08:02:45.977Z</time></trkpt><trkpt lat="44.0962417" lon="9.7876117"><ele>325.0</ele><time>2026-04-23T08:02:47.978Z</time></trkpt><trkpt lat="44.0961817" lon="9.7875767"><ele>325.0</ele><time>2026-04-23T08:02:49.978Z</time></trkpt><trkpt lat="44.0961233" lon="9.7875417"><ele>323.0</ele><time>2026-04-23T08:02:51.977Z</time></trkpt><trkpt lat="44.09604" lon="9.7874783"><ele>321.0</ele><time>2026-04-23T08:02:54.977Z</time></trkpt><trkpt lat="44.095985" lon="9.7874317"><ele>319.0</ele><time>2026-04-23T08:02:56.977Z</time></trkpt><trkpt lat="44.0959267" lon="9.7873833"><ele>317.0</ele><time>2026-04-23T08:02:58.977Z</time></trkpt><trkpt lat="44.0958483" lon="9.7873333"><ele>315.0</ele><time>2026-04-23T08:03:01.977Z</time></trkpt><trkpt lat="44.0957817" lon="9.7873067"><ele>313.0</ele><time>2026-04-23T08:03:03.977Z</time></trkpt><trkpt lat="44.0957133" lon="9.78728"><ele>313.0</ele><time>2026-04-23T08:03:05.978Z</time></trkpt><trkpt lat="44.09565" lon="9.787255"><ele>313.0</ele><time>2026-04-23T08:03:07.978Z</time></trkpt><trkpt lat="44.0955767" lon="9.787225"><ele>313.0</ele><time>2026-04-23T08:03:10.977Z</time></trkpt><trkpt lat="44.0955017" lon="9.7872083"><ele>313.0</ele><time>2026-04-23T08:03:13.977Z</time></trkpt><trkpt lat="44.0954367" lon="9.78716"><ele>313.0</ele><time>2026-04-23T08:03:16.977Z</time></trkpt><trkpt lat="44.0953733" lon="9.7871267"><ele>313.0</ele><time>2026-04-23T08:03:19.978Z</time></trkpt><trkpt lat="44.09531" lon="9.787105"><ele>313.0</ele><time>2026-04-23T08:03:21.978Z</time></trkpt><trkpt lat="44.0952283" lon="9.7870517"><ele>313.0</ele><time>2026-04-23T08:03:24.977Z</time></trkpt><trkpt lat="44.0951467" lon="9.78701"><ele>313.0</ele><time>2026-04-23T08:03:27.977Z</time></trkpt><trkpt lat="44.0950733" lon="9.7869833"><ele>313.0</ele><time>2026-04-23T08:03:30.977Z</time></trkpt><trkpt lat="44.0950067" lon="9.7869283"><ele>313.0</ele><time>2026-04-23T08:03:33.977Z</time></trkpt><trkpt lat="44.0949117" lon="9.7868967"><ele>313.0</ele><time>2026-04-23T08:03:36.977Z</time></trkpt><trkpt lat="44.0948483" lon="9.7868717"><ele>313.0</ele><time>2026-04-23T08:03:38.978Z</time></trkpt><trkpt lat="44.0947833" lon="9.78684"><ele>309.8333333333333</ele><time>2026-04-23T08:03:40.978Z</time></trkpt><trkpt lat="44.09472" lon="9.7868233"><ele>306.66666666666663</ele><time>2026-04-23T08:03:42.977Z</time></trkpt><trkpt lat="44.0946367" lon="9.786785"><ele>303.5</ele><time>2026-04-23T08:03:45.977Z</time></trkpt><trkpt lat="44.0945633" lon="9.7867583"><ele>300.3333333333333</ele><time>2026-04-23T08:03:47.978Z</time></trkpt><trkpt lat="44.094485" lon="9.786725"><ele>297.1666666666667</ele><time>2026-04-23T08:03:49.977Z</time></trkpt><trkpt lat="44.094415" lon="9.7866867"><ele>294.0</ele><time>2026-04-23T08:03:51.978Z</time></trkpt><trkpt lat="44.0943517" lon="9.7866517"><ele>294.0</ele><time>2026-04-23T08:03:53.977Z</time></trkpt><trkpt lat="44.0942717" lon="9.78664"><ele>294.0</ele><time>2026-04-23T08:03:55.977Z</time></trkpt><trkpt lat="44.0941983" lon="9.7866083"><ele>294.0</ele><time>2026-04-23T08:03:57.977Z</time></trkpt><trkpt lat="44.0941267" lon="9.786555"><ele>294.0</ele><time>2026-04-23T08:03:59.977Z</time></trkpt><trkpt lat="44.0940567" lon="9.7864817"><ele>294.0</ele><time>2026-04-23T08:04:01.977Z</time></trkpt><trkpt lat="44.0939983" lon="9.7863933"><ele>294.0</ele><time>2026-04-23T08:04:03.977Z</time></trkpt><trkpt lat="44.09395" lon="9.786315"><ele>294.8333333333333</ele><time>2026-04-23T08:04:05.977Z</time></trkpt><trkpt lat="44.0938933" lon="9.7862433"><ele>295.6666666666667</ele><time>2026-04-23T08:04:07.977Z</time></trkpt><trkpt lat="44.0938367" lon="9.7861667"><ele>296.5</ele><time>2026-04-23T08:04:09.976Z</time></trkpt><trkpt lat="44.0937817" lon="9.7860933"><ele>297.33333333333337</ele><time>2026-04-23T08:04:11.976Z</time></trkpt><trkpt lat="44.0937267" lon="9.7860183"><ele>298.1666666666667</ele><time>2026-04-23T08:04:13.976Z</time></trkpt><trkpt lat="44.0936767" lon="9.7859433"><ele>299.0</ele><time>2026-04-23T08:04:15.976Z</time></trkpt><trkpt lat="44.0936133" lon="9.7858683"><ele>299.0</ele><time>2026-04-23T08:04:17.976Z</time></trkpt><trkpt lat="44.0935433" lon="9.7858083"><ele>299.0</ele><time>2026-04-23T08:04:19.977Z</time></trkpt><trkpt lat="44.093465" lon="9.7857633"><ele>299.0</ele><time>2026-04-23T08:04:21.976Z</time></trkpt><trkpt lat="44.0934017" lon="9.7857067"><ele>299.0</ele><time>2026-04-23T08:04:23.976Z</time></trkpt><trkpt lat="44.09334" lon="9.7856583"><ele>299.0</ele><time>2026-04-23T08:04:25.976Z</time></trkpt><trkpt lat="44.0932783" lon="9.785625"><ele>299.0</ele><time>2026-04-23T08:04:27.976Z</time></trkpt><trkpt lat="44.0932033" lon="9.7855883"><ele>303.83333333333337</ele><time>2026-04-23T08:04:29.977Z</time></trkpt><trkpt lat="44.0931233" lon="9.7855633"><ele>308.6666666666667</ele><time>2026-04-23T08:04:31.976Z</time></trkpt><trkpt lat="44.093055" lon="9.7855317"><ele>313.5</ele><time>2026-04-23T08:04:33.976Z</time></trkpt><trkpt lat="44.0929867" lon="9.78551"><ele>318.3333333333333</ele><time>2026-04-23T08:04:35.976Z</time></trkpt><trkpt lat="44.0929233" lon="9.7854683"><ele>323.16666666666663</ele><time>2026-04-23T08:04:37.976Z</time></trkpt><trkpt lat="44.0928283" lon="9.7854283"><ele>328.0</ele><time>2026-04-23T08:04:40.976Z</time></trkpt><trkpt lat="44.0927633" lon="9.785405"><ele>328.0</ele><time>2026-04-23T08:04:42.977Z</time></trkpt><trkpt lat="44.0926933" lon="9.7853783"><ele>328.0</ele><time>2026-04-23T08:04:44.976Z</time></trkpt><trkpt lat="44.0926183" lon="9.785355"><ele>328.0</ele><time>2026-04-23T08:04:46.976Z</time></trkpt><trkpt lat="44.092535" lon="9.7853383"><ele>328.0</ele><time>2026-04-23T08:04:48.976Z</time></trkpt><trkpt lat="44.092455" lon="9.78533"><ele>328.0</ele><time>2026-04-23T08:04:50.976Z</time></trkpt><trkpt lat="44.09237" lon="9.7853217"><ele>328.0</ele><time>2026-04-23T08:04:53.976Z</time></trkpt><trkpt lat="44.09227" lon="9.7853117"><ele>326.8333333333333</ele><time>2026-04-23T08:04:57.976Z</time></trkpt><trkpt lat="44.0921933" lon="9.7853017"><ele>325.66666666666663</ele><time>2026-04-23T08:04:59.976Z</time></trkpt><trkpt lat="44.09211" lon="9.785305"><ele>324.5</ele><time>2026-04-23T08:05:01.976Z</time></trkpt><trkpt lat="44.0920317" lon="9.7853083"><ele>323.3333333333333</ele><time>2026-04-23T08:05:03.976Z</time></trkpt><trkpt lat="44.0919617" lon="9.7853067"><ele>322.1666666666667</ele><time>2026-04-23T08:05:05.977Z</time></trkpt><trkpt lat="44.0918883" lon="9.785305"><ele>321.0</ele><time>2026-04-23T08:05:07.976Z</time></trkpt><trkpt lat="44.0918117" lon="9.7852933"><ele>321.0</ele><time>2026-04-23T08:05:09.976Z</time></trkpt><trkpt lat="44.0917117" lon="9.785275"><ele>321.0</ele><time>2026-04-23T08:05:12.976Z</time></trkpt><trkpt lat="44.0916183" lon="9.7852483"><ele>321.0</ele><time>2026-04-23T08:05:14.976Z</time></trkpt><trkpt lat="44.0915267" lon="9.78521"><ele>321.0</ele><time>2026-04-23T08:05:16.976Z</time></trkpt><trkpt lat="44.0914267" lon="9.785225"><ele>321.0</ele><time>2026-04-23T08:05:18.976Z</time></trkpt><trkpt lat="44.0913317" lon="9.7852233"><ele>317.1666666666667</ele><time>2026-04-23T08:05:20.976Z</time></trkpt><trkpt lat="44.0912583" lon="9.7851767"><ele>313.3333333333333</ele><time>2026-04-23T08:05:22.977Z</time></trkpt><trkpt lat="44.0912" lon="9.78511"><ele>309.5</ele><time>2026-04-23T08:05:24.977Z</time></trkpt><trkpt lat="44.0911467" lon="9.78503"><ele>305.66666666666663</ele><time>2026-04-23T08:05:26.976Z</time></trkpt><trkpt lat="44.0910983" lon="9.78495"><ele>301.8333333333333</ele><time>2026-04-23T08:05:28.977Z</time></trkpt><trkpt lat="44.0910567" lon="9.7848483"><ele>298.0</ele><time>2026-04-23T08:05:30.976Z</time></trkpt><trkpt lat="44.0910067" lon="9.7847483"><ele>298.0</ele><time>2026-04-23T08:05:32.977Z</time></trkpt><trkpt lat="44.09097" lon="9.7846367"><ele>298.0</ele><time>2026-04-23T08:05:34.976Z</time></trkpt><trkpt lat="44.0909467" lon="9.7845167"><ele>298.0</ele><time>2026-04-23T08:05:36.977Z</time></trkpt><trkpt lat="44.0909283" lon="9.78441"><ele>298.0</ele><time>2026-04-23T08:05:38.976Z</time></trkpt><trkpt lat="44.0908983" lon="9.7843183"><ele>298.0</ele><time>2026-04-23T08:05:40.977Z</time></trkpt><trkpt lat="44.0908683" lon="9.78424"><ele>298.0</ele><time>2026-04-23T08:05:42.976Z</time></trkpt><trkpt lat="44.09086" lon="9.784135"><ele>298.8333333333333</ele><time>2026-04-23T08:05:44.976Z</time></trkpt><trkpt lat="44.09087" lon="9.7840117"><ele>299.66666666666663</ele><time>2026-04-23T08:05:47.976Z</time></trkpt><trkpt lat="44.0908717" lon="9.7839083"><ele>300.5</ele><time>2026-04-23T08:05:49.977Z</time></trkpt><trkpt lat="44.0908767" lon="9.7838117"><ele>301.3333333333333</ele><time>2026-04-23T08:05:51.977Z</time></trkpt><trkpt lat="44.0908967" lon="9.7836967"><ele>302.1666666666667</ele><time>2026-04-23T08:05:53.976Z</time></trkpt><trkpt lat="44.090925" lon="9.7835867"><ele>303.0</ele><time>2026-04-23T08:05:55.977Z</time></trkpt><trkpt lat="44.0909717" lon="9.7835017"><ele>303.6</ele><time>2026-04-23T08:05:57.976Z</time></trkpt><trkpt lat="44.0910167" lon="9.7834133"><ele>304.20000000000005</ele><time>2026-04-23T08:05:59.977Z</time></trkpt><trkpt lat="44.091055" lon="9.783295"><ele>304.8</ele><time>2026-04-23T08:06:01.976Z</time></trkpt><trkpt lat="44.0910983" lon="9.7831533"><ele>305.40000000000003</ele><time>2026-04-23T08:06:03.976Z</time></trkpt><trkpt lat="44.0911317" lon="9.7830117"><ele>306.0</ele><time>2026-04-23T08:06:05.977Z</time></trkpt><trkpt lat="44.0911483" lon="9.7828867"><ele>306.0</ele><time>2026-04-23T08:06:07.976Z</time></trkpt><trkpt lat="44.0911633" lon="9.7827767"><ele>306.0</ele><time>2026-04-23T08:06:09.976Z</time></trkpt><trkpt lat="44.0911767" lon="9.78267"><ele>306.0</ele><time>2026-04-23T08:06:11.977Z</time></trkpt><trkpt lat="44.0911767" lon="9.782555"><ele>306.0</ele><time>2026-04-23T08:06:13.977Z</time></trkpt><trkpt lat="44.0911617" lon="9.7824517"><ele>306.0</ele><time>2026-04-23T08:06:15.976Z</time></trkpt><trkpt lat="44.09115" lon="9.7823517"><ele>306.0</ele><time>2026-04-23T08:06:17.976Z</time></trkpt><trkpt lat="44.0911383" lon="9.7822517"><ele>307.6666666666667</ele><time>2026-04-23T08:06:19.977Z</time></trkpt><trkpt lat="44.0911167" lon="9.78213"><ele>309.33333333333337</ele><time>2026-04-23T08:06:21.977Z</time></trkpt><trkpt lat="44.091085" lon="9.782005"><ele>311.0</ele><time>2026-04-23T08:06:23.976Z</time></trkpt><trkpt lat="44.08782" lon="9.7700533"><ele>311.0</ele><time>2026-04-23T08:09:15.977Z</time></trkpt><trkpt lat="44.0877883" lon="9.7699317"><ele>311.0</ele><time>2026-04-23T08:09:19.976Z</time></trkpt><trkpt lat="44.0877567" lon="9.7698433"><ele>311.0</ele><time>2026-04-23T08:09:20.976Z</time></trkpt><trkpt lat="44.087665" lon="9.7697933"><ele>311.0</ele><time>2026-04-23T08:09:22.976Z</time></trkpt><trkpt lat="44.08759" lon="9.7697467"><ele>311.0</ele><time>2026-04-23T08:09:24.977Z</time></trkpt><trkpt lat="44.0875317" lon="9.76968"><ele>311.0</ele><time>2026-04-23T08:09:27.976Z</time></trkpt><trkpt lat="44.08748" lon="9.7697317"><ele>311.0</ele><time>2026-04-23T08:09:32.977Z</time></trkpt><trkpt lat="44.0875467" lon="9.7696983"><ele>311.0</ele><time>2026-04-23T08:09:53.976Z</time></trkpt><trkpt lat="44.0876" lon="9.769765"><ele>311.0</ele><time>2026-04-23T08:09:56.976Z</time></trkpt><trkpt lat="44.0876783" lon="9.7698417"><ele>311.0</ele><time>2026-04-23T08:09:59.975Z</time></trkpt><trkpt lat="44.0877217" lon="9.76994"><ele>311.0</ele><time>2026-04-23T08:10:01.975Z</time></trkpt><trkpt lat="44.0877633" lon="9.77006"><ele>311.0</ele><time>2026-04-23T08:10:03.975Z</time></trkpt><trkpt lat="44.0877817" lon="9.7701767"><ele>312.8</ele><time>2026-04-23T08:10:05.975Z</time></trkpt><trkpt lat="44.08778" lon="9.7702783"><ele>314.6</ele><time>2026-04-23T08:10:07.976Z</time></trkpt><trkpt lat="44.0877867" lon="9.770395"><ele>316.4</ele><time>2026-04-23T08:10:09.975Z</time></trkpt><trkpt lat="44.0878217" lon="9.7704883"><ele>318.2</ele><time>2026-04-23T08:10:11.976Z</time></trkpt><trkpt lat="44.0878467" lon="9.770585"><ele>320.0</ele><time>2026-04-23T08:10:13.976Z</time></trkpt><trkpt lat="44.0909733" lon="9.78262"><ele>317.2</ele><time>2026-04-23T08:12:42.975Z</time></trkpt><trkpt lat="44.0910917" lon="9.7827867"><ele>314.4</ele><time>2026-04-23T08:12:44.975Z</time></trkpt><trkpt lat="44.091115" lon="9.782945"><ele>311.6</ele><time>2026-04-23T08:12:46.975Z</time></trkpt><trkpt lat="44.0911333" lon="9.7830367"><ele>308.8</ele><time>2026-04-23T08:12:47.976Z</time></trkpt><trkpt lat="44.0911033" lon="9.7831183"><ele>306.0</ele><time>2026-04-23T08:12:48.976Z</time></trkpt><trkpt lat="44.0910867" lon="9.7832033"><ele>306.0</ele><time>2026-04-23T08:12:49.975Z</time></trkpt><trkpt lat="44.091055" lon="9.783285"><ele>306.0</ele><time>2026-04-23T08:12:50.976Z</time></trkpt><trkpt lat="44.0910033" lon="9.7834483"><ele>306.0</ele><time>2026-04-23T08:12:52.975Z</time></trkpt><trkpt lat="44.0909517" lon="9.7836017"><ele>306.0</ele><time>2026-04-23T08:12:54.976Z</time></trkpt><trkpt lat="44.0909217" lon="9.7836883"><ele>306.0</ele><time>2026-04-23T08:12:55.975Z</time></trkpt><trkpt lat="44.0908983" lon="9.78377"><ele>306.0</ele><time>2026-04-23T08:12:56.975Z</time></trkpt><trkpt lat="44.09087" lon="9.783855"><ele>305.25</ele><time>2026-04-23T08:12:57.976Z</time></trkpt><trkpt lat="44.09083" lon="9.784015"><ele>304.5</ele><time>2026-04-23T08:12:59.975Z</time></trkpt><trkpt lat="44.0908267" lon="9.78417"><ele>303.75</ele><time>2026-04-23T08:13:01.975Z</time></trkpt><trkpt lat="44.0908533" lon="9.7843367"><ele>303.0</ele><time>2026-04-23T08:13:03.975Z</time></trkpt><trkpt lat="44.0908583" lon="9.7845017"><ele>301.75</ele><time>2026-04-23T08:13:05.975Z</time></trkpt><trkpt lat="44.090885" lon="9.78467"><ele>300.5</ele><time>2026-04-23T08:13:07.975Z</time></trkpt><trkpt lat="44.0909167" lon="9.78483"><ele>299.25</ele><time>2026-04-23T08:13:09.975Z</time></trkpt><trkpt lat="44.0909683" lon="9.7849817"><ele>298.0</ele><time>2026-04-23T08:13:11.976Z</time></trkpt><trkpt lat="44.0910367" lon="9.78511"><ele>298.0</ele><time>2026-04-23T08:13:13.975Z</time></trkpt><trkpt lat="44.09109" lon="9.7851717"><ele>298.0</ele><time>2026-04-23T08:13:14.975Z</time></trkpt><trkpt lat="44.09114" lon="9.7852367"><ele>298.0</ele><time>2026-04-23T08:13:15.975Z</time></trkpt><trkpt lat="44.0912167" lon="9.7852867"><ele>298.0</ele><time>2026-04-23T08:13:16.975Z</time></trkpt><trkpt lat="44.09129" lon="9.7853367"><ele>298.0</ele><time>2026-04-23T08:13:17.976Z</time></trkpt><trkpt lat="44.091365" lon="9.78537"><ele>298.0</ele><time>2026-04-23T08:13:18.976Z</time></trkpt><trkpt lat="44.0914417" lon="9.7854"><ele>300.5</ele><time>2026-04-23T08:13:19.975Z</time></trkpt><trkpt lat="44.0915167" lon="9.7854267"><ele>303.0</ele><time>2026-04-23T08:13:20.975Z</time></trkpt><trkpt lat="44.0915917" lon="9.785435"><ele>305.5</ele><time>2026-04-23T08:13:21.975Z</time></trkpt><trkpt lat="44.09166" lon="9.7854533"><ele>308.0</ele><time>2026-04-23T08:13:22.976Z</time></trkpt><trkpt lat="44.0917367" lon="9.785465"><ele>310.5</ele><time>2026-04-23T08:13:23.975Z</time></trkpt><trkpt lat="44.091815" lon="9.7854667"><ele>313.0</ele><time>2026-04-23T08:13:24.976Z</time></trkpt><trkpt lat="44.09189" lon="9.78547"><ele>314.3333333333333</ele><time>2026-04-23T08:13:25.975Z</time></trkpt><trkpt lat="44.0919617" lon="9.7854833"><ele>315.66666666666663</ele><time>2026-04-23T08:13:26.975Z</time></trkpt><trkpt lat="44.0920333" lon="9.785485"><ele>317.0</ele><time>2026-04-23T08:13:27.976Z</time></trkpt><trkpt lat="44.0921133" lon="9.7854817"><ele>318.3333333333333</ele><time>2026-04-23T08:13:28.975Z</time></trkpt><trkpt lat="44.0921917" lon="9.7854817"><ele>319.6666666666667</ele><time>2026-04-23T08:13:29.975Z</time></trkpt><trkpt lat="44.092265" lon="9.7854817"><ele>321.0</ele><time>2026-04-23T08:13:30.975Z</time></trkpt><trkpt lat="44.09234" lon="9.7854833"><ele>321.0</ele><time>2026-04-23T08:13:31.975Z</time></trkpt><trkpt lat="44.0924133" lon="9.785495"><ele>321.0</ele><time>2026-04-23T08:13:32.975Z</time></trkpt><trkpt lat="44.0924883" lon="9.78551"><ele>321.0</ele><time>2026-04-23T08:13:33.976Z</time></trkpt><trkpt lat="44.0925583" lon="9.7855383"><ele>321.0</ele><time>2026-04-23T08:13:34.976Z</time></trkpt><trkpt lat="44.0926283" lon="9.78555"><ele>321.0</ele><time>2026-04-23T08:13:35.975Z</time></trkpt><trkpt lat="44.0927067" lon="9.7855783"><ele>321.0</ele><time>2026-04-23T08:13:36.975Z</time></trkpt><trkpt lat="44.0927883" lon="9.7856067"><ele>322.1666666666667</ele><time>2026-04-23T08:13:37.975Z</time></trkpt><trkpt lat="44.092865" lon="9.7856433"><ele>323.3333333333333</ele><time>2026-04-23T08:13:38.975Z</time></trkpt><trkpt lat="44.0929383" lon="9.7856783"><ele>324.5</ele><time>2026-04-23T08:13:39.975Z</time></trkpt><trkpt lat="44.093015" lon="9.7857167"><ele>325.66666666666663</ele><time>2026-04-23T08:13:40.975Z</time></trkpt><trkpt lat="44.0930933" lon="9.785755"><ele>326.8333333333333</ele><time>2026-04-23T08:13:41.976Z</time></trkpt><trkpt lat="44.09317" lon="9.785785"><ele>328.0</ele><time>2026-04-23T08:13:42.975Z</time></trkpt><trkpt lat="44.0932467" lon="9.78582"><ele>328.0</ele><time>2026-04-23T08:13:43.975Z</time></trkpt><trkpt lat="44.09332" lon="9.7858517"><ele>328.0</ele><time>2026-04-23T08:13:44.975Z</time></trkpt><trkpt lat="44.0934" lon="9.7858967"><ele>328.0</ele><time>2026-04-23T08:13:45.976Z</time></trkpt><trkpt lat="44.0934667" lon="9.7859383"><ele>328.0</ele><time>2026-04-23T08:13:46.975Z</time></trkpt><trkpt lat="44.093575" lon="9.786015"><ele>328.0</ele><time>2026-04-23T08:13:48.975Z</time></trkpt><trkpt lat="44.0936283" lon="9.786085"><ele>328.0</ele><time>2026-04-23T08:13:49.975Z</time></trkpt><trkpt lat="44.093685" lon="9.78616"><ele>328.0</ele><time>2026-04-23T08:13:50.975Z</time></trkpt><trkpt lat="44.0937383" lon="9.786235"><ele>328.0</ele><time>2026-04-23T08:13:51.976Z</time></trkpt><trkpt lat="44.0937967" lon="9.78631"><ele>328.0</ele><time>2026-04-23T08:13:52.975Z</time></trkpt><trkpt lat="44.0938517" lon="9.78638"><ele>328.0</ele><time>2026-04-23T08:13:53.975Z</time></trkpt><trkpt lat="44.0939033" lon="9.7864567"><ele>328.0</ele><time>2026-04-23T08:13:54.975Z</time></trkpt><trkpt lat="44.0939567" lon="9.7865317"><ele>328.0</ele><time>2026-04-23T08:13:55.976Z</time></trkpt><trkpt lat="44.0940183" lon="9.786615"><ele>328.0</ele><time>2026-04-23T08:13:56.975Z</time></trkpt><trkpt lat="44.0940867" lon="9.7866917"><ele>328.0</ele><time>2026-04-23T08:13:57.975Z</time></trkpt><trkpt lat="44.0941617" lon="9.786755"><ele>328.0</ele><time>2026-04-23T08:13:58.976Z</time></trkpt><trkpt lat="44.0942317" lon="9.7868283"><ele>328.0</ele><time>2026-04-23T08:13:59.975Z</time></trkpt><trkpt lat="44.0943117" lon="9.7868733"><ele>328.0</ele><time>2026-04-23T08:14:00.976Z</time></trkpt><trkpt lat="44.0943933" lon="9.7869183"><ele>328.0</ele><time>2026-04-23T08:14:01.975Z</time></trkpt><trkpt lat="44.0944783" lon="9.7869633"><ele>328.16666666666663</ele><time>2026-04-23T08:14:02.975Z</time></trkpt><trkpt lat="44.0945617" lon="9.7870067"><ele>328.3333333333333</ele><time>2026-04-23T08:14:03.976Z</time></trkpt><trkpt lat="44.094645" lon="9.7870383"><ele>328.5</ele><time>2026-04-23T08:14:04.975Z</time></trkpt><trkpt lat="44.0947283" lon="9.7870733"><ele>328.6666666666667</ele><time>2026-04-23T08:14:05.975Z</time></trkpt><trkpt lat="44.09481" lon="9.7871"><ele>328.83333333333337</ele><time>2026-04-23T08:14:06.975Z</time></trkpt><trkpt lat="44.0948967" lon="9.787135"><ele>329.0</ele><time>2026-04-23T08:14:07.975Z</time></trkpt><trkpt lat="44.094975" lon="9.7871717"><ele>326.33333333333337</ele><time>2026-04-23T08:14:08.975Z</time></trkpt><trkpt lat="44.095055" lon="9.787195"><ele>323.6666666666667</ele><time>2026-04-23T08:14:09.975Z</time></trkpt><trkpt lat="44.095135" lon="9.78723"><ele>321.0</ele><time>2026-04-23T08:14:10.975Z</time></trkpt><trkpt lat="44.0952133" lon="9.7872683"><ele>318.3333333333333</ele><time>2026-04-23T08:14:11.975Z</time></trkpt><trkpt lat="44.095295" lon="9.7873"><ele>315.66666666666663</ele><time>2026-04-23T08:14:12.975Z</time></trkpt><trkpt lat="44.0953833" lon="9.7873333"><ele>313.0</ele><time>2026-04-23T08:14:13.975Z</time></trkpt><trkpt lat="44.0954733" lon="9.7873683"><ele>313.0</ele><time>2026-04-23T08:14:14.976Z</time></trkpt><trkpt lat="44.0955617" lon="9.7873933"><ele>313.0</ele><time>2026-04-23T08:14:15.975Z</time></trkpt><trkpt lat="44.0956667" lon="9.787435"><ele>313.0</ele><time>2026-04-23T08:14:16.975Z</time></trkpt><trkpt lat="44.0957683" lon="9.7874767"><ele>313.0</ele><time>2026-04-23T08:14:17.976Z</time></trkpt><trkpt lat="44.095865" lon="9.7875283"><ele>313.0</ele><time>2026-04-23T08:14:18.976Z</time></trkpt><trkpt lat="44.0959617" lon="9.7876117"><ele>315.4</ele><time>2026-04-23T08:14:19.975Z</time></trkpt><trkpt lat="44.09605" lon="9.7876633"><ele>317.8</ele><time>2026-04-23T08:14:20.975Z</time></trkpt><trkpt lat="44.09614" lon="9.7877233"><ele>320.2</ele><time>2026-04-23T08:14:21.975Z</time></trkpt><trkpt lat="44.0962283" lon="9.7877967"><ele>322.6</ele><time>2026-04-23T08:14:22.975Z</time></trkpt><trkpt lat="44.0963117" lon="9.787855"><ele>325.0</ele><time>2026-04-23T08:14:23.975Z</time></trkpt><trkpt lat="44.0964017" lon="9.78791"><ele>325.0</ele><time>2026-04-23T08:14:24.975Z</time></trkpt><trkpt lat="44.0964917" lon="9.7879717"><ele>325.0</ele><time>2026-04-23T08:14:25.975Z</time></trkpt><trkpt lat="44.0965733" lon="9.7880317"><ele>325.0</ele><time>2026-04-23T08:14:26.975Z</time></trkpt><trkpt lat="44.0966667" lon="9.7880783"><ele>325.0</ele><time>2026-04-23T08:14:27.975Z</time></trkpt><trkpt lat="44.0967533" lon="9.7881533"><ele>325.0</ele><time>2026-04-23T08:14:28.975Z</time></trkpt><trkpt lat="44.0968367" lon="9.788245"><ele>320.8</ele><time>2026-04-23T08:14:29.975Z</time></trkpt><trkpt lat="44.0969117" lon="9.7883517"><ele>316.6</ele><time>2026-04-23T08:14:30.975Z</time></trkpt><trkpt lat="44.09698" lon="9.7884633"><ele>312.4</ele><time>2026-04-23T08:14:31.975Z</time></trkpt><trkpt lat="44.0970383" lon="9.7885833"><ele>308.2</ele><time>2026-04-23T08:14:32.975Z</time></trkpt><trkpt lat="44.0970967" lon="9.788715"><ele>304.0</ele><time>2026-04-23T08:14:33.976Z</time></trkpt><trkpt lat="44.0971483" lon="9.788855"><ele>304.0</ele><time>2026-04-23T08:14:34.975Z</time></trkpt><trkpt lat="44.0971933" lon="9.7889917"><ele>304.0</ele><time>2026-04-23T08:14:35.975Z</time></trkpt><trkpt lat="44.0972317" lon="9.789135"><ele>304.0</ele><time>2026-04-23T08:14:36.975Z</time></trkpt><trkpt lat="44.0972633" lon="9.78928"><ele>304.0</ele><time>2026-04-23T08:14:37.975Z</time></trkpt><trkpt lat="44.0972917" lon="9.78943"><ele>304.0</ele><time>2026-04-23T08:14:38.975Z</time></trkpt><trkpt lat="44.0973067" lon="9.7895883"><ele>305.0</ele><time>2026-04-23T08:14:39.975Z</time></trkpt><trkpt lat="44.097315" lon="9.78974"><ele>306.0</ele><time>2026-04-23T08:14:40.975Z</time></trkpt><trkpt lat="44.0973183" lon="9.7898933"><ele>307.0</ele><time>2026-04-23T08:14:41.976Z</time></trkpt><trkpt lat="44.0973133" lon="9.7900467"><ele>308.0</ele><time>2026-04-23T08:14:42.975Z</time></trkpt><trkpt lat="44.0973033" lon="9.790195"><ele>309.0</ele><time>2026-04-23T08:14:43.976Z</time></trkpt><trkpt lat="44.0973033" lon="9.7903417"><ele>309.0</ele><time>2026-04-23T08:14:44.976Z</time></trkpt><trkpt lat="44.0973" lon="9.7904933"><ele>309.0</ele><time>2026-04-23T08:14:45.975Z</time></trkpt><trkpt lat="44.0973067" lon="9.7906383"><ele>309.0</ele><time>2026-04-23T08:14:46.975Z</time></trkpt><trkpt lat="44.0973133" lon="9.79079"><ele>309.0</ele><time>2026-04-23T08:14:47.975Z</time></trkpt><trkpt lat="44.0973067" lon="9.7909483"><ele>309.0</ele><time>2026-04-23T08:14:48.975Z</time></trkpt><trkpt lat="44.0972983" lon="9.7911"><ele>307.0</ele><time>2026-04-23T08:14:49.975Z</time></trkpt><trkpt lat="44.0972833" lon="9.7912567"><ele>305.0</ele><time>2026-04-23T08:14:50.975Z</time></trkpt><trkpt lat="44.0972683" lon="9.7914083"><ele>303.0</ele><time>2026-04-23T08:14:51.975Z</time></trkpt><trkpt lat="44.09726" lon="9.7915533"><ele>301.0</ele><time>2026-04-23T08:14:52.975Z</time></trkpt><trkpt lat="44.0972583" lon="9.791705"><ele>299.0</ele><time>2026-04-23T08:14:53.975Z</time></trkpt><trkpt lat="44.0972517" lon="9.7918533"><ele>298.0</ele><time>2026-04-23T08:14:54.975Z</time></trkpt><trkpt lat="44.09725" lon="9.7920033"><ele>297.0</ele><time>2026-04-23T08:14:55.975Z</time></trkpt><trkpt lat="44.09725" lon="9.792165"><ele>296.0</ele><time>2026-04-23T08:14:56.975Z</time></trkpt><trkpt lat="44.0972533" lon="9.7923233"><ele>295.0</ele><time>2026-04-23T08:14:57.976Z</time></trkpt><trkpt lat="44.0972517" lon="9.7924767"><ele>294.0</ele><time>2026-04-23T08:14:58.975Z</time></trkpt><trkpt lat="44.09725" lon="9.7926333"><ele>294.4</ele><time>2026-04-23T08:14:59.975Z</time></trkpt><trkpt lat="44.0972533" lon="9.792785"><ele>294.79999999999995</ele><time>2026-04-23T08:15:00.975Z</time></trkpt><trkpt lat="44.0972617" lon="9.792935"><ele>295.20000000000005</ele><time>2026-04-23T08:15:01.975Z</time></trkpt><trkpt lat="44.097265" lon="9.7930867"><ele>295.6</ele><time>2026-04-23T08:15:02.976Z</time></trkpt><trkpt lat="44.0972717" lon="9.79322"><ele>296.0</ele><time>2026-04-23T08:15:03.975Z</time></trkpt><trkpt lat="44.0972817" lon="9.7933683"><ele>296.5</ele><time>2026-04-23T08:15:04.975Z</time></trkpt><trkpt lat="44.0973017" lon="9.79351"><ele>297.0</ele><time>2026-04-23T08:15:05.975Z</time></trkpt><trkpt lat="44.09732" lon="9.79367"><ele>297.5</ele><time>2026-04-23T08:15:06.975Z</time></trkpt><trkpt lat="44.0973367" lon="9.7938333"><ele>298.0</ele><time>2026-04-23T08:15:07.975Z</time></trkpt><trkpt lat="44.0973633" lon="9.794"><ele>298.0</ele><time>2026-04-23T08:15:08.975Z</time></trkpt><trkpt lat="44.09739" lon="9.7941583"><ele>298.0</ele><time>2026-04-23T08:15:09.975Z</time></trkpt><trkpt lat="44.0974167" lon="9.794315"><ele>298.0</ele><time>2026-04-23T08:15:10.976Z</time></trkpt><trkpt lat="44.09745" lon="9.7944783"><ele>298.0</ele><time>2026-04-23T08:15:11.975Z</time></trkpt><trkpt lat="44.0974817" lon="9.7946617"><ele>287.0</ele><time>2026-04-23T08:15:12.975Z</time></trkpt><trkpt lat="44.0975" lon="9.7948333"><ele>276.0</ele><time>2026-04-23T08:15:13.976Z</time></trkpt><trkpt lat="44.0975233" lon="9.7950117"><ele>265.0</ele><time>2026-04-23T08:15:14.976Z</time></trkpt><trkpt lat="44.0975483" lon="9.795185"><ele>254.0</ele><time>2026-04-23T08:15:15.975Z</time></trkpt><trkpt lat="44.0975717" lon="9.795355"><ele>254.0</ele><time>2026-04-23T08:15:16.975Z</time></trkpt><trkpt lat="44.0976" lon="9.7955133"><ele>254.0</ele><time>2026-04-23T08:15:17.975Z</time></trkpt><trkpt lat="44.0976333" lon="9.79567"><ele>254.0</ele><time>2026-04-23T08:15:18.975Z</time></trkpt><trkpt lat="44.0976633" lon="9.7958367"><ele>254.0</ele><time>2026-04-23T08:15:19.975Z</time></trkpt><trkpt lat="44.0977033" lon="9.7960033"><ele>256.0</ele><time>2026-04-23T08:15:20.975Z</time></trkpt><trkpt lat="44.09777" lon="9.79615"><ele>258.0</ele><time>2026-04-23T08:15:21.976Z</time></trkpt><trkpt lat="44.0978033" lon="9.7962983"><ele>260.0</ele><time>2026-04-23T08:15:22.975Z</time></trkpt><trkpt lat="44.09786" lon="9.796445"><ele>262.0</ele><time>2026-04-23T08:15:23.975Z</time></trkpt><trkpt lat="44.097905" lon="9.7965967"><ele>262.0</ele><time>2026-04-23T08:15:24.975Z</time></trkpt><trkpt lat="44.0979467" lon="9.7967467"><ele>262.0</ele><time>2026-04-23T08:15:25.976Z</time></trkpt><trkpt lat="44.098" lon="9.79689"><ele>262.0</ele><time>2026-04-23T08:15:26.975Z</time></trkpt><trkpt lat="44.0980417" lon="9.797045"><ele>262.0</ele><time>2026-04-23T08:15:27.975Z</time></trkpt><trkpt lat="44.0980817" lon="9.79721"><ele>261.5</ele><time>2026-04-23T08:15:28.976Z</time></trkpt><trkpt lat="44.0981033" lon="9.79738"><ele>261.0</ele><time>2026-04-23T08:15:29.975Z</time></trkpt><trkpt lat="44.098105" lon="9.7975517"><ele>260.5</ele><time>2026-04-23T08:15:30.975Z</time></trkpt><trkpt lat="44.0981083" lon="9.7977217"><ele>260.0</ele><time>2026-04-23T08:15:31.975Z</time></trkpt><trkpt lat="44.0980983" lon="9.7979017"><ele>255.25</ele><time>2026-04-23T08:15:32.976Z</time></trkpt><trkpt lat="44.0980767" lon="9.7980717"><ele>250.5</ele><time>2026-04-23T08:15:33.975Z</time></trkpt><trkpt lat="44.0980217" lon="9.79824"><ele>245.75</ele><time>2026-04-23T08:15:34.976Z</time></trkpt><trkpt lat="44.0979617" lon="9.79838"><ele>241.0</ele><time>2026-04-23T08:15:35.975Z</time></trkpt><trkpt lat="44.097915" lon="9.79851"><ele>233.0</ele><time>2026-04-23T08:15:36.975Z</time></trkpt><trkpt lat="44.0978283" lon="9.7986183"><ele>225.0</ele><time>2026-04-23T08:15:37.976Z</time></trkpt><trkpt lat="44.0977233" lon="9.7987133"><ele>217.0</ele><time>2026-04-23T08:15:38.975Z</time></trkpt><trkpt lat="44.0975967" lon="9.7987933"><ele>209.0</ele><time>2026-04-23T08:15:39.975Z</time></trkpt><trkpt lat="44.0974667" lon="9.7988333"><ele>211.0</ele><time>2026-04-23T08:15:40.976Z</time></trkpt><trkpt lat="44.09734" lon="9.7988733"><ele>213.0</ele><time>2026-04-23T08:15:41.975Z</time></trkpt><trkpt lat="44.0972" lon="9.7988933"><ele>215.0</ele><time>2026-04-23T08:15:42.975Z</time></trkpt><trkpt lat="44.097065" lon="9.7989083"><ele>217.0</ele><time>2026-04-23T08:15:43.975Z</time></trkpt><trkpt lat="44.0969267" lon="9.79892"><ele>217.0</ele><time>2026-04-23T08:15:44.975Z</time></trkpt><trkpt lat="44.0968" lon="9.7989333"><ele>217.0</ele><time>2026-04-23T08:15:45.975Z</time></trkpt><trkpt lat="44.09668" lon="9.79894"><ele>217.0</ele><time>2026-04-23T08:15:46.975Z</time></trkpt><trkpt lat="44.09656" lon="9.7989383"><ele>217.0</ele><time>2026-04-23T08:15:47.975Z</time></trkpt><trkpt lat="44.096445" lon="9.7989417"><ele>219.25</ele><time>2026-04-23T08:15:48.975Z</time></trkpt><trkpt lat="44.0963367" lon="9.7989617"><ele>221.5</ele><time>2026-04-23T08:15:49.975Z</time></trkpt><trkpt lat="44.0962233" lon="9.799015"><ele>223.75</ele><time>2026-04-23T08:15:50.975Z</time></trkpt><trkpt lat="44.0961167" lon="9.7990933"><ele>226.0</ele><time>2026-04-23T08:15:51.976Z</time></trkpt><trkpt lat="44.0960183" lon="9.799215"><ele>223.0</ele><time>2026-04-23T08:15:52.975Z</time></trkpt><trkpt lat="44.0959233" lon="9.7993483"><ele>220.0</ele><time>2026-04-23T08:15:53.975Z</time></trkpt><trkpt lat="44.0958417" lon="9.799495"><ele>217.0</ele><time>2026-04-23T08:15:54.975Z</time></trkpt><trkpt lat="44.0957667" lon="9.7996517"><ele>214.0</ele><time>2026-04-23T08:15:55.976Z</time></trkpt><trkpt lat="44.0957133" lon="9.7998183"><ele>226.25</ele><time>2026-04-23T08:15:56.975Z</time></trkpt><trkpt lat="44.09568" lon="9.7999817"><ele>238.5</ele><time>2026-04-23T08:15:57.975Z</time></trkpt><trkpt lat="44.0956633" lon="9.8001417"><ele>250.75</ele><time>2026-04-23T08:15:58.975Z</time></trkpt><trkpt lat="44.09565" lon="9.8003"><ele>263.0</ele><time>2026-04-23T08:15:59.976Z</time></trkpt><trkpt lat="44.0956567" lon="9.800455"><ele>263.0</ele><time>2026-04-23T08:16:00.975Z</time></trkpt><trkpt lat="44.0956867" lon="9.8006267"><ele>263.0</ele><time>2026-04-23T08:16:01.975Z</time></trkpt><trkpt lat="44.0957133" lon="9.8007983"><ele>263.0</ele><time>2026-04-23T08:16:02.975Z</time></trkpt><trkpt lat="44.0957433" lon="9.8009717"><ele>263.0</ele><time>2026-04-23T08:16:03.975Z</time></trkpt><trkpt lat="44.09577" lon="9.8011517"><ele>250.5</ele><time>2026-04-23T08:16:04.975Z</time></trkpt><trkpt lat="44.0957917" lon="9.8013183"><ele>238.0</ele><time>2026-04-23T08:16:05.975Z</time></trkpt><trkpt lat="44.09582" lon="9.8014917"><ele>225.5</ele><time>2026-04-23T08:16:06.975Z</time></trkpt><trkpt lat="44.0958483" lon="9.8016583"><ele>213.0</ele><time>2026-04-23T08:16:07.975Z</time></trkpt><trkpt lat="44.0958733" lon="9.80181"><ele>213.25</ele><time>2026-04-23T08:16:08.975Z</time></trkpt><trkpt lat="44.095895" lon="9.8019617"><ele>213.5</ele><time>2026-04-23T08:16:09.975Z</time></trkpt><trkpt lat="44.0959133" lon="9.8021183"><ele>213.75</ele><time>2026-04-23T08:16:10.976Z</time></trkpt><trkpt lat="44.0959267" lon="9.8022767"><ele>214.0</ele><time>2026-04-23T08:16:11.975Z</time></trkpt><trkpt lat="44.0959233" lon="9.8024383"><ele>214.0</ele><time>2026-04-23T08:16:12.975Z</time></trkpt><trkpt lat="44.09591" lon="9.8025867"><ele>214.0</ele><time>2026-04-23T08:16:13.975Z</time></trkpt><trkpt lat="44.0958733" lon="9.80274"><ele>214.0</ele><time>2026-04-23T08:16:14.975Z</time></trkpt><trkpt lat="44.095825" lon="9.8028917"><ele>214.0</ele><time>2026-04-23T08:16:15.976Z</time></trkpt><trkpt lat="44.0957633" lon="9.803025"><ele>213.2</ele><time>2026-04-23T08:16:16.975Z</time></trkpt><trkpt lat="44.0956983" lon="9.8031583"><ele>212.39999999999998</ele><time>2026-04-23T08:16:17.975Z</time></trkpt><trkpt lat="44.095625" lon="9.80327"><ele>211.6</ele><time>2026-04-23T08:16:18.975Z</time></trkpt><trkpt lat="44.09554" lon="9.803365"><ele>210.8</ele><time>2026-04-23T08:16:19.975Z</time></trkpt><trkpt lat="44.0954617" lon="9.80346"><ele>210.0</ele><time>2026-04-23T08:16:20.975Z</time></trkpt><trkpt lat="44.0953767" lon="9.8035283"><ele>206.2</ele><time>2026-04-23T08:16:21.975Z</time></trkpt><trkpt lat="44.0952733" lon="9.8035983"><ele>202.4</ele><time>2026-04-23T08:16:22.975Z</time></trkpt><trkpt lat="44.0951733" lon="9.80365"><ele>198.60000000000002</ele><time>2026-04-23T08:16:23.975Z</time></trkpt><trkpt lat="44.0950683" lon="9.8036933"><ele>194.8</ele><time>2026-04-23T08:16:24.976Z</time></trkpt><trkpt lat="44.094965" lon="9.8037067"><ele>191.0</ele><time>2026-04-23T08:16:25.975Z</time></trkpt><trkpt lat="44.0948567" lon="9.8037117"><ele>191.0</ele><time>2026-04-23T08:16:26.976Z</time></trkpt><trkpt lat="44.0947483" lon="9.8037183"><ele>191.0</ele><time>2026-04-23T08:16:27.976Z</time></trkpt><trkpt lat="44.09465" lon="9.8037117"><ele>191.0</ele><time>2026-04-23T08:16:28.975Z</time></trkpt><trkpt lat="44.094555" lon="9.8037"><ele>191.0</ele><time>2026-04-23T08:16:29.975Z</time></trkpt><trkpt lat="44.0944617" lon="9.803695"><ele>191.0</ele><time>2026-04-23T08:16:30.975Z</time></trkpt><trkpt lat="44.0943683" lon="9.8036967"><ele>191.0</ele><time>2026-04-23T08:16:31.976Z</time></trkpt><trkpt lat="44.0942733" lon="9.80369"><ele>191.0</ele><time>2026-04-23T08:16:32.975Z</time></trkpt><trkpt lat="44.0941817" lon="9.8036833"><ele>191.0</ele><time>2026-04-23T08:16:33.975Z</time></trkpt><trkpt lat="44.094085" lon="9.8036733"><ele>191.0</ele><time>2026-04-23T08:16:34.976Z</time></trkpt><trkpt lat="44.0940017" lon="9.8036583"><ele>191.0</ele><time>2026-04-23T08:16:35.976Z</time></trkpt><trkpt lat="44.09391" lon="9.8036567"><ele>189.83333333333331</ele><time>2026-04-23T08:16:36.975Z</time></trkpt><trkpt lat="44.0938233" lon="9.8036517"><ele>188.66666666666666</ele><time>2026-04-23T08:16:37.975Z</time></trkpt><trkpt lat="44.093735" lon="9.80365"><ele>187.5</ele><time>2026-04-23T08:16:38.974Z</time></trkpt><trkpt lat="44.0936433" lon="9.8036417"><ele>186.33333333333334</ele><time>2026-04-23T08:16:39.975Z</time></trkpt><trkpt lat="44.0935617" lon="9.8036333"><ele>185.16666666666669</ele><time>2026-04-23T08:16:40.974Z</time></trkpt><trkpt lat="44.093475" lon="9.80362"><ele>184.0</ele><time>2026-04-23T08:16:41.974Z</time></trkpt><trkpt lat="44.093385" lon="9.8036033"><ele>184.0</ele><time>2026-04-23T08:16:42.974Z</time></trkpt><trkpt lat="44.0932967" lon="9.80359"><ele>184.0</ele><time>2026-04-23T08:16:43.975Z</time></trkpt><trkpt lat="44.093205" lon="9.8035767"><ele>184.0</ele><time>2026-04-23T08:16:44.974Z</time></trkpt><trkpt lat="44.0931133" lon="9.8035717"><ele>184.0</ele><time>2026-04-23T08:16:45.974Z</time></trkpt><trkpt lat="44.0930167" lon="9.8035667"><ele>184.0</ele><time>2026-04-23T08:16:46.975Z</time></trkpt><trkpt lat="44.092925" lon="9.8035517"><ele>182.0</ele><time>2026-04-23T08:16:47.974Z</time></trkpt><trkpt lat="44.092825" lon="9.80355"><ele>180.0</ele><time>2026-04-23T08:16:48.974Z</time></trkpt><trkpt lat="44.0927183" lon="9.8035517"><ele>178.0</ele><time>2026-04-23T08:16:49.974Z</time></trkpt><trkpt lat="44.0926133" lon="9.80355"><ele>176.0</ele><time>2026-04-23T08:16:50.974Z</time></trkpt><trkpt lat="44.09251" lon="9.8035383"><ele>174.0</ele><time>2026-04-23T08:16:51.974Z</time></trkpt><trkpt lat="44.09241" lon="9.8035183"><ele>172.2</ele><time>2026-04-23T08:16:52.974Z</time></trkpt><trkpt lat="44.092305" lon="9.8035033"><ele>170.39999999999998</ele><time>2026-04-23T08:16:53.974Z</time></trkpt><trkpt lat="44.0921983" lon="9.803485"><ele>168.6</ele><time>2026-04-23T08:16:54.974Z</time></trkpt><trkpt lat="44.0921033" lon="9.8034717"><ele>166.8</ele><time>2026-04-23T08:16:55.974Z</time></trkpt><trkpt lat="44.091995" lon="9.803465"><ele>165.0</ele><time>2026-04-23T08:16:56.974Z</time></trkpt><trkpt lat="44.0918817" lon="9.8034617"><ele>166.0</ele><time>2026-04-23T08:16:57.975Z</time></trkpt><trkpt lat="44.0917567" lon="9.8034617"><ele>167.0</ele><time>2026-04-23T08:16:58.974Z</time></trkpt><trkpt lat="44.0916417" lon="9.8034467"><ele>168.0</ele><time>2026-04-23T08:16:59.974Z</time></trkpt><trkpt lat="44.0915333" lon="9.8034133"><ele>169.0</ele><time>2026-04-23T08:17:00.975Z</time></trkpt><trkpt lat="44.0914283" lon="9.8033633"><ele>169.0</ele><time>2026-04-23T08:17:01.974Z</time></trkpt><trkpt lat="44.0913167" lon="9.803305"><ele>169.0</ele><time>2026-04-23T08:17:02.974Z</time></trkpt><trkpt lat="44.091205" lon="9.8032283"><ele>169.0</ele><time>2026-04-23T08:17:03.974Z</time></trkpt><trkpt lat="44.091115" lon="9.8031317"><ele>169.0</ele><time>2026-04-23T08:17:04.974Z</time></trkpt><trkpt lat="44.0910417" lon="9.8030083"><ele>169.0</ele><time>2026-04-23T08:17:05.974Z</time></trkpt><trkpt lat="44.0909633" lon="9.8028933"><ele>169.0</ele><time>2026-04-23T08:17:06.974Z</time></trkpt><trkpt lat="44.0908783" lon="9.8027883"><ele>169.0</ele><time>2026-04-23T08:17:07.974Z</time></trkpt><trkpt lat="44.0907883" lon="9.8026883"><ele>169.0</ele><time>2026-04-23T08:17:08.974Z</time></trkpt><trkpt lat="44.0907083" lon="9.8025783"><ele>169.75</ele><time>2026-04-23T08:17:09.974Z</time></trkpt><trkpt lat="44.090625" lon="9.8024717"><ele>170.5</ele><time>2026-04-23T08:17:10.974Z</time></trkpt><trkpt lat="44.0905333" lon="9.80236"><ele>171.25</ele><time>2026-04-23T08:17:11.975Z</time></trkpt><trkpt lat="44.0904383" lon="9.80228"><ele>172.0</ele><time>2026-04-23T08:17:12.974Z</time></trkpt><trkpt lat="44.0903383" lon="9.802185"><ele>172.0</ele><time>2026-04-23T08:17:13.975Z</time></trkpt><trkpt lat="44.0902367" lon="9.8020783"><ele>172.0</ele><time>2026-04-23T08:17:14.974Z</time></trkpt><trkpt lat="44.09013" lon="9.8019833"><ele>172.0</ele><time>2026-04-23T08:17:15.974Z</time></trkpt><trkpt lat="44.0900283" lon="9.8019117"><ele>172.0</ele><time>2026-04-23T08:17:16.974Z</time></trkpt><trkpt lat="44.08992" lon="9.8018733"><ele>173.25</ele><time>2026-04-23T08:17:17.975Z</time></trkpt><trkpt lat="44.0897967" lon="9.8018717"><ele>174.5</ele><time>2026-04-23T08:17:18.975Z</time></trkpt><trkpt lat="44.0896667" lon="9.801895"><ele>175.75</ele><time>2026-04-23T08:17:19.974Z</time></trkpt><trkpt lat="44.0895483" lon="9.801925"><ele>177.0</ele><time>2026-04-23T08:17:20.974Z</time></trkpt><trkpt lat="44.0894417" lon="9.8019567"><ele>177.0</ele><time>2026-04-23T08:17:21.975Z</time></trkpt><trkpt lat="44.08934" lon="9.802025"><ele>177.0</ele><time>2026-04-23T08:17:22.974Z</time></trkpt><trkpt lat="44.0892667" lon="9.8021483"><ele>177.0</ele><time>2026-04-23T08:17:23.974Z</time></trkpt><trkpt lat="44.0892083" lon="9.802285"><ele>177.0</ele><time>2026-04-23T08:17:24.975Z</time></trkpt><trkpt lat="44.089165" lon="9.802425"><ele>177.0</ele><time>2026-04-23T08:17:25.974Z</time></trkpt><trkpt lat="44.0891183" lon="9.8025817"><ele>177.0</ele><time>2026-04-23T08:17:26.974Z</time></trkpt><trkpt lat="44.0890833" lon="9.8027383"><ele>177.0</ele><time>2026-04-23T08:17:27.974Z</time></trkpt><trkpt lat="44.08907" lon="9.8029117"><ele>177.0</ele><time>2026-04-23T08:17:28.974Z</time></trkpt><trkpt lat="44.08906" lon="9.803075"><ele>178.25</ele><time>2026-04-23T08:17:29.974Z</time></trkpt><trkpt lat="44.0890733" lon="9.8032233"><ele>179.5</ele><time>2026-04-23T08:17:30.975Z</time></trkpt><trkpt lat="44.0891417" lon="9.8033783"><ele>180.75</ele><time>2026-04-23T08:17:31.975Z</time></trkpt><trkpt lat="44.0892" lon="9.8035167"><ele>182.0</ele><time>2026-04-23T08:17:32.974Z</time></trkpt><trkpt lat="44.0892783" lon="9.8036317"><ele>184.0</ele><time>2026-04-23T08:17:33.974Z</time></trkpt><trkpt lat="44.08939" lon="9.80374"><ele>186.0</ele><time>2026-04-23T08:17:34.974Z</time></trkpt><trkpt lat="44.08947" lon="9.8038433"><ele>188.0</ele><time>2026-04-23T08:17:35.974Z</time></trkpt><trkpt lat="44.08955" lon="9.8039617"><ele>190.0</ele><time>2026-04-23T08:17:36.974Z</time></trkpt><trkpt lat="44.0896333" lon="9.8040733"><ele>190.0</ele><time>2026-04-23T08:17:37.975Z</time></trkpt><trkpt lat="44.08971" lon="9.8041817"><ele>190.0</ele><time>2026-04-23T08:17:38.975Z</time></trkpt><trkpt lat="44.089785" lon="9.8043117"><ele>190.0</ele><time>2026-04-23T08:17:39.974Z</time></trkpt><trkpt lat="44.08984" lon="9.8044517"><ele>190.0</ele><time>2026-04-23T08:17:40.974Z</time></trkpt><trkpt lat="44.08987" lon="9.8046033"><ele>191.0</ele><time>2026-04-23T08:17:41.974Z</time></trkpt><trkpt lat="44.089895" lon="9.8047683"><ele>192.0</ele><time>2026-04-23T08:17:42.974Z</time></trkpt><trkpt lat="44.0899067" lon="9.80494"><ele>193.0</ele><time>2026-04-23T08:17:43.974Z</time></trkpt><trkpt lat="44.0899067" lon="9.8050967"><ele>194.0</ele><time>2026-04-23T08:17:44.974Z</time></trkpt><trkpt lat="44.0899067" lon="9.8052533"><ele>194.0</ele><time>2026-04-23T08:17:45.974Z</time></trkpt><trkpt lat="44.08989" lon="9.8054133"><ele>194.0</ele><time>2026-04-23T08:17:46.974Z</time></trkpt><trkpt lat="44.0898583" lon="9.8055717"><ele>194.0</ele><time>2026-04-23T08:17:47.974Z</time></trkpt><trkpt lat="44.0898317" lon="9.8057383"><ele>194.0</ele><time>2026-04-23T08:17:48.974Z</time></trkpt><trkpt lat="44.0898133" lon="9.8058967"><ele>192.75</ele><time>2026-04-23T08:17:49.975Z</time></trkpt><trkpt lat="44.0897867" lon="9.8060583"><ele>191.5</ele><time>2026-04-23T08:17:50.974Z</time></trkpt><trkpt lat="44.0897717" lon="9.806225"><ele>190.25</ele><time>2026-04-23T08:17:51.974Z</time></trkpt><trkpt lat="44.0897633" lon="9.8063933"><ele>189.0</ele><time>2026-04-23T08:17:52.974Z</time></trkpt><trkpt lat="44.0897683" lon="9.8065583"><ele>189.0</ele><time>2026-04-23T08:17:53.974Z</time></trkpt><trkpt lat="44.0897733" lon="9.8067233"><ele>189.0</ele><time>2026-04-23T08:17:54.974Z</time></trkpt><trkpt lat="44.0898" lon="9.8068883"><ele>189.0</ele><time>2026-04-23T08:17:55.974Z</time></trkpt><trkpt lat="44.0898183" lon="9.807045"><ele>189.0</ele><time>2026-04-23T08:17:56.974Z</time></trkpt><trkpt lat="44.0898667" lon="9.8071967"><ele>192.0</ele><time>2026-04-23T08:17:57.974Z</time></trkpt><trkpt lat="44.0899183" lon="9.8073417"><ele>195.0</ele><time>2026-04-23T08:17:58.974Z</time></trkpt><trkpt lat="44.090005" lon="9.8074733"><ele>198.0</ele><time>2026-04-23T08:17:59.974Z</time></trkpt><trkpt lat="44.0900917" lon="9.8076017"><ele>201.0</ele><time>2026-04-23T08:18:00.974Z</time></trkpt><trkpt lat="44.0902283" lon="9.8077233"><ele>194.0</ele><time>2026-04-23T08:18:01.975Z</time></trkpt><trkpt lat="44.0903267" lon="9.80784"><ele>187.0</ele><time>2026-04-23T08:18:02.974Z</time></trkpt><trkpt lat="44.0904133" lon="9.8079483"><ele>180.0</ele><time>2026-04-23T08:18:03.975Z</time></trkpt><trkpt lat="44.090505" lon="9.8080633"><ele>173.0</ele><time>2026-04-23T08:18:04.975Z</time></trkpt><trkpt lat="44.0906167" lon="9.808185"><ele>173.0</ele><time>2026-04-23T08:18:05.974Z</time></trkpt><trkpt lat="44.090695" lon="9.8083033"><ele>173.0</ele><time>2026-04-23T08:18:06.974Z</time></trkpt><trkpt lat="44.09077" lon="9.808425"><ele>173.0</ele><time>2026-04-23T08:18:07.974Z</time></trkpt><trkpt lat="44.0908517" lon="9.80855"><ele>173.0</ele><time>2026-04-23T08:18:08.975Z</time></trkpt><trkpt lat="44.0909317" lon="9.80867"><ele>167.75</ele><time>2026-04-23T08:18:09.974Z</time></trkpt><trkpt lat="44.0910233" lon="9.80879"><ele>162.5</ele><time>2026-04-23T08:18:10.974Z</time></trkpt><trkpt lat="44.091125" lon="9.8089"><ele>157.25</ele><time>2026-04-23T08:18:11.975Z</time></trkpt><trkpt lat="44.0912083" lon="9.8090167"><ele>152.0</ele><time>2026-04-23T08:18:12.974Z</time></trkpt><trkpt lat="44.0912983" lon="9.8091633"><ele>152.0</ele><time>2026-04-23T08:18:13.974Z</time></trkpt><trkpt lat="44.0913717" lon="9.8093117"><ele>152.0</ele><time>2026-04-23T08:18:14.975Z</time></trkpt><trkpt lat="44.0914283" lon="9.8094567"><ele>152.0</ele><time>2026-04-23T08:18:15.975Z</time></trkpt><trkpt lat="44.091475" lon="9.80962"><ele>152.0</ele><time>2026-04-23T08:18:16.974Z</time></trkpt><trkpt lat="44.0915" lon="9.8097917"><ele>152.25</ele><time>2026-04-23T08:18:17.975Z</time></trkpt><trkpt lat="44.0914967" lon="9.80996"><ele>152.5</ele><time>2026-04-23T08:18:18.974Z</time></trkpt><trkpt lat="44.0914667" lon="9.8101267"><ele>152.75</ele><time>2026-04-23T08:18:19.974Z</time></trkpt><trkpt lat="44.09144" lon="9.8102933"><ele>153.0</ele><time>2026-04-23T08:18:20.975Z</time></trkpt><trkpt lat="44.091375" lon="9.8104617"><ele>150.0</ele><time>2026-04-23T08:18:21.974Z</time></trkpt><trkpt lat="44.0913133" lon="9.8106117"><ele>147.0</ele><time>2026-04-23T08:18:22.974Z</time></trkpt><trkpt lat="44.0912233" lon="9.81075"><ele>144.0</ele><time>2026-04-23T08:18:23.974Z</time></trkpt><trkpt lat="44.0911467" lon="9.810885"><ele>141.0</ele><time>2026-04-23T08:18:24.974Z</time></trkpt><trkpt lat="44.09104" lon="9.8109733"><ele>136.25</ele><time>2026-04-23T08:18:25.974Z</time></trkpt><trkpt lat="44.0909233" lon="9.8110667"><ele>131.5</ele><time>2026-04-23T08:18:26.975Z</time></trkpt><trkpt lat="44.09081" lon="9.8111133"><ele>126.75</ele><time>2026-04-23T08:18:27.975Z</time></trkpt><trkpt lat="44.0906867" lon="9.8111417"><ele>122.0</ele><time>2026-04-23T08:18:28.975Z</time></trkpt><trkpt lat="44.0905633" lon="9.8111583"><ele>122.0</ele><time>2026-04-23T08:18:29.974Z</time></trkpt><trkpt lat="44.0904567" lon="9.8111717"><ele>122.0</ele><time>2026-04-23T08:18:30.974Z</time></trkpt><trkpt lat="44.0903433" lon="9.8111867"><ele>122.0</ele><time>2026-04-23T08:18:31.974Z</time></trkpt><trkpt lat="44.090225" lon="9.8112067"><ele>122.0</ele><time>2026-04-23T08:18:32.975Z</time></trkpt><trkpt lat="44.0901167" lon="9.8112317"><ele>122.0</ele><time>2026-04-23T08:18:33.974Z</time></trkpt><trkpt lat="44.090005" lon="9.8112617"><ele>122.0</ele><time>2026-04-23T08:18:34.974Z</time></trkpt><trkpt lat="44.0899" lon="9.8112983"><ele>122.0</ele><time>2026-04-23T08:18:35.974Z</time></trkpt><trkpt lat="44.0897933" lon="9.8113483"><ele>122.0</ele><time>2026-04-23T08:18:36.974Z</time></trkpt><trkpt lat="44.089685" lon="9.8114217"><ele>124.0</ele><time>2026-04-23T08:18:37.974Z</time></trkpt><trkpt lat="44.089595" lon="9.8115083"><ele>126.0</ele><time>2026-04-23T08:18:38.974Z</time></trkpt><trkpt lat="44.089495" lon="9.8116"><ele>128.0</ele><time>2026-04-23T08:18:39.975Z</time></trkpt><trkpt lat="44.089405" lon="9.811695"><ele>130.0</ele><time>2026-04-23T08:18:40.974Z</time></trkpt><trkpt lat="44.0893083" lon="9.8117783"><ele>122.25</ele><time>2026-04-23T08:18:41.974Z</time></trkpt><trkpt lat="44.089205" lon="9.8118733"><ele>114.5</ele><time>2026-04-23T08:18:42.974Z</time></trkpt><trkpt lat="44.0891" lon="9.8119533"><ele>106.75</ele><time>2026-04-23T08:18:43.974Z</time></trkpt><trkpt lat="44.08901" lon="9.81204"><ele>99.0</ele><time>2026-04-23T08:18:44.974Z</time></trkpt><trkpt lat="44.0889183" lon="9.8121133"><ele>99.0</ele><time>2026-04-23T08:18:45.974Z</time></trkpt><trkpt lat="44.0888067" lon="9.8121683"><ele>99.0</ele><time>2026-04-23T08:18:46.974Z</time></trkpt><trkpt lat="44.0886833" lon="9.8122133"><ele>99.0</ele><time>2026-04-23T08:18:47.974Z</time></trkpt><trkpt lat="44.0885683" lon="9.8122417"><ele>99.0</ele><time>2026-04-23T08:18:48.974Z</time></trkpt><trkpt lat="44.088445" lon="9.8122567"><ele>99.0</ele><time>2026-04-23T08:18:49.974Z</time></trkpt><trkpt lat="44.088325" lon="9.8122533"><ele>99.0</ele><time>2026-04-23T08:18:50.974Z</time></trkpt><trkpt lat="44.0882033" lon="9.8122433"><ele>99.0</ele><time>2026-04-23T08:18:51.975Z</time></trkpt><trkpt lat="44.088095" lon="9.812215"><ele>99.0</ele><time>2026-04-23T08:18:52.974Z</time></trkpt><trkpt lat="44.08799" lon="9.8121883"><ele>101.25</ele><time>2026-04-23T08:18:53.974Z</time></trkpt><trkpt lat="44.0878717" lon="9.812185"><ele>103.5</ele><time>2026-04-23T08:18:54.974Z</time></trkpt><trkpt lat="44.0877517" lon="9.8121867"><ele>105.75</ele><time>2026-04-23T08:18:55.974Z</time></trkpt><trkpt lat="44.0876267" lon="9.8122033"><ele>108.0</ele><time>2026-04-23T08:18:56.974Z</time></trkpt><trkpt lat="44.0875067" lon="9.8122167"><ele>104.25</ele><time>2026-04-23T08:18:57.974Z</time></trkpt><trkpt lat="44.0873867" lon="9.81224"><ele>100.5</ele><time>2026-04-23T08:18:58.974Z</time></trkpt><trkpt lat="44.0872717" lon="9.8122633"><ele>96.75</ele><time>2026-04-23T08:18:59.974Z</time></trkpt><trkpt lat="44.0871617" lon="9.812275"><ele>93.0</ele><time>2026-04-23T08:19:00.974Z</time></trkpt><trkpt lat="44.0870417" lon="9.8122667"><ele>93.0</ele><time>2026-04-23T08:19:01.974Z</time></trkpt><trkpt lat="44.0869233" lon="9.8122333"><ele>93.0</ele><time>2026-04-23T08:19:02.974Z</time></trkpt><trkpt lat="44.08682" lon="9.812175"><ele>93.0</ele><time>2026-04-23T08:19:03.974Z</time></trkpt><trkpt lat="44.0867217" lon="9.8121117"><ele>93.0</ele><time>2026-04-23T08:19:04.974Z</time></trkpt><trkpt lat="44.08663" lon="9.81201"><ele>96.0</ele><time>2026-04-23T08:19:05.974Z</time></trkpt><trkpt lat="44.0865567" lon="9.8118833"><ele>99.0</ele><time>2026-04-23T08:19:06.974Z</time></trkpt><trkpt lat="44.086485" lon="9.8117533"><ele>102.0</ele><time>2026-04-23T08:19:07.974Z</time></trkpt><trkpt lat="44.086415" lon="9.8116233"><ele>105.0</ele><time>2026-04-23T08:19:08.974Z</time></trkpt><trkpt lat="44.0863483" lon="9.8114917"><ele>105.0</ele><time>2026-04-23T08:19:09.975Z</time></trkpt><trkpt lat="44.0862683" lon="9.8113833"><ele>105.0</ele><time>2026-04-23T08:19:10.974Z</time></trkpt><trkpt lat="44.0861717" lon="9.8112967"><ele>105.0</ele><time>2026-04-23T08:19:11.975Z</time></trkpt><trkpt lat="44.0860733" lon="9.8112417"><ele>105.0</ele><time>2026-04-23T08:19:12.974Z</time></trkpt><trkpt lat="44.0859483" lon="9.8112483"><ele>105.0</ele><time>2026-04-23T08:19:13.975Z</time></trkpt><trkpt lat="44.085835" lon="9.81127"><ele>105.0</ele><time>2026-04-23T08:19:14.974Z</time></trkpt><trkpt lat="44.0857367" lon="9.8113367"><ele>105.0</ele><time>2026-04-23T08:19:15.975Z</time></trkpt><trkpt lat="44.085675" lon="9.811455"><ele>105.0</ele><time>2026-04-23T08:19:16.974Z</time></trkpt><trkpt lat="44.0856383" lon="9.8116017"><ele>105.0</ele><time>2026-04-23T08:19:17.974Z</time></trkpt><trkpt lat="44.0856233" lon="9.8117433"><ele>98.8</ele><time>2026-04-23T08:19:18.974Z</time></trkpt><trkpt lat="44.0856283" lon="9.811915"><ele>92.6</ele><time>2026-04-23T08:19:19.974Z</time></trkpt><trkpt lat="44.08564" lon="9.8120567"><ele>86.4</ele><time>2026-04-23T08:19:20.974Z</time></trkpt><trkpt lat="44.08568" lon="9.8121683"><ele>80.2</ele><time>2026-04-23T08:19:21.975Z</time></trkpt><trkpt lat="44.0857533" lon="9.8122467"><ele>74.0</ele><time>2026-04-23T08:19:22.974Z</time></trkpt><trkpt lat="44.085855" lon="9.8122983"><ele>74.0</ele><time>2026-04-23T08:19:23.974Z</time></trkpt><trkpt lat="44.0859667" lon="9.8123033"><ele>74.0</ele><time>2026-04-23T08:19:24.974Z</time></trkpt><trkpt lat="44.086075" lon="9.8122883"><ele>74.0</ele><time>2026-04-23T08:19:25.974Z</time></trkpt><trkpt lat="44.0861833" lon="9.81229"><ele>74.0</ele><time>2026-04-23T08:19:26.975Z</time></trkpt><trkpt lat="44.0862917" lon="9.8123067"><ele>74.0</ele><time>2026-04-23T08:19:27.974Z</time></trkpt><trkpt lat="44.08638" lon="9.8123617"><ele>74.0</ele><time>2026-04-23T08:19:28.974Z</time></trkpt><trkpt lat="44.086465" lon="9.812435"><ele>74.0</ele><time>2026-04-23T08:19:29.974Z</time></trkpt><trkpt lat="44.0865517" lon="9.812505"><ele>74.0</ele><time>2026-04-23T08:19:30.975Z</time></trkpt><trkpt lat="44.0866367" lon="9.81258"><ele>74.0</ele><time>2026-04-23T08:19:31.974Z</time></trkpt><trkpt lat="44.08672" lon="9.81264"><ele>74.0</ele><time>2026-04-23T08:19:32.974Z</time></trkpt><trkpt lat="44.0868083" lon="9.81269"><ele>71.2</ele><time>2026-04-23T08:19:33.974Z</time></trkpt><trkpt lat="44.0868917" lon="9.812735"><ele>68.4</ele><time>2026-04-23T08:19:34.974Z</time></trkpt><trkpt lat="44.0869883" lon="9.8127617"><ele>65.6</ele><time>2026-04-23T08:19:35.975Z</time></trkpt><trkpt lat="44.0870883" lon="9.81277"><ele>62.8</ele><time>2026-04-23T08:19:36.974Z</time></trkpt><trkpt lat="44.087185" lon="9.812765"><ele>60.0</ele><time>2026-04-23T08:19:37.974Z</time></trkpt><trkpt lat="44.0872817" lon="9.8127583"><ele>60.0</ele><time>2026-04-23T08:19:38.975Z</time></trkpt><trkpt lat="44.0873833" lon="9.812745"><ele>60.0</ele><time>2026-04-23T08:19:39.974Z</time></trkpt><trkpt lat="44.087485" lon="9.8127383"><ele>60.0</ele><time>2026-04-23T08:19:40.974Z</time></trkpt><trkpt lat="44.08759" lon="9.81273"><ele>60.0</ele><time>2026-04-23T08:19:41.975Z</time></trkpt><trkpt lat="44.087695" lon="9.8127067"><ele>60.0</ele><time>2026-04-23T08:19:42.974Z</time></trkpt><trkpt lat="44.087805" lon="9.8126917"><ele>62.25</ele><time>2026-04-23T08:19:43.974Z</time></trkpt><trkpt lat="44.0879217" lon="9.812685"><ele>64.5</ele><time>2026-04-23T08:19:44.974Z</time></trkpt><trkpt lat="44.08804" lon="9.8126833"><ele>66.75</ele><time>2026-04-23T08:19:45.974Z</time></trkpt><trkpt lat="44.08815" lon="9.8126833"><ele>69.0</ele><time>2026-04-23T08:19:46.974Z</time></trkpt><trkpt lat="44.0882583" lon="9.8126817"><ele>64.5</ele><time>2026-04-23T08:19:47.974Z</time></trkpt><trkpt lat="44.0883567" lon="9.8126817"><ele>60.0</ele><time>2026-04-23T08:19:48.975Z</time></trkpt><trkpt lat="44.0884717" lon="9.8126983"><ele>55.5</ele><time>2026-04-23T08:19:49.974Z</time></trkpt><trkpt lat="44.0885933" lon="9.8127333"><ele>51.0</ele><time>2026-04-23T08:19:50.975Z</time></trkpt><trkpt lat="44.0887167" lon="9.81276"><ele>51.0</ele><time>2026-04-23T08:19:51.975Z</time></trkpt><trkpt lat="44.0888317" lon="9.812795"><ele>51.0</ele><time>2026-04-23T08:19:52.974Z</time></trkpt><trkpt lat="44.0889467" lon="9.812835"><ele>51.0</ele><time>2026-04-23T08:19:53.974Z</time></trkpt><trkpt lat="44.089055" lon="9.812875"><ele>51.0</ele><time>2026-04-23T08:19:54.975Z</time></trkpt><trkpt lat="44.0891633" lon="9.8129067"><ele>53.5</ele><time>2026-04-23T08:19:55.974Z</time></trkpt><trkpt lat="44.08928" lon="9.8129167"><ele>56.0</ele><time>2026-04-23T08:19:56.974Z</time></trkpt><trkpt lat="44.08941" lon="9.812905"><ele>58.5</ele><time>2026-04-23T08:19:57.975Z</time></trkpt><trkpt lat="44.0895183" lon="9.8128783"><ele>61.0</ele><time>2026-04-23T08:19:58.975Z</time></trkpt><trkpt lat="44.0896283" lon="9.812835"><ele>61.0</ele><time>2026-04-23T08:19:59.974Z</time></trkpt><trkpt lat="44.0897333" lon="9.812775"><ele>61.0</ele><time>2026-04-23T08:20:00.974Z</time></trkpt><trkpt lat="44.0898383" lon="9.8127"><ele>61.0</ele><time>2026-04-23T08:20:01.975Z</time></trkpt><trkpt lat="44.0899417" lon="9.8126283"><ele>61.0</ele><time>2026-04-23T08:20:02.974Z</time></trkpt><trkpt lat="44.0900533" lon="9.8125483"><ele>67.25</ele><time>2026-04-23T08:20:03.975Z</time></trkpt><trkpt lat="44.0901733" lon="9.81249"><ele>73.5</ele><time>2026-04-23T08:20:04.975Z</time></trkpt><trkpt lat="44.0903033" lon="9.8124617"><ele>79.75</ele><time>2026-04-23T08:20:05.975Z</time></trkpt><trkpt lat="44.090425" lon="9.8124683"><ele>86.0</ele><time>2026-04-23T08:20:06.974Z</time></trkpt><trkpt lat="44.09054" lon="9.8125183"><ele>86.0</ele><time>2026-04-23T08:20:07.974Z</time></trkpt><trkpt lat="44.0906567" lon="9.8126017"><ele>86.0</ele><time>2026-04-23T08:20:08.974Z</time></trkpt><trkpt lat="44.0907517" lon="9.8127117"><ele>86.0</ele><time>2026-04-23T08:20:09.974Z</time></trkpt><trkpt lat="44.09084" lon="9.8128367"><ele>86.0</ele><time>2026-04-23T08:20:10.975Z</time></trkpt><trkpt lat="44.090915" lon="9.8129867"><ele>79.25</ele><time>2026-04-23T08:20:11.975Z</time></trkpt><trkpt lat="44.0909883" lon="9.81314"><ele>72.5</ele><time>2026-04-23T08:20:12.974Z</time></trkpt><trkpt lat="44.0910583" lon="9.8132983"><ele>65.75</ele><time>2026-04-23T08:20:13.974Z</time></trkpt><trkpt lat="44.0911183" lon="9.8134433"><ele>59.0</ele><time>2026-04-23T08:20:14.974Z</time></trkpt><trkpt lat="44.0911817" lon="9.8135817"><ele>54.0</ele><time>2026-04-23T08:20:15.974Z</time></trkpt><trkpt lat="44.09125" lon="9.813715"><ele>49.0</ele><time>2026-04-23T08:20:16.974Z</time></trkpt><trkpt lat="44.091325" lon="9.813845"><ele>44.0</ele><time>2026-04-23T08:20:17.974Z</time></trkpt><trkpt lat="44.0914017" lon="9.813965"><ele>39.0</ele><time>2026-04-23T08:20:18.974Z</time></trkpt><trkpt lat="44.0914883" lon="9.8140917"><ele>39.0</ele><time>2026-04-23T08:20:19.974Z</time></trkpt><trkpt lat="44.0915683" lon="9.8142167"><ele>39.0</ele><time>2026-04-23T08:20:20.975Z</time></trkpt><trkpt lat="44.09165" lon="9.8143417"><ele>39.0</ele><time>2026-04-23T08:20:21.974Z</time></trkpt><trkpt lat="44.0917267" lon="9.81447"><ele>39.0</ele><time>2026-04-23T08:20:22.974Z</time></trkpt><trkpt lat="44.0918033" lon="9.8145983"><ele>40.0</ele><time>2026-04-23T08:20:23.974Z</time></trkpt><trkpt lat="44.091875" lon="9.8147283"><ele>41.0</ele><time>2026-04-23T08:20:24.974Z</time></trkpt><trkpt lat="44.091955" lon="9.8148483"><ele>42.0</ele><time>2026-04-23T08:20:25.974Z</time></trkpt><trkpt lat="44.0920383" lon="9.814975"><ele>43.0</ele><time>2026-04-23T08:20:26.974Z</time></trkpt><trkpt lat="44.09211" lon="9.8150983"><ele>36.75</ele><time>2026-04-23T08:20:27.974Z</time></trkpt><trkpt lat="44.09219" lon="9.815235"><ele>30.5</ele><time>2026-04-23T08:20:28.975Z</time></trkpt><trkpt lat="44.09227" lon="9.81537"><ele>24.25</ele><time>2026-04-23T08:20:29.975Z</time></trkpt><trkpt lat="44.0923433" lon="9.81551"><ele>18.0</ele><time>2026-04-23T08:20:30.974Z</time></trkpt><trkpt lat="44.0924183" lon="9.8156467"><ele>16.25</ele><time>2026-04-23T08:20:31.974Z</time></trkpt><trkpt lat="44.0924883" lon="9.8157783"><ele>14.5</ele><time>2026-04-23T08:20:32.974Z</time></trkpt><trkpt lat="44.09256" lon="9.81591"><ele>12.75</ele><time>2026-04-23T08:20:33.974Z</time></trkpt><trkpt lat="44.0926417" lon="9.81605"><ele>11.0</ele><time>2026-04-23T08:20:34.974Z</time></trkpt><trkpt lat="44.0927167" lon="9.816185"><ele>11.0</ele><time>2026-04-23T08:20:35.974Z</time></trkpt><trkpt lat="44.0927933" lon="9.8163067"><ele>11.0</ele><time>2026-04-23T08:20:36.974Z</time></trkpt><trkpt lat="44.0928833" lon="9.8164233"><ele>11.0</ele><time>2026-04-23T08:20:37.975Z</time></trkpt><trkpt lat="44.0929883" lon="9.8165017"><ele>11.0</ele><time>2026-04-23T08:20:38.975Z</time></trkpt><trkpt lat="44.0930967" lon="9.816555"><ele>11.0</ele><time>2026-04-23T08:20:39.974Z</time></trkpt><trkpt lat="44.0932067" lon="9.816575"><ele>11.0</ele><time>2026-04-23T08:20:40.974Z</time></trkpt><trkpt lat="44.0933233" lon="9.8165783"><ele>11.0</ele><time>2026-04-23T08:20:41.974Z</time></trkpt><trkpt lat="44.0934367" lon="9.8165683"><ele>11.0</ele><time>2026-04-23T08:20:42.975Z</time></trkpt><trkpt lat="44.09355" lon="9.8165067"><ele>16.25</ele><time>2026-04-23T08:20:43.974Z</time></trkpt><trkpt lat="44.09367" lon="9.8164283"><ele>21.5</ele><time>2026-04-23T08:20:44.975Z</time></trkpt><trkpt lat="44.0937817" lon="9.8163333"><ele>26.75</ele><time>2026-04-23T08:20:45.974Z</time></trkpt><trkpt lat="44.0938883" lon="9.81623"><ele>32.0</ele><time>2026-04-23T08:20:46.974Z</time></trkpt><trkpt lat="44.09397" lon="9.8160867"><ele>32.75</ele><time>2026-04-23T08:20:47.974Z</time></trkpt><trkpt lat="44.0940433" lon="9.8159417"><ele>33.5</ele><time>2026-04-23T08:20:48.974Z</time></trkpt><trkpt lat="44.0941167" lon="9.8158133"><ele>34.25</ele><time>2026-04-23T08:20:49.975Z</time></trkpt><trkpt lat="44.09419" lon="9.8156817"><ele>35.0</ele><time>2026-04-23T08:20:50.975Z</time></trkpt><trkpt lat="44.0942667" lon="9.8155467"><ele>35.0</ele><time>2026-04-23T08:20:51.974Z</time></trkpt><trkpt lat="44.0943517" lon="9.81541"><ele>35.0</ele><time>2026-04-23T08:20:52.974Z</time></trkpt><trkpt lat="44.0944383" lon="9.81528"><ele>35.0</ele><time>2026-04-23T08:20:53.974Z</time></trkpt><trkpt lat="44.0945217" lon="9.8151483"><ele>35.0</ele><time>2026-04-23T08:20:54.975Z</time></trkpt><trkpt lat="44.09461" lon="9.8150233"><ele>37.75</ele><time>2026-04-23T08:20:55.974Z</time></trkpt><trkpt lat="44.0946817" lon="9.814885"><ele>40.5</ele><time>2026-04-23T08:20:56.975Z</time></trkpt><trkpt lat="44.0947383" lon="9.814745"><ele>43.25</ele><time>2026-04-23T08:20:57.974Z</time></trkpt><trkpt lat="44.0947767" lon="9.8145817"><ele>46.0</ele><time>2026-04-23T08:20:58.974Z</time></trkpt><trkpt lat="44.0948183" lon="9.8144183"><ele>42.25</ele><time>2026-04-23T08:20:59.974Z</time></trkpt><trkpt lat="44.0948933" lon="9.81426"><ele>38.5</ele><time>2026-04-23T08:21:00.974Z</time></trkpt><trkpt lat="44.0949783" lon="9.8141217"><ele>34.75</ele><time>2026-04-23T08:21:01.974Z</time></trkpt><trkpt lat="44.0950883" lon="9.8140183"><ele>31.0</ele><time>2026-04-23T08:21:02.974Z</time></trkpt><trkpt lat="44.0952083" lon="9.81397"><ele>31.0</ele><time>2026-04-23T08:21:03.974Z</time></trkpt><trkpt lat="44.0953333" lon="9.8139883"><ele>31.0</ele><time>2026-04-23T08:21:04.974Z</time></trkpt><trkpt lat="44.0954533" lon="9.8140217"><ele>31.0</ele><time>2026-04-23T08:21:05.974Z</time></trkpt><trkpt lat="44.0955667" lon="9.8140383"><ele>31.0</ele><time>2026-04-23T08:21:06.975Z</time></trkpt><trkpt lat="44.09568" lon="9.8140317"><ele>28.75</ele><time>2026-04-23T08:21:07.975Z</time></trkpt><trkpt lat="44.0957883" lon="9.8140017"><ele>26.5</ele><time>2026-04-23T08:21:08.974Z</time></trkpt><trkpt lat="44.0959017" lon="9.8139433"><ele>24.25</ele><time>2026-04-23T08:21:09.974Z</time></trkpt><trkpt lat="44.096015" lon="9.8138867"><ele>22.0</ele><time>2026-04-23T08:21:10.974Z</time></trkpt><trkpt lat="44.0961333" lon="9.813835"><ele>22.0</ele><time>2026-04-23T08:21:11.974Z</time></trkpt><trkpt lat="44.0962383" lon="9.8137817"><ele>22.0</ele><time>2026-04-23T08:21:12.974Z</time></trkpt><trkpt lat="44.0963533" lon="9.8137167"><ele>22.0</ele><time>2026-04-23T08:21:13.974Z</time></trkpt><trkpt lat="44.0964683" lon="9.8136517"><ele>22.0</ele><time>2026-04-23T08:21:14.974Z</time></trkpt><trkpt lat="44.0965817" lon="9.813585"><ele>21.25</ele><time>2026-04-23T08:21:15.974Z</time></trkpt><trkpt lat="44.0966817" lon="9.8135"><ele>20.5</ele><time>2026-04-23T08:21:16.974Z</time></trkpt><trkpt lat="44.0967717" lon="9.8133917"><ele>19.75</ele><time>2026-04-23T08:21:17.974Z</time></trkpt><trkpt lat="44.0968567" lon="9.81328"><ele>19.0</ele><time>2026-04-23T08:21:18.974Z</time></trkpt><trkpt lat="44.096935" lon="9.81316"><ele>19.0</ele><time>2026-04-23T08:21:19.974Z</time></trkpt><trkpt lat="44.0970083" lon="9.8130383"><ele>19.0</ele><time>2026-04-23T08:21:20.974Z</time></trkpt><trkpt lat="44.0970867" lon="9.81292"><ele>19.0</ele><time>2026-04-23T08:21:21.974Z</time></trkpt><trkpt lat="44.0971733" lon="9.8128083"><ele>19.0</ele><time>2026-04-23T08:21:22.974Z</time></trkpt><trkpt lat="44.0972717" lon="9.8127067"><ele>20.2</ele><time>2026-04-23T08:21:23.975Z</time></trkpt><trkpt lat="44.09737" lon="9.8126167"><ele>21.4</ele><time>2026-04-23T08:21:24.974Z</time></trkpt><trkpt lat="44.09746" lon="9.8125433"><ele>22.6</ele><time>2026-04-23T08:21:25.974Z</time></trkpt><trkpt lat="44.0975517" lon="9.8124683"><ele>23.8</ele><time>2026-04-23T08:21:26.975Z</time></trkpt><trkpt lat="44.0976383" lon="9.8123817"><ele>25.0</ele><time>2026-04-23T08:21:27.974Z</time></trkpt><trkpt lat="44.0977167" lon="9.8122917"><ele>22.8</ele><time>2026-04-23T08:21:28.975Z</time></trkpt><trkpt lat="44.0977883" lon="9.8121967"><ele>20.6</ele><time>2026-04-23T08:21:29.974Z</time></trkpt><trkpt lat="44.0978633" lon="9.8120883"><ele>18.4</ele><time>2026-04-23T08:21:30.974Z</time></trkpt><trkpt lat="44.09793" lon="9.8119783"><ele>16.2</ele><time>2026-04-23T08:21:31.975Z</time></trkpt><trkpt lat="44.097995" lon="9.8118733"><ele>14.0</ele><time>2026-04-23T08:21:32.975Z</time></trkpt><trkpt lat="44.0980583" lon="9.8117583"><ele>14.0</ele><time>2026-04-23T08:21:33.975Z</time></trkpt><trkpt lat="44.098125" lon="9.81164"><ele>13.999999999999998</ele><time>2026-04-23T08:21:34.974Z</time></trkpt><trkpt lat="44.098195" lon="9.8115117"><ele>13.999999999999998</ele><time>2026-04-23T08:21:35.974Z</time></trkpt><trkpt lat="44.098265" lon="9.8113867"><ele>14.0</ele><time>2026-04-23T08:21:36.974Z</time></trkpt><trkpt lat="44.098335" lon="9.8112733"><ele>14.0</ele><time>2026-04-23T08:21:37.975Z</time></trkpt><trkpt lat="44.0984067" lon="9.8111633"><ele>12.399999999999999</ele><time>2026-04-23T08:21:38.974Z</time></trkpt><trkpt lat="44.09847" lon="9.8110483"><ele>10.799999999999999</ele><time>2026-04-23T08:21:39.974Z</time></trkpt><trkpt lat="44.098535" lon="9.8109467"><ele>9.2</ele><time>2026-04-23T08:21:40.974Z</time></trkpt><trkpt lat="44.0985867" lon="9.8108517"><ele>7.6</ele><time>2026-04-23T08:21:41.975Z</time></trkpt><trkpt lat="44.0986383" lon="9.8107583"><ele>6.0</ele><time>2026-04-23T08:21:42.975Z</time></trkpt><trkpt lat="44.09869" lon="9.8106667"><ele>6.0</ele><time>2026-04-23T08:21:43.975Z</time></trkpt><trkpt lat="44.098725" lon="9.8105833"><ele>6.0</ele><time>2026-04-23T08:21:44.974Z</time></trkpt><trkpt lat="44.09876" lon="9.8105067"><ele>6.0</ele><time>2026-04-23T08:21:45.974Z</time></trkpt><trkpt lat="44.098825" lon="9.8103783"><ele>6.0</ele><time>2026-04-23T08:21:47.974Z</time></trkpt><trkpt lat="44.0988833" lon="9.8102783"><ele>6.0</ele><time>2026-04-23T08:21:49.975Z</time></trkpt><trkpt lat="44.0989533" lon="9.8101967"><ele>6.0</ele><time>2026-04-23T08:21:52.974Z</time></trkpt><trkpt lat="44.09901" lon="9.8101583"><ele>6.333333333333333</ele><time>2026-04-23T08:21:54.974Z</time></trkpt><trkpt lat="44.0990683" lon="9.8101183"><ele>6.666666666666666</ele><time>2026-04-23T08:21:56.974Z</time></trkpt><trkpt lat="44.0991333" lon="9.8100517"><ele>7.0</ele><time>2026-04-23T08:21:59.975Z</time></trkpt><trkpt lat="44.099185" lon="9.8099717"><ele>7.333333333333333</ele><time>2026-04-23T08:22:01.974Z</time></trkpt><trkpt lat="44.0992417" lon="9.8098617"><ele>7.666666666666666</ele><time>2026-04-23T08:22:03.974Z</time></trkpt><trkpt lat="44.0992867" lon="9.8097367"><ele>8.0</ele><time>2026-04-23T08:22:05.974Z</time></trkpt><trkpt lat="44.099335" lon="9.8096183"><ele>6.75</ele><time>2026-04-23T08:22:07.975Z</time></trkpt><trkpt lat="44.0993917" lon="9.8094817"><ele>5.5</ele><time>2026-04-23T08:22:09.975Z</time></trkpt><trkpt lat="44.0994483" lon="9.809345"><ele>4.25</ele><time>2026-04-23T08:22:11.974Z</time></trkpt><trkpt lat="44.099515" lon="9.8092167"><ele>3.0</ele><time>2026-04-23T08:22:13.974Z</time></trkpt><trkpt lat="44.099585" lon="9.809075"><ele>7.0</ele><time>2026-04-23T08:22:15.974Z</time></trkpt><trkpt lat="44.09966" lon="9.80894"><ele>11.0</ele><time>2026-04-23T08:22:17.974Z</time></trkpt><trkpt lat="44.0997317" lon="9.8087967"><ele>15.0</ele><time>2026-04-23T08:22:19.974Z</time></trkpt><trkpt lat="44.099795" lon="9.8086767"><ele>19.0</ele><time>2026-04-23T08:22:21.974Z</time></trkpt><trkpt lat="44.0998567" lon="9.8085667"><ele>17.4</ele><time>2026-04-23T08:22:23.974Z</time></trkpt><trkpt lat="44.0999133" lon="9.8084583"><ele>15.799999999999999</ele><time>2026-04-23T08:22:25.974Z</time></trkpt><trkpt lat="44.0999817" lon="9.8083317"><ele>14.2</ele><time>2026-04-23T08:22:27.975Z</time></trkpt><trkpt lat="44.1000567" lon="9.8082133"><ele>12.600000000000001</ele><time>2026-04-23T08:22:29.975Z</time></trkpt><trkpt lat="44.1001033" lon="9.8081533"><ele>11.0</ele><time>2026-04-23T08:22:30.974Z</time></trkpt><trkpt lat="44.1002" lon="9.8080383"><ele>11.0</ele><time>2026-04-23T08:22:32.974Z</time></trkpt><trkpt lat="44.10031" lon="9.8079617"><ele>11.0</ele><time>2026-04-23T08:22:34.974Z</time></trkpt><trkpt lat="44.1003733" lon="9.807945"><ele>11.0</ele><time>2026-04-23T08:22:35.975Z</time></trkpt><trkpt lat="44.10049" lon="9.8079517"><ele>11.0</ele><time>2026-04-23T08:22:37.975Z</time></trkpt><trkpt lat="44.1005967" lon="9.80801"><ele>11.0</ele><time>2026-04-23T08:22:39.974Z</time></trkpt><trkpt lat="44.1006933" lon="9.8080667"><ele>9.200000000000001</ele><time>2026-04-23T08:22:41.974Z</time></trkpt><trkpt lat="44.100815" lon="9.80809"><ele>7.4</ele><time>2026-04-23T08:22:43.974Z</time></trkpt><trkpt lat="44.1008767" lon="9.8080683"><ele>5.6000000000000005</ele><time>2026-04-23T08:22:44.975Z</time></trkpt><trkpt lat="44.1009683" lon="9.8079667"><ele>3.8000000000000003</ele><time>2026-04-23T08:22:46.974Z</time></trkpt><trkpt lat="44.10104" lon="9.80785"><ele>2.0</ele><time>2026-04-23T08:22:48.974Z</time></trkpt><trkpt lat="44.1011067" lon="9.8077417"><ele>2.8</ele><time>2026-04-23T08:22:50.974Z</time></trkpt><trkpt lat="44.1011783" lon="9.8076517"><ele>3.6</ele><time>2026-04-23T08:22:52.974Z</time></trkpt><trkpt lat="44.1012733" lon="9.8076083"><ele>4.3999999999999995</ele><time>2026-04-23T08:22:54.975Z</time></trkpt><trkpt lat="44.1013717" lon="9.8075883"><ele>5.2</ele><time>2026-04-23T08:22:56.974Z</time></trkpt><trkpt lat="44.101475" lon="9.80757"><ele>6.0</ele><time>2026-04-23T08:22:58.974Z</time></trkpt><trkpt lat="44.1015633" lon="9.8075733"><ele>6.199999999999999</ele><time>2026-04-23T08:23:00.974Z</time></trkpt><trkpt lat="44.1016567" lon="9.80758"><ele>6.3999999999999995</ele><time>2026-04-23T08:23:02.975Z</time></trkpt><trkpt lat="44.10176" lon="9.8075717"><ele>6.6</ele><time>2026-04-23T08:23:04.974Z</time></trkpt><trkpt lat="44.1018617" lon="9.8075633"><ele>6.8</ele><time>2026-04-23T08:23:06.974Z</time></trkpt><trkpt lat="44.10197" lon="9.80756"><ele>7.0</ele><time>2026-04-23T08:23:08.974Z</time></trkpt><trkpt lat="44.1020733" lon="9.8075533"><ele>7.0</ele><time>2026-04-23T08:23:10.974Z</time></trkpt><trkpt lat="44.1021783" lon="9.8075317"><ele>6.999999999999999</ele><time>2026-04-23T08:23:12.974Z</time></trkpt><trkpt lat="44.10228" lon="9.8075117"><ele>6.999999999999999</ele><time>2026-04-23T08:23:14.974Z</time></trkpt><trkpt lat="44.1023733" lon="9.8074933"><ele>7.0</ele><time>2026-04-23T08:23:16.974Z</time></trkpt><trkpt lat="44.1024483" lon="9.80747"><ele>7.0</ele><time>2026-04-23T08:23:18.974Z</time></trkpt><trkpt lat="44.1025383" lon="9.8074233"><ele>7.0</ele><time>2026-04-23T08:23:20.974Z</time></trkpt><trkpt lat="44.10262" lon="9.8073717"><ele>6.999999999999999</ele><time>2026-04-23T08:23:22.975Z</time></trkpt><trkpt lat="44.1027083" lon="9.8073117"><ele>6.999999999999999</ele><time>2026-04-23T08:23:24.974Z</time></trkpt><trkpt lat="44.10279" lon="9.807255"><ele>7.0</ele><time>2026-04-23T08:23:26.974Z</time></trkpt><trkpt lat="44.10287" lon="9.8071867"><ele>7.0</ele><time>2026-04-23T08:23:28.974Z</time></trkpt><trkpt lat="44.1029567" lon="9.807115"><ele>7.000000000000001</ele><time>2026-04-23T08:23:30.974Z</time></trkpt><trkpt lat="44.1030183" lon="9.8070383"><ele>7.0</ele><time>2026-04-23T08:23:32.975Z</time></trkpt><trkpt lat="44.10309" lon="9.8069617"><ele>7.0</ele><time>2026-04-23T08:23:34.975Z</time></trkpt><trkpt lat="44.1031717" lon="9.8068983"><ele>7.0</ele><time>2026-04-23T08:23:36.975Z</time></trkpt><trkpt lat="44.10324" lon="9.80685"><ele>7.000000000000001</ele><time>2026-04-23T08:23:38.975Z</time></trkpt><trkpt lat="44.103305" lon="9.8067933"><ele>7.0</ele><time>2026-04-23T08:23:40.974Z</time></trkpt><trkpt lat="44.1033583" lon="9.80672"><ele>7.833333333333334</ele><time>2026-04-23T08:23:42.975Z</time></trkpt><trkpt lat="44.103415" lon="9.8066567"><ele>8.666666666666668</ele><time>2026-04-23T08:23:44.974Z</time></trkpt><trkpt lat="44.1034733" lon="9.806595"><ele>9.5</ele><time>2026-04-23T08:23:46.975Z</time></trkpt><trkpt lat="44.1035333" lon="9.806525"><ele>10.333333333333334</ele><time>2026-04-23T08:23:48.974Z</time></trkpt><trkpt lat="44.103595" lon="9.80645"><ele>11.166666666666666</ele><time>2026-04-23T08:23:50.974Z</time></trkpt><trkpt lat="44.1036583" lon="9.8063883"><ele>12.0</ele><time>2026-04-23T08:23:52.974Z</time></trkpt><trkpt lat="44.1037217" lon="9.80634"><ele>12.0</ele><time>2026-04-23T08:23:54.974Z</time></trkpt><trkpt lat="44.1037833" lon="9.80627"><ele>12.0</ele><time>2026-04-23T08:23:56.974Z</time></trkpt><trkpt lat="44.1038433" lon="9.8062117"><ele>12.0</ele><time>2026-04-23T08:23:58.975Z</time></trkpt><trkpt lat="44.103905" lon="9.8061417"><ele>12.0</ele><time>2026-04-23T08:24:00.975Z</time></trkpt><trkpt lat="44.10397" lon="9.80607"><ele>12.0</ele><time>2026-04-23T08:24:02.975Z</time></trkpt><trkpt lat="44.1040267" lon="9.8060067"><ele>12.0</ele><time>2026-04-23T08:24:04.974Z</time></trkpt><trkpt lat="44.1040833" lon="9.80592"><ele>12.333333333333334</ele><time>2026-04-23T08:24:06.974Z</time></trkpt><trkpt lat="44.1041517" lon="9.8058183"><ele>12.666666666666668</ele><time>2026-04-23T08:24:08.974Z</time></trkpt><trkpt lat="44.10422" lon="9.8057467"><ele>13.0</ele><time>2026-04-23T08:24:10.974Z</time></trkpt><trkpt lat="44.1042867" lon="9.8056833"><ele>13.333333333333334</ele><time>2026-04-23T08:24:12.974Z</time></trkpt><trkpt lat="44.10435" lon="9.8055983"><ele>13.666666666666668</ele><time>2026-04-23T08:24:14.974Z</time></trkpt><trkpt lat="44.1044017" lon="9.8055017"><ele>14.0</ele><time>2026-04-23T08:24:16.974Z</time></trkpt><trkpt lat="44.104455" lon="9.8054117"><ele>14.0</ele><time>2026-04-23T08:24:18.974Z</time></trkpt><trkpt lat="44.104515" lon="9.80531"><ele>13.999999999999998</ele><time>2026-04-23T08:24:20.974Z</time></trkpt><trkpt lat="44.1045667" lon="9.80521"><ele>13.999999999999998</ele><time>2026-04-23T08:24:22.974Z</time></trkpt><trkpt lat="44.1046217" lon="9.8051117"><ele>14.0</ele><time>2026-04-23T08:24:24.974Z</time></trkpt><trkpt lat="44.104675" lon="9.8050033"><ele>14.0</ele><time>2026-04-23T08:24:26.975Z</time></trkpt><trkpt lat="44.104725" lon="9.8049017"><ele>14.857142857142858</ele><time>2026-04-23T08:24:28.974Z</time></trkpt><trkpt lat="44.10476" lon="9.8048183"><ele>15.714285714285715</ele><time>2026-04-23T08:24:30.975Z</time></trkpt><trkpt lat="44.1047967" lon="9.8047467"><ele>16.57142857142857</ele><time>2026-04-23T08:24:32.975Z</time></trkpt><trkpt lat="44.1048483" lon="9.8046533"><ele>17.42857142857143</ele><time>2026-04-23T08:24:35.974Z</time></trkpt><trkpt lat="44.1048417" lon="9.8045333"><ele>18.285714285714285</ele><time>2026-04-23T08:24:38.974Z</time></trkpt><trkpt lat="44.1047983" lon="9.80446"><ele>19.142857142857142</ele><time>2026-04-23T08:24:40.974Z</time></trkpt><trkpt lat="44.10475" lon="9.8044033"><ele>20.0</ele><time>2026-04-23T08:24:42.974Z</time></trkpt><trkpt lat="44.1047283" lon="9.8043067"><ele>20.4</ele><time>2026-04-23T08:24:45.974Z</time></trkpt><trkpt lat="44.1048083" lon="9.8042283"><ele>20.8</ele><time>2026-04-23T08:24:48.974Z</time></trkpt><trkpt lat="44.104875" lon="9.8041583"><ele>21.200000000000003</ele><time>2026-04-23T08:24:50.974Z</time></trkpt><trkpt lat="44.10495" lon="9.8040883"><ele>21.6</ele><time>2026-04-23T08:24:52.974Z</time></trkpt><trkpt lat="44.1050367" lon="9.8040467"><ele>22.0</ele><time>2026-04-23T08:24:54.973Z</time></trkpt><trkpt lat="44.1051167" lon="9.8039883"><ele>21.333333333333332</ele><time>2026-04-23T08:24:56.974Z</time></trkpt><trkpt lat="44.1051933" lon="9.8039533"><ele>20.666666666666664</ele><time>2026-04-23T08:24:58.973Z</time></trkpt><trkpt lat="44.10527" lon="9.80391"><ele>20.0</ele><time>2026-04-23T08:25:00.973Z</time></trkpt><trkpt lat="44.1053433" lon="9.80388"><ele>19.333333333333332</ele><time>2026-04-23T08:25:02.973Z</time></trkpt><trkpt lat="44.105405" lon="9.8038433"><ele>18.666666666666668</ele><time>2026-04-23T08:25:04.973Z</time></trkpt><trkpt lat="44.1054817" lon="9.8037983"><ele>18.0</ele><time>2026-04-23T08:25:07.973Z</time></trkpt><trkpt lat="44.1055683" lon="9.8037467"><ele>18.0</ele><time>2026-04-23T08:25:14.973Z</time></trkpt><trkpt lat="44.1056317" lon="9.8037317"><ele>18.0</ele><time>2026-04-23T08:25:16.973Z</time></trkpt><trkpt lat="44.1056917" lon="9.8036933"><ele>18.0</ele><time>2026-04-23T08:25:18.973Z</time></trkpt><trkpt lat="44.105765" lon="9.8036583"><ele>18.0</ele><time>2026-04-23T08:25:20.973Z</time></trkpt><trkpt lat="44.10585" lon="9.8036233"><ele>18.0</ele><time>2026-04-23T08:25:22.974Z</time></trkpt><trkpt lat="44.1059433" lon="9.8035917"><ele>18.0</ele><time>2026-04-23T08:25:24.973Z</time></trkpt><trkpt lat="44.10603" lon="9.80356"><ele>18.0</ele><time>2026-04-23T08:25:26.973Z</time></trkpt><trkpt lat="44.1061083" lon="9.8035467"><ele>18.0</ele><time>2026-04-23T08:25:28.973Z</time></trkpt><trkpt lat="44.1061917" lon="9.8035217"><ele>18.0</ele><time>2026-04-23T08:25:30.973Z</time></trkpt><trkpt lat="44.1062917" lon="9.8034883"><ele>18.0</ele><time>2026-04-23T08:25:32.974Z</time></trkpt><trkpt lat="44.1064" lon="9.8034883"><ele>18.0</ele><time>2026-04-23T08:25:34.973Z</time></trkpt><trkpt lat="44.1065183" lon="9.8034933"><ele>18.5</ele><time>2026-04-23T08:25:36.973Z</time></trkpt><trkpt lat="44.1066333" lon="9.8035017"><ele>19.0</ele><time>2026-04-23T08:25:38.974Z</time></trkpt><trkpt lat="44.1067483" lon="9.8035267"><ele>19.5</ele><time>2026-04-23T08:25:40.973Z</time></trkpt><trkpt lat="44.10686" lon="9.803555"><ele>20.0</ele><time>2026-04-23T08:25:42.974Z</time></trkpt><trkpt lat="44.10696" lon="9.8036033"><ele>20.0</ele><time>2026-04-23T08:25:44.973Z</time></trkpt><trkpt lat="44.10706" lon="9.8036583"><ele>20.0</ele><time>2026-04-23T08:25:46.974Z</time></trkpt><trkpt lat="44.1071633" lon="9.803705"><ele>20.0</ele><time>2026-04-23T08:25:48.973Z</time></trkpt><trkpt lat="44.1072633" lon="9.8037433"><ele>20.0</ele><time>2026-04-23T08:25:50.973Z</time></trkpt><trkpt lat="44.107355" lon="9.80381"><ele>20.0</ele><time>2026-04-23T08:25:52.973Z</time></trkpt><trkpt lat="44.107455" lon="9.8038833"><ele>19.6</ele><time>2026-04-23T08:25:54.974Z</time></trkpt><trkpt lat="44.1075283" lon="9.8040033"><ele>19.2</ele><time>2026-04-23T08:25:56.973Z</time></trkpt><trkpt lat="44.107605" lon="9.8041117"><ele>18.8</ele><time>2026-04-23T08:25:58.973Z</time></trkpt><trkpt lat="44.1076883" lon="9.8042233"><ele>18.4</ele><time>2026-04-23T08:26:00.973Z</time></trkpt><trkpt lat="44.1077667" lon="9.8043167"><ele>18.0</ele><time>2026-04-23T08:26:02.973Z</time></trkpt><trkpt lat="44.1078433" lon="9.8043833"><ele>18.0</ele><time>2026-04-23T08:26:04.973Z</time></trkpt><trkpt lat="44.1079317" lon="9.8044583"><ele>18.0</ele><time>2026-04-23T08:26:06.974Z</time></trkpt><trkpt lat="44.1080117" lon="9.8045583"><ele>18.0</ele><time>2026-04-23T08:26:08.974Z</time></trkpt><trkpt lat="44.10809" lon="9.8046383"><ele>18.0</ele><time>2026-04-23T08:26:10.973Z</time></trkpt><trkpt lat="44.10817" lon="9.8047283"><ele>18.0</ele><time>2026-04-23T08:26:12.973Z</time></trkpt><trkpt lat="44.1082417" lon="9.8048083"><ele>17.8</ele><time>2026-04-23T08:26:14.974Z</time></trkpt><trkpt lat="44.1083167" lon="9.8048917"><ele>17.6</ele><time>2026-04-23T08:26:16.973Z</time></trkpt><trkpt lat="44.1083933" lon="9.8049717"><ele>17.4</ele><time>2026-04-23T08:26:18.974Z</time></trkpt><trkpt lat="44.1084683" lon="9.80506"><ele>17.2</ele><time>2026-04-23T08:26:20.974Z</time></trkpt><trkpt lat="44.1085317" lon="9.8051317"><ele>17.0</ele><time>2026-04-23T08:26:22.973Z</time></trkpt><trkpt lat="44.1085967" lon="9.805205"><ele>16.833333333333336</ele><time>2026-04-23T08:26:24.974Z</time></trkpt><trkpt lat="44.108665" lon="9.8052883"><ele>16.666666666666668</ele><time>2026-04-23T08:26:26.973Z</time></trkpt><trkpt lat="44.1087333" lon="9.8053667"><ele>16.5</ele><time>2026-04-23T08:26:28.973Z</time></trkpt><trkpt lat="44.1087817" lon="9.8054317"><ele>16.333333333333332</ele><time>2026-04-23T08:26:31.973Z</time></trkpt><trkpt lat="44.1088483" lon="9.8055083"><ele>16.166666666666664</ele><time>2026-04-23T08:26:37.973Z</time></trkpt><trkpt lat="44.1089117" lon="9.8055667"><ele>16.0</ele><time>2026-04-23T08:26:40.973Z</time></trkpt><trkpt lat="44.1089883" lon="9.8056"><ele>15.999999999999998</ele><time>2026-04-23T08:26:46.973Z</time></trkpt><trkpt lat="44.1090483" lon="9.8055117"><ele>16.0</ele><time>2026-04-23T08:26:49.973Z</time></trkpt><trkpt lat="44.1090883" lon="9.8054433"><ele>16.0</ele><time>2026-04-23T08:26:51.973Z</time></trkpt><trkpt lat="44.1091383" lon="9.8053683"><ele>16.0</ele><time>2026-04-23T08:26:53.973Z</time></trkpt><trkpt lat="44.10919" lon="9.80528"><ele>15.999999999999998</ele><time>2026-04-23T08:26:55.974Z</time></trkpt><trkpt lat="44.109245" lon="9.8052"><ele>16.0</ele><time>2026-04-23T08:26:57.973Z</time></trkpt><trkpt lat="44.1092967" lon="9.8051167"><ele>15.833333333333332</ele><time>2026-04-23T08:26:59.974Z</time></trkpt><trkpt lat="44.10935" lon="9.805045"><ele>15.666666666666666</ele><time>2026-04-23T08:27:01.973Z</time></trkpt><trkpt lat="44.1094067" lon="9.8049633"><ele>15.5</ele><time>2026-04-23T08:27:03.973Z</time></trkpt><trkpt lat="44.1094583" lon="9.80488"><ele>15.333333333333332</ele><time>2026-04-23T08:27:05.973Z</time></trkpt><trkpt lat="44.1095067" lon="9.804785"><ele>15.166666666666666</ele><time>2026-04-23T08:27:07.973Z</time></trkpt><trkpt lat="44.1095617" lon="9.8046733"><ele>15.0</ele><time>2026-04-23T08:27:09.973Z</time></trkpt><trkpt lat="44.1096267" lon="9.804575"><ele>15.0</ele><time>2026-04-23T08:27:11.974Z</time></trkpt><trkpt lat="44.1096833" lon="9.8044633"><ele>15.0</ele><time>2026-04-23T08:27:13.973Z</time></trkpt><trkpt lat="44.1097483" lon="9.8043483"><ele>15.0</ele><time>2026-04-23T08:27:15.973Z</time></trkpt><trkpt lat="44.1098133" lon="9.8042483"><ele>15.0</ele><time>2026-04-23T08:27:17.973Z</time></trkpt><trkpt lat="44.1098833" lon="9.8041417"><ele>15.0</ele><time>2026-04-23T08:27:19.973Z</time></trkpt><trkpt lat="44.1099383" lon="9.8040333"><ele>15.0</ele><time>2026-04-23T08:27:21.973Z</time></trkpt><trkpt lat="44.1099833" lon="9.8039317"><ele>15.0</ele><time>2026-04-23T08:27:23.974Z</time></trkpt><trkpt lat="44.1100283" lon="9.803865"><ele>15.0</ele><time>2026-04-23T08:27:25.973Z</time></trkpt><trkpt lat="44.1100833" lon="9.8037583"><ele>15.0</ele><time>2026-04-23T08:27:27.973Z</time></trkpt><trkpt lat="44.1101517" lon="9.8036767"><ele>15.0</ele><time>2026-04-23T08:27:29.973Z</time></trkpt><trkpt lat="44.110225" lon="9.8035767"><ele>15.0</ele><time>2026-04-23T08:27:31.974Z</time></trkpt><trkpt lat="44.1102917" lon="9.80347"><ele>14.8</ele><time>2026-04-23T08:27:33.974Z</time></trkpt><trkpt lat="44.1103433" lon="9.803365"><ele>14.6</ele><time>2026-04-23T08:27:35.973Z</time></trkpt><trkpt lat="44.1104017" lon="9.8032717"><ele>14.399999999999999</ele><time>2026-04-23T08:27:37.973Z</time></trkpt><trkpt lat="44.1104567" lon="9.8031733"><ele>14.2</ele><time>2026-04-23T08:27:39.974Z</time></trkpt><trkpt lat="44.1105083" lon="9.8030483"><ele>14.0</ele><time>2026-04-23T08:27:41.973Z</time></trkpt><trkpt lat="44.1105517" lon="9.8029417"><ele>14.0</ele><time>2026-04-23T08:27:43.973Z</time></trkpt><trkpt lat="44.1106017" lon="9.802835"><ele>13.999999999999998</ele><time>2026-04-23T08:27:45.974Z</time></trkpt><trkpt lat="44.1106617" lon="9.80272"><ele>13.999999999999998</ele><time>2026-04-23T08:27:47.973Z</time></trkpt><trkpt lat="44.11072" lon="9.80261"><ele>14.0</ele><time>2026-04-23T08:27:49.973Z</time></trkpt><trkpt lat="44.1107733" lon="9.8025117"><ele>14.0</ele><time>2026-04-23T08:27:51.973Z</time></trkpt><trkpt lat="44.1108233" lon="9.8023983"><ele>14.666666666666668</ele><time>2026-04-23T08:27:53.973Z</time></trkpt><trkpt lat="44.1108783" lon="9.802295"><ele>15.333333333333334</ele><time>2026-04-23T08:27:55.973Z</time></trkpt><trkpt lat="44.11093" lon="9.802215"><ele>16.0</ele><time>2026-04-23T08:27:57.974Z</time></trkpt><trkpt lat="44.1109883" lon="9.8021317"><ele>16.666666666666668</ele><time>2026-04-23T08:27:59.973Z</time></trkpt><trkpt lat="44.1110517" lon="9.8020567"><ele>17.333333333333332</ele><time>2026-04-23T08:28:01.974Z</time></trkpt><trkpt lat="44.111135" lon="9.802"><ele>18.0</ele><time>2026-04-23T08:28:03.973Z</time></trkpt><trkpt lat="44.1112417" lon="9.8019783"><ele>18.0</ele><time>2026-04-23T08:28:05.973Z</time></trkpt><trkpt lat="44.111335" lon="9.80196"><ele>18.0</ele><time>2026-04-23T08:28:07.974Z</time></trkpt><trkpt lat="44.11143" lon="9.80196"><ele>18.0</ele><time>2026-04-23T08:28:09.973Z</time></trkpt><trkpt lat="44.1115267" lon="9.8019683"><ele>18.0</ele><time>2026-04-23T08:28:11.974Z</time></trkpt><trkpt lat="44.1116233" lon="9.8019867"><ele>18.0</ele><time>2026-04-23T08:28:13.973Z</time></trkpt><trkpt lat="44.1117167" lon="9.8020267"><ele>18.4</ele><time>2026-04-23T08:28:15.973Z</time></trkpt><trkpt lat="44.111805" lon="9.802065"><ele>18.8</ele><time>2026-04-23T08:28:17.973Z</time></trkpt><trkpt lat="44.1118967" lon="9.8021133"><ele>19.2</ele><time>2026-04-23T08:28:19.973Z</time></trkpt><trkpt lat="44.1119833" lon="9.8021683"><ele>19.6</ele><time>2026-04-23T08:28:21.974Z</time></trkpt><trkpt lat="44.11206" lon="9.8022117"><ele>20.0</ele><time>2026-04-23T08:28:23.973Z</time></trkpt><trkpt lat="44.1121433" lon="9.8022583"><ele>20.0</ele><time>2026-04-23T08:28:25.973Z</time></trkpt><trkpt lat="44.11223" lon="9.802305"><ele>20.0</ele><time>2026-04-23T08:28:27.974Z</time></trkpt><trkpt lat="44.1123083" lon="9.80235"><ele>20.0</ele><time>2026-04-23T08:28:29.973Z</time></trkpt><trkpt lat="44.11239" lon="9.8024033"><ele>20.0</ele><time>2026-04-23T08:28:31.974Z</time></trkpt><trkpt lat="44.112475" lon="9.80246"><ele>20.0</ele><time>2026-04-23T08:28:33.974Z</time></trkpt><trkpt lat="44.1125517" lon="9.802505"><ele>20.0</ele><time>2026-04-23T08:28:35.974Z</time></trkpt><trkpt lat="44.1126367" lon="9.8025433"><ele>20.166666666666668</ele><time>2026-04-23T08:28:37.974Z</time></trkpt><trkpt lat="44.1127167" lon="9.8025833"><ele>20.333333333333336</ele><time>2026-04-23T08:28:39.973Z</time></trkpt><trkpt lat="44.1127967" lon="9.8025767"><ele>20.5</ele><time>2026-04-23T08:28:41.973Z</time></trkpt><trkpt lat="44.11288" lon="9.8025817"><ele>20.666666666666668</ele><time>2026-04-23T08:28:43.973Z</time></trkpt><trkpt lat="44.11297" lon="9.8026333"><ele>20.833333333333332</ele><time>2026-04-23T08:28:45.973Z</time></trkpt><trkpt lat="44.1130567" lon="9.8026667"><ele>21.0</ele><time>2026-04-23T08:28:47.974Z</time></trkpt><trkpt lat="44.1131483" lon="9.80269"><ele>21.8</ele><time>2026-04-23T08:28:49.973Z</time></trkpt><trkpt lat="44.1132467" lon="9.8027033"><ele>22.6</ele><time>2026-04-23T08:28:51.974Z</time></trkpt><trkpt lat="44.1133483" lon="9.80272"><ele>23.4</ele><time>2026-04-23T08:28:53.973Z</time></trkpt><trkpt lat="44.113445" lon="9.8027483"><ele>24.2</ele><time>2026-04-23T08:28:55.973Z</time></trkpt><trkpt lat="44.1135483" lon="9.802775"><ele>25.0</ele><time>2026-04-23T08:28:57.973Z</time></trkpt><trkpt lat="44.1136433" lon="9.80278"><ele>25.0</ele><time>2026-04-23T08:28:59.973Z</time></trkpt><trkpt lat="44.1137333" lon="9.802805"><ele>25.0</ele><time>2026-04-23T08:29:01.973Z</time></trkpt><trkpt lat="44.113835" lon="9.8028317"><ele>25.0</ele><time>2026-04-23T08:29:03.973Z</time></trkpt><trkpt lat="44.1139267" lon="9.8028533"><ele>25.0</ele><time>2026-04-23T08:29:05.973Z</time></trkpt><trkpt lat="44.114025" lon="9.8028783"><ele>25.0</ele><time>2026-04-23T08:29:07.973Z</time></trkpt><trkpt lat="44.114135" lon="9.8028833"><ele>25.0</ele><time>2026-04-23T08:29:09.973Z</time></trkpt><trkpt lat="44.11423" lon="9.802895"><ele>25.0</ele><time>2026-04-23T08:29:11.973Z</time></trkpt><trkpt lat="44.11433" lon="9.8029083"><ele>25.0</ele><time>2026-04-23T08:29:13.973Z</time></trkpt><trkpt lat="44.114425" lon="9.8029317"><ele>25.0</ele><time>2026-04-23T08:29:15.974Z</time></trkpt><trkpt lat="44.11452" lon="9.8029717"><ele>25.0</ele><time>2026-04-23T08:29:17.973Z</time></trkpt><trkpt lat="44.1146133" lon="9.8030083"><ele>25.000000000000004</ele><time>2026-04-23T08:29:19.973Z</time></trkpt><trkpt lat="44.1147033" lon="9.803065"><ele>25.0</ele><time>2026-04-23T08:29:21.973Z</time></trkpt><trkpt lat="44.1147867" lon="9.8031317"><ele>25.0</ele><time>2026-04-23T08:29:23.973Z</time></trkpt><trkpt lat="44.11486" lon="9.80318"><ele>25.0</ele><time>2026-04-23T08:29:25.973Z</time></trkpt><trkpt lat="44.1149317" lon="9.8032133"><ele>25.000000000000004</ele><time>2026-04-23T08:29:27.973Z</time></trkpt><trkpt lat="44.1150167" lon="9.8032317"><ele>25.0</ele><time>2026-04-23T08:29:29.973Z</time></trkpt><trkpt lat="44.1151" lon="9.8032817"><ele>25.4</ele><time>2026-04-23T08:29:31.974Z</time></trkpt><trkpt lat="44.1151783" lon="9.8033317"><ele>25.8</ele><time>2026-04-23T08:29:33.973Z</time></trkpt><trkpt lat="44.11526" lon="9.80339"><ele>26.200000000000003</ele><time>2026-04-23T08:29:35.973Z</time></trkpt><trkpt lat="44.1153467" lon="9.8034567"><ele>26.6</ele><time>2026-04-23T08:29:37.973Z</time></trkpt><trkpt lat="44.11544" lon="9.80352"><ele>27.0</ele><time>2026-04-23T08:29:39.973Z</time></trkpt><trkpt lat="44.115525" lon="9.8035817"><ele>27.0</ele><time>2026-04-23T08:29:41.973Z</time></trkpt><trkpt lat="44.1156183" lon="9.8036083"><ele>27.000000000000004</ele><time>2026-04-23T08:29:43.973Z</time></trkpt><trkpt lat="44.1157167" lon="9.8036233"><ele>27.000000000000004</ele><time>2026-04-23T08:29:45.973Z</time></trkpt><trkpt lat="44.1158083" lon="9.8036483"><ele>27.0</ele><time>2026-04-23T08:29:47.974Z</time></trkpt><trkpt lat="44.1159117" lon="9.803655"><ele>27.0</ele><time>2026-04-23T08:29:49.973Z</time></trkpt><trkpt lat="44.1160117" lon="9.803655"><ele>27.400000000000002</ele><time>2026-04-23T08:29:51.973Z</time></trkpt><trkpt lat="44.1161" lon="9.8036533"><ele>27.800000000000004</ele><time>2026-04-23T08:29:53.974Z</time></trkpt><trkpt lat="44.1161883" lon="9.8036267"><ele>28.2</ele><time>2026-04-23T08:29:55.974Z</time></trkpt><trkpt lat="44.116275" lon="9.803595"><ele>28.6</ele><time>2026-04-23T08:29:57.973Z</time></trkpt><trkpt lat="44.11637" lon="9.8035683"><ele>29.0</ele><time>2026-04-23T08:29:59.974Z</time></trkpt><trkpt lat="44.11646" lon="9.8035433"><ele>28.999999999999996</ele><time>2026-04-23T08:30:01.973Z</time></trkpt><trkpt lat="44.1165467" lon="9.803515"><ele>29.0</ele><time>2026-04-23T08:30:03.973Z</time></trkpt><trkpt lat="44.1166117" lon="9.8034533"><ele>29.0</ele><time>2026-04-23T08:30:05.974Z</time></trkpt><trkpt lat="44.1166583" lon="9.8033833"><ele>29.0</ele><time>2026-04-23T08:30:07.973Z</time></trkpt><trkpt lat="44.1167033" lon="9.8033117"><ele>28.999999999999996</ele><time>2026-04-23T08:30:09.973Z</time></trkpt><trkpt lat="44.1167467" lon="9.8032317"><ele>29.0</ele><time>2026-04-23T08:30:11.973Z</time></trkpt><trkpt lat="44.1167917" lon="9.8031333"><ele>29.666666666666664</ele><time>2026-04-23T08:30:13.973Z</time></trkpt><trkpt lat="44.1168433" lon="9.8030733"><ele>30.333333333333332</ele><time>2026-04-23T08:30:15.973Z</time></trkpt><trkpt lat="44.1169317" lon="9.8030983"><ele>31.0</ele><time>2026-04-23T08:30:18.974Z</time></trkpt><trkpt lat="44.1170183" lon="9.8031483"><ele>31.666666666666664</ele><time>2026-04-23T08:30:20.973Z</time></trkpt><trkpt lat="44.1171117" lon="9.8031833"><ele>32.333333333333336</ele><time>2026-04-23T08:30:22.973Z</time></trkpt><trkpt lat="44.11718" lon="9.8032517"><ele>33.0</ele><time>2026-04-23T08:30:24.974Z</time></trkpt><trkpt lat="44.1172417" lon="9.803305"><ele>33.0</ele><time>2026-04-23T08:30:27.974Z</time></trkpt><trkpt lat="44.1173233" lon="9.8032717"><ele>33.0</ele><time>2026-04-23T08:30:33.974Z</time></trkpt><trkpt lat="44.11739" lon="9.8032117"><ele>33.0</ele><time>2026-04-23T08:30:35.973Z</time></trkpt><trkpt lat="44.1174583" lon="9.8031533"><ele>33.0</ele><time>2026-04-23T08:30:37.974Z</time></trkpt><trkpt lat="44.117535" lon="9.8030933"><ele>33.0</ele><time>2026-04-23T08:30:39.973Z</time></trkpt><trkpt lat="44.117605" lon="9.8030267"><ele>33.0</ele><time>2026-04-23T08:30:41.973Z</time></trkpt><trkpt lat="44.117685" lon="9.8029733"><ele>33.666666666666664</ele><time>2026-04-23T08:30:43.973Z</time></trkpt><trkpt lat="44.1177633" lon="9.80292"><ele>34.333333333333336</ele><time>2026-04-23T08:30:45.973Z</time></trkpt><trkpt lat="44.1178267" lon="9.8028533"><ele>35.0</ele><time>2026-04-23T08:30:47.973Z</time></trkpt><trkpt lat="44.1178883" lon="9.8027967"><ele>35.66666666666667</ele><time>2026-04-23T08:30:49.973Z</time></trkpt><trkpt lat="44.1179667" lon="9.80274"><ele>36.333333333333336</ele><time>2026-04-23T08:30:52.974Z</time></trkpt><trkpt lat="44.118035" lon="9.8027133"><ele>37.0</ele><time>2026-04-23T08:30:55.973Z</time></trkpt><trkpt lat="44.1180933" lon="9.802765"><ele>37.0</ele><time>2026-04-23T08:30:59.973Z</time></trkpt><trkpt lat="44.1181317" lon="9.80284"><ele>37.0</ele><time>2026-04-23T08:31:02.973Z</time></trkpt><trkpt lat="44.1181933" lon="9.8028967"><ele>37.0</ele><time>2026-04-23T08:31:06.973Z</time></trkpt></trkseg></trk></gpx>